ftp/pub/palmer/observations_modified/2019/November/AR191102_AWS2.txt

Download

Sample DateTime	Unit Id	WS Avg 2min	WD Avg 2min	WGS 10min	WGD 10min	Air Temp	Rel Humidity	Dew Point	Pyranometer	Quantum	Air Pressure	Snow Level	Rainfall	PW Current	Visibility	CBase 1	CBase 2	CBase 3	Vert Vis
2019/11/02 00:00:01	AWS2	4.09	235	4.78	229	M	M	M	NA	NA	974.6	NA	NA		M	NA	NA	NA	NA
2019/11/02 00:01:04	AWS2	4.25	234	4.78	229	M	M	M	NA	NA	975.0	NA	NA		M	NA	NA	NA	NA
2019/11/02 00:02:04	AWS2	4.33	235	5.14	236	M	M	M	NA	NA	975.6	NA	NA		M	NA	NA	NA	NA
2019/11/02 00:03:03	AWS2	4.33	233	5.14	236	M	M	M	NA	NA	975.3	NA	NA		M	NA	NA	NA	NA
2019/11/02 00:04:03	AWS2	4.30	231	5.14	236	M	M	M	NA	NA	975.0	NA	NA		M	NA	NA	NA	NA
2019/11/02 00:05:03	AWS2	4.54	231	5.25	233	M	M	M	NA	NA	974.7	NA	NA		M	NA	NA	NA	NA
2019/11/02 00:06:04	AWS2	4.64	231	5.25	233	M	M	M	NA	NA	975.0	NA	NA		M	NA	NA	NA	NA
2019/11/02 00:07:03	AWS2	4.58	230	5.25	233	M	M	M	NA	NA	975.3	NA	NA		M	NA	NA	NA	NA
2019/11/02 00:08:03	AWS2	4.43	232	5.25	233	M	M	M	NA	NA	975.0	NA	NA		M	NA	NA	NA	NA
2019/11/02 00:09:03	AWS2	4.28	234	5.25	233	M	M	M	NA	NA	975.1	NA	NA		M	NA	NA	NA	NA
2019/11/02 00:10:03	AWS2	4.38	234	5.25	233	M	M	M	NA	NA	975.0	NA	NA		M	NA	NA	NA	NA
2019/11/02 00:11:03	AWS2	4.47	234	5.25	233	M	M	M	NA	NA	974.9	NA	NA		M	NA	NA	NA	NA
2019/11/02 00:12:04	AWS2	4.58	235	5.25	233	M	M	M	NA	NA	974.9	NA	NA		M	NA	NA	NA	NA
2019/11/02 00:13:04	AWS2	4.48	235	5.25	233	M	M	M	NA	NA	975.4	NA	NA		M	NA	NA	NA	NA
2019/11/02 00:14:04	AWS2	4.50	235	5.25	233	M	M	M	NA	NA	974.8	NA	NA		M	NA	NA	NA	NA
2019/11/02 00:15:03	AWS2	4.82	234	5.25	233	M	M	M	NA	NA	974.8	NA	NA		M	NA	NA	NA	NA
2019/11/02 00:16:04	AWS2	5.06	234	5.81	235	M	M	M	NA	NA	974.9	NA	NA		M	NA	NA	NA	NA
2019/11/02 00:17:03	AWS2	5.16	233	5.81	235	M	M	M	NA	NA	975.0	NA	NA		M	NA	NA	NA	NA
2019/11/02 00:18:03	AWS2	5.13	233	5.81	235	M	M	M	NA	NA	974.9	NA	NA		M	NA	NA	NA	NA
2019/11/02 00:19:03	AWS2	5.14	234	5.81	235	M	M	M	NA	NA	975.0	NA	NA		M	NA	NA	NA	NA
2019/11/02 00:20:03	AWS2	5.09	234	5.81	235	M	M	M	NA	NA	974.7	NA	NA		M	NA	NA	NA	NA
2019/11/02 00:21:04	AWS2	5.10	234	5.81	235	M	M	M	NA	NA	975.1	NA	NA		M	NA	NA	NA	NA
2019/11/02 00:22:05	AWS2	5.15	235	5.81	235	M	M	M	NA	NA	975.1	NA	NA		M	NA	NA	NA	NA
2019/11/02 00:23:03	AWS2	5.21	236	5.81	235	M	M	M	NA	NA	975.1	NA	NA		M	NA	NA	NA	NA
2019/11/02 00:24:04	AWS2	5.10	235	5.81	235	M	M	M	NA	NA	974.7	NA	NA		M	NA	NA	NA	NA
2019/11/02 00:25:03	AWS2	5.02	235	5.81	235	M	M	M	NA	NA	974.8	NA	NA		M	NA	NA	NA	NA
2019/11/02 00:26:03	AWS2	4.98	234	5.76	233	M	M	M	NA	NA	974.4	NA	NA		M	NA	NA	NA	NA
2019/11/02 00:27:04	AWS2	5.06	234	5.76	233	M	M	M	NA	NA	974.6	NA	NA		M	NA	NA	NA	NA
2019/11/02 00:28:03	AWS2	5.01	233	5.61	235	M	M	M	NA	NA	974.5	NA	NA		M	NA	NA	NA	NA
2019/11/02 00:29:03	AWS2	4.96	232	5.61	235	M	M	M	NA	NA	974.7	NA	NA		M	NA	NA	NA	NA
2019/11/02 00:30:03	AWS2	5.19	233	5.61	235	M	M	M	NA	NA	974.9	NA	NA		M	NA	NA	NA	NA
2019/11/02 00:31:05	AWS2	5.19	235	5.61	235	M	M	M	NA	NA	974.9	NA	NA		M	NA	NA	NA	NA
2019/11/02 00:32:04	AWS2	5.03	235	5.61	235	M	M	M	NA	NA	974.7	NA	NA		M	NA	NA	NA	NA
2019/11/02 00:33:03	AWS2	5.00	235	5.61	235	M	M	M	NA	NA	975.3	NA	NA		M	NA	NA	NA	NA
2019/11/02 00:34:03	AWS2	5.00	235	5.61	235	M	M	M	NA	NA	974.7	NA	NA		M	NA	NA	NA	NA
2019/11/02 00:35:04	AWS2	4.96	235	5.61	235	M	M	M	NA	NA	975.3	NA	NA		M	NA	NA	NA	NA
2019/11/02 00:36:04	AWS2	5.06	235	5.61	235	M	M	M	NA	NA	974.5	NA	NA		M	NA	NA	NA	NA
2019/11/02 00:37:03	AWS2	4.98	234	5.56	234	M	M	M	NA	NA	975.2	NA	NA		M	NA	NA	NA	NA
2019/11/02 00:38:03	AWS2	4.88	234	5.56	234	M	M	M	NA	NA	975.3	NA	NA		M	NA	NA	NA	NA
2019/11/02 00:39:04	AWS2	5.10	234	5.56	235	M	M	M	NA	NA	974.8	NA	NA		M	NA	NA	NA	NA
2019/11/02 00:40:03	AWS2	5.12	235	5.56	235	M	M	M	NA	NA	974.7	NA	NA		M	NA	NA	NA	NA
2019/11/02 00:41:03	AWS2	5.16	234	5.71	235	M	M	M	NA	NA	974.5	NA	NA		M	NA	NA	NA	NA
2019/11/02 00:42:03	AWS2	5.36	233	5.71	234	M	M	M	NA	NA	974.9	NA	NA		M	NA	NA	NA	NA
2019/11/02 00:43:04	AWS2	5.52	234	6.17	239	M	M	M	NA	NA	974.9	NA	NA		M	NA	NA	NA	NA
2019/11/02 00:44:04	AWS2	5.50	234	6.17	239	M	M	M	NA	NA	974.7	NA	NA		M	NA	NA	NA	NA
2019/11/02 00:45:03	AWS2	5.23	235	6.17	239	M	M	M	NA	NA	974.6	NA	NA		M	NA	NA	NA	NA
2019/11/02 00:46:03	AWS2	5.18	235	6.17	239	M	M	M	NA	NA	974.7	NA	NA		M	NA	NA	NA	NA
2019/11/02 00:47:04	AWS2	5.26	235	6.17	239	M	M	M	NA	NA	974.2	NA	NA		M	NA	NA	NA	NA
2019/11/02 00:48:03	AWS2	5.48	235	6.17	232	M	M	M	NA	NA	974.2	NA	NA		M	NA	NA	NA	NA
2019/11/02 00:49:03	AWS2	5.68	235	6.43	235	M	M	M	NA	NA	974.9	NA	NA		M	NA	NA	NA	NA
2019/11/02 00:50:03	AWS2	5.74	235	6.43	235	M	M	M	NA	NA	974.9	NA	NA		M	NA	NA	NA	NA
2019/11/02 00:51:03	AWS2	5.73	235	6.43	235	M	M	M	NA	NA	974.3	NA	NA		M	NA	NA	NA	NA
2019/11/02 00:52:03	AWS2	5.99	234	6.69	236	M	M	M	NA	NA	974.5	NA	NA		M	NA	NA	NA	NA
2019/11/02 00:53:03	AWS2	6.32	233	6.69	236	M	M	M	NA	NA	974.5	NA	NA		M	NA	NA	NA	NA
2019/11/02 00:54:03	AWS2	6.24	234	6.69	236	M	M	M	NA	NA	975.1	NA	NA		M	NA	NA	NA	NA
2019/11/02 00:55:03	AWS2	6.03	235	6.69	236	M	M	M	NA	NA	975.1	NA	NA		M	NA	NA	NA	NA
2019/11/02 00:56:04	AWS2	5.99	235	6.69	236	M	M	M	NA	NA	974.7	NA	NA		M	NA	NA	NA	NA
2019/11/02 00:57:03	AWS2	5.97	235	6.69	236	M	M	M	NA	NA	974.7	NA	NA		M	NA	NA	NA	NA
2019/11/02 00:58:04	AWS2	6.04	235	6.74	234	M	M	M	NA	NA	974.8	NA	NA		M	NA	NA	NA	NA
2019/11/02 00:59:05	AWS2	6.11	236	6.74	234	M	M	M	NA	NA	974.7	NA	NA		M	NA	NA	NA	NA
2019/11/02 01:00:01	AWS2	6.01	236	6.74	234	M	M	M	NA	NA	974.6	NA	NA		M	NA	NA	NA	NA
2019/11/02 01:01:03	AWS2	5.96	237	6.74	234	M	M	M	NA	NA	975.0	NA	NA		M	NA	NA	NA	NA
2019/11/02 01:02:04	AWS2	6.10	238	7.05	238	M	M	M	NA	NA	974.8	NA	NA		M	NA	NA	NA	NA
2019/11/02 01:03:03	AWS2	6.27	238	7.05	238	M	M	M	NA	NA	974.9	NA	NA		M	NA	NA	NA	NA
2019/11/02 01:04:04	AWS2	6.16	238	7.05	238	M	M	M	NA	NA	975.0	NA	NA		M	NA	NA	NA	NA
2019/11/02 01:05:03	AWS2	6.14	238	7.05	238	M	M	M	NA	NA	974.8	NA	NA		M	NA	NA	NA	NA
2019/11/02 01:06:03	AWS2	6.19	237	7.05	238	M	M	M	NA	NA	974.8	NA	NA		M	NA	NA	NA	NA
2019/11/02 01:07:03	AWS2	6.45	236	7.10	233	M	M	M	NA	NA	975.2	NA	NA		M	NA	NA	NA	NA
2019/11/02 01:08:04	AWS2	6.55	237	7.10	233	M	M	M	NA	NA	975.1	NA	NA		M	NA	NA	NA	NA
2019/11/02 01:09:03	AWS2	6.53	237	7.31	231	M	M	M	NA	NA	974.4	NA	NA		M	NA	NA	NA	NA
2019/11/02 01:10:03	AWS2	6.54	236	7.31	231	M	M	M	NA	NA	975.9	NA	NA		M	NA	NA	NA	NA
2019/11/02 01:11:04	AWS2	6.53	237	7.31	231	M	M	M	NA	NA	975.1	NA	NA		M	NA	NA	NA	NA
2019/11/02 01:12:04	AWS2	6.61	237	7.31	231	M	M	M	NA	NA	975.2	NA	NA		M	NA	NA	NA	NA
2019/11/02 01:13:03	AWS2	6.48	237	7.31	231	M	M	M	NA	NA	975.7	NA	NA		M	NA	NA	NA	NA
2019/11/02 01:14:04	AWS2	6.48	236	7.31	233	M	M	M	NA	NA	975.5	NA	NA		M	NA	NA	NA	NA
2019/11/02 01:15:03	AWS2	6.43	237	7.31	233	M	M	M	NA	NA	974.5	NA	NA		M	NA	NA	NA	NA
2019/11/02 01:16:03	AWS2	6.28	239	7.31	233	M	M	M	NA	NA	974.9	NA	NA		M	NA	NA	NA	NA
2019/11/02 01:17:03	AWS2	6.47	238	7.41	235	M	M	M	NA	NA	975.6	NA	NA		M	NA	NA	NA	NA
2019/11/02 01:18:03	AWS2	6.46	236	7.41	235	M	M	M	NA	NA	975.3	NA	NA		M	NA	NA	NA	NA
2019/11/02 01:19:03	AWS2	6.45	237	7.41	235	M	M	M	NA	NA	975.1	NA	NA		M	NA	NA	NA	NA
2019/11/02 01:20:03	AWS2	6.64	239	7.41	235	M	M	M	NA	NA	974.4	NA	NA		M	NA	NA	NA	NA
2019/11/02 01:21:04	AWS2	6.58	237	7.41	235	M	M	M	NA	NA	975.2	NA	NA		M	NA	NA	NA	NA
2019/11/02 01:22:04	AWS2	6.71	237	7.51	234	M	M	M	NA	NA	975.2	NA	NA		M	NA	NA	NA	NA
2019/11/02 01:23:03	AWS2	7.10	237	7.92	236	M	M	M	NA	NA	974.4	NA	NA		M	NA	NA	NA	NA
2019/11/02 01:24:03	AWS2	6.97	237	7.92	236	M	M	M	NA	NA	975.6	NA	NA		M	NA	NA	NA	NA
2019/11/02 01:25:03	AWS2	6.52	240	7.92	236	M	M	M	NA	NA	974.8	NA	NA		M	NA	NA	NA	NA
2019/11/02 01:26:04	AWS2	6.44	240	7.92	236	M	M	M	NA	NA	974.3	NA	NA		M	NA	NA	NA	NA
2019/11/02 01:27:03	AWS2	6.65	241	7.92	236	M	M	M	NA	NA	975.4	NA	NA		M	NA	NA	NA	NA
2019/11/02 01:28:04	AWS2	6.69	240	7.92	236	M	M	M	NA	NA	975.1	NA	NA		M	NA	NA	NA	NA
2019/11/02 01:29:03	AWS2	6.63	240	7.92	236	M	M	M	NA	NA	974.4	NA	NA		M	NA	NA	NA	NA
2019/11/02 01:30:03	AWS2	6.81	239	7.92	236	M	M	M	NA	NA	975.5	NA	NA		M	NA	NA	NA	NA
2019/11/02 01:31:03	AWS2	6.83	239	7.92	236	M	M	M	NA	NA	975.0	NA	NA		M	NA	NA	NA	NA
2019/11/02 01:32:04	AWS2	6.68	239	7.92	236	M	M	M	NA	NA	975.1	NA	NA		M	NA	NA	NA	NA
2019/11/02 01:33:03	AWS2	6.75	239	7.72	237	M	M	M	NA	NA	974.6	NA	NA		M	NA	NA	NA	NA
2019/11/02 01:34:04	AWS2	6.92	241	7.72	237	M	M	M	NA	NA	975.0	NA	NA		M	NA	NA	NA	NA
2019/11/02 01:35:03	AWS2	6.76	241	7.72	237	M	M	M	NA	NA	975.4	NA	NA		M	NA	NA	NA	NA
2019/11/02 01:36:04	AWS2	6.76	241	8.49	240	M	M	M	NA	NA	974.4	NA	NA		M	NA	NA	NA	NA
2019/11/02 01:37:03	AWS2	7.00	241	8.49	240	M	M	M	NA	NA	974.6	NA	NA		M	NA	NA	NA	NA
2019/11/02 01:38:03	AWS2	6.84	241	8.49	240	M	M	M	NA	NA	974.8	NA	NA		M	NA	NA	NA	NA
2019/11/02 01:39:03	AWS2	6.89	240	8.49	240	M	M	M	NA	NA	974.9	NA	NA		M	NA	NA	NA	NA
2019/11/02 01:40:03	AWS2	7.22	238	8.49	240	M	M	M	NA	NA	974.4	NA	NA		M	NA	NA	NA	NA
2019/11/02 01:41:03	AWS2	7.27	238	8.49	240	M	M	M	NA	NA	974.9	NA	NA		M	NA	NA	NA	NA
2019/11/02 01:42:03	AWS2	7.31	239	8.49	240	M	M	M	NA	NA	974.7	NA	NA		M	NA	NA	NA	NA
2019/11/02 01:43:03	AWS2	7.67	237	9.26	235	M	M	M	NA	NA	974.6	NA	NA		M	NA	NA	NA	NA
2019/11/02 01:44:03	AWS2	7.97	235	9.26	235	M	M	M	NA	NA	974.8	NA	NA		M	NA	NA	NA	NA
2019/11/02 01:45:03	AWS2	7.82	235	9.26	235	M	M	M	NA	NA	974.3	NA	NA		M	NA	NA	NA	NA
2019/11/02 01:46:04	AWS2	7.75	235	9.26	235	M	M	M	NA	NA	974.6	NA	NA		M	NA	NA	NA	NA
2019/11/02 01:47:03	AWS2	7.70	235	9.26	235	M	M	M	NA	NA	975.2	NA	NA		M	NA	NA	NA	NA
2019/11/02 01:48:03	AWS2	7.84	235	9.26	235	M	M	M	NA	NA	974.2	NA	NA		M	NA	NA	NA	NA
2019/11/02 01:49:03	AWS2	7.93	235	9.26	235	M	M	M	NA	NA	974.8	NA	NA		M	NA	NA	NA	NA
2019/11/02 01:50:03	AWS2	7.83	234	9.26	235	M	M	M	NA	NA	975.2	NA	NA		M	NA	NA	NA	NA
2019/11/02 01:51:03	AWS2	7.56	233	9.26	235	M	M	M	NA	NA	975.1	NA	NA		M	NA	NA	NA	NA
2019/11/02 01:52:04	AWS2	7.75	234	9.26	235	M	M	M	NA	NA	974.3	NA	NA		M	NA	NA	NA	NA
2019/11/02 01:53:03	AWS2	8.19	232	8.85	234	M	M	M	NA	NA	974.6	NA	NA		M	NA	NA	NA	NA
2019/11/02 01:54:04	AWS2	8.39	232	9.83	230	M	M	M	NA	NA	974.8	NA	NA		M	NA	NA	NA	NA
2019/11/02 01:55:04	AWS2	8.53	231	9.83	230	M	M	M	NA	NA	975.1	NA	NA		M	NA	NA	NA	NA
2019/11/02 01:56:03	AWS2	8.06	230	9.83	230	M	M	M	NA	NA	974.8	NA	NA		M	NA	NA	NA	NA
2019/11/02 01:57:04	AWS2	7.89	230	9.83	230	M	M	M	NA	NA	975.2	NA	NA		M	NA	NA	NA	NA
2019/11/02 01:58:03	AWS2	7.95	231	9.83	230	M	M	M	NA	NA	974.9	NA	NA		M	NA	NA	NA	NA
2019/11/02 01:59:05	AWS2	8.07	231	9.83	230	M	M	M	NA	NA	975.1	NA	NA		M	NA	NA	NA	NA
2019/11/02 02:00:01	AWS2	8.27	230	9.83	230	M	M	M	NA	NA	974.7	NA	NA		M	NA	NA	NA	NA
2019/11/02 02:01:04	AWS2	8.00	229	9.83	230	M	M	M	NA	NA	975.2	NA	NA		M	NA	NA	NA	NA
2019/11/02 02:02:04	AWS2	8.04	229	9.83	230	M	M	M	NA	NA	974.2	NA	NA		M	NA	NA	NA	NA
2019/11/02 02:03:04	AWS2	8.39	230	9.83	230	M	M	M	NA	NA	975.1	NA	NA		M	NA	NA	NA	NA
2019/11/02 02:04:03	AWS2	8.19	231	9.62	229	M	M	M	NA	NA	974.7	NA	NA		M	NA	NA	NA	NA
2019/11/02 02:05:03	AWS2	7.55	233	9.62	229	M	M	M	NA	NA	975.1	NA	NA		M	NA	NA	NA	NA
2019/11/02 02:06:03	AWS2	7.24	235	9.62	229	M	M	M	NA	NA	975.1	NA	NA		M	NA	NA	NA	NA
2019/11/02 02:07:03	AWS2	7.50	233	9.62	229	M	M	M	NA	NA	974.7	NA	NA		M	NA	NA	NA	NA
2019/11/02 02:08:03	AWS2	7.58	233	9.62	229	M	M	M	NA	NA	974.7	NA	NA		M	NA	NA	NA	NA
2019/11/02 02:09:03	AWS2	7.24	235	9.62	229	M	M	M	NA	NA	974.9	NA	NA		M	NA	NA	NA	NA
2019/11/02 02:10:03	AWS2	7.21	235	9.62	229	M	M	M	NA	NA	975.1	NA	NA		M	NA	NA	NA	NA
2019/11/02 02:11:03	AWS2	7.18	235	9.62	229	M	M	M	NA	NA	975.3	NA	NA		M	NA	NA	NA	NA
2019/11/02 02:12:03	AWS2	7.27	235	8.85	229	M	M	M	NA	NA	975.3	NA	NA		M	NA	NA	NA	NA
2019/11/02 02:13:03	AWS2	7.37	234	8.69	230	M	M	M	NA	NA	974.3	NA	NA		M	NA	NA	NA	NA
2019/11/02 02:14:03	AWS2	7.33	234	8.69	230	M	M	M	NA	NA	974.5	NA	NA		M	NA	NA	NA	NA
2019/11/02 02:15:04	AWS2	7.11	235	8.69	230	M	M	M	NA	NA	975.0	NA	NA		M	NA	NA	NA	NA
2019/11/02 02:16:03	AWS2	6.76	235	8.69	230	M	M	M	NA	NA	974.8	NA	NA		M	NA	NA	NA	NA
2019/11/02 02:17:03	AWS2	7.07	233	8.54	230	M	M	M	NA	NA	975.0	NA	NA		M	NA	NA	NA	NA
2019/11/02 02:18:03	AWS2	7.34	234	8.54	230	M	M	M	NA	NA	974.4	NA	NA		M	NA	NA	NA	NA
2019/11/02 02:19:03	AWS2	7.40	235	8.54	230	M	M	M	NA	NA	974.5	NA	NA		M	NA	NA	NA	NA
2019/11/02 02:20:04	AWS2	7.16	236	8.54	230	M	M	M	NA	NA	974.5	NA	NA		M	NA	NA	NA	NA
2019/11/02 02:21:04	AWS2	7.29	238	8.54	230	M	M	M	NA	NA	974.9	NA	NA		M	NA	NA	NA	NA
2019/11/02 02:22:03	AWS2	7.87	239	8.54	230	M	M	M	NA	NA	975.1	NA	NA		M	NA	NA	NA	NA
2019/11/02 02:23:04	AWS2	7.89	239	8.75	238	M	M	M	NA	NA	975.6	NA	NA		M	NA	NA	NA	NA
2019/11/02 02:24:03	AWS2	7.98	239	8.90	237	M	M	M	NA	NA	973.9	NA	NA		M	NA	NA	NA	NA
2019/11/02 02:25:04	AWS2	8.31	238	9.05	239	M	M	M	NA	NA	974.2	NA	NA		M	NA	NA	NA	NA
2019/11/02 02:26:03	AWS2	8.07	237	9.05	239	M	M	M	NA	NA	975.0	NA	NA		M	NA	NA	NA	NA
2019/11/02 02:27:03	AWS2	7.32	237	9.05	239	M	M	M	NA	NA	974.5	NA	NA		M	NA	NA	NA	NA
2019/11/02 02:28:03	AWS2	6.92	238	9.05	239	M	M	M	NA	NA	974.9	NA	NA		M	NA	NA	NA	NA
2019/11/02 02:29:03	AWS2	7.11	239	9.05	239	M	M	M	NA	NA	974.8	NA	NA		M	NA	NA	NA	NA
2019/11/02 02:30:03	AWS2	7.38	238	9.05	239	M	M	M	NA	NA	975.1	NA	NA		M	NA	NA	NA	NA
2019/11/02 02:31:03	AWS2	7.52	237	9.05	239	M	M	M	NA	NA	975.0	NA	NA		M	NA	NA	NA	NA
2019/11/02 02:32:04	AWS2	7.85	236	9.05	239	M	M	M	NA	NA	974.9	NA	NA		M	NA	NA	NA	NA
2019/11/02 02:33:03	AWS2	8.16	234	9.05	239	M	M	M	NA	NA	974.2	NA	NA		M	NA	NA	NA	NA
2019/11/02 02:34:03	AWS2	8.09	234	9.05	239	M	M	M	NA	NA	974.6	NA	NA		M	NA	NA	NA	NA
2019/11/02 02:35:03	AWS2	7.71	234	8.85	232	M	M	M	NA	NA	974.5	NA	NA		M	NA	NA	NA	NA
2019/11/02 02:36:03	AWS2	7.28	237	8.85	232	M	M	M	NA	NA	974.4	NA	NA		M	NA	NA	NA	NA
2019/11/02 02:37:03	AWS2	7.49	240	8.85	232	M	M	M	NA	NA	975.1	NA	NA		M	NA	NA	NA	NA
2019/11/02 02:38:03	AWS2	8.07	239	9.52	241	M	M	M	NA	NA	975.0	NA	NA		M	NA	NA	NA	NA
2019/11/02 02:39:03	AWS2	8.48	239	9.52	245	M	M	M	NA	NA	974.4	NA	NA		M	NA	NA	NA	NA
2019/11/02 02:40:03	AWS2	8.50	237	9.52	245	M	M	M	NA	NA	975.5	NA	NA		M	NA	NA	NA	NA
2019/11/02 02:41:04	AWS2	8.53	237	9.52	245	M	M	M	NA	NA	974.5	NA	NA		M	NA	NA	NA	NA
2019/11/02 02:42:03	AWS2	8.65	237	9.62	230	M	M	M	NA	NA	975.0	NA	NA		M	NA	NA	NA	NA
2019/11/02 02:43:03	AWS2	8.42	236	9.62	230	M	M	M	NA	NA	974.8	NA	NA		M	NA	NA	NA	NA
2019/11/02 02:44:03	AWS2	8.44	236	9.62	230	M	M	M	NA	NA	974.7	NA	NA		M	NA	NA	NA	NA
2019/11/02 02:45:03	AWS2	8.85	236	9.88	239	M	M	M	NA	NA	975.0	NA	NA		M	NA	NA	NA	NA
2019/11/02 02:46:04	AWS2	8.86	238	9.88	239	M	M	M	NA	NA	975.1	NA	NA		M	NA	NA	NA	NA
2019/11/02 02:47:04	AWS2	8.70	239	9.88	242	M	M	M	NA	NA	975.0	NA	NA		M	NA	NA	NA	NA
2019/11/02 02:48:03	AWS2	8.27	238	9.88	242	M	M	M	NA	NA	975.4	NA	NA		M	NA	NA	NA	NA
2019/11/02 02:49:03	AWS2	8.17	238	9.88	242	M	M	M	NA	NA	975.2	NA	NA		M	NA	NA	NA	NA
2019/11/02 02:50:03	AWS2	8.84	239	10.08	239	M	M	M	NA	NA	975.4	NA	NA		M	NA	NA	NA	NA
2019/11/02 02:51:04	AWS2	9.18	239	10.34	236	M	M	M	NA	NA	975.0	NA	NA		M	NA	NA	NA	NA
2019/11/02 02:52:04	AWS2	9.42	237	10.34	236	M	M	M	NA	NA	975.2	NA	NA		M	NA	NA	NA	NA
2019/11/02 02:53:04	AWS2	9.40	236	10.34	236	M	M	M	NA	NA	974.8	NA	NA		M	NA	NA	NA	NA
2019/11/02 02:54:03	AWS2	9.90	235	11.01	236	M	M	M	NA	NA	975.2	NA	NA		M	NA	NA	NA	NA
2019/11/02 02:55:04	AWS2	10.42	234	11.57	235	M	M	M	NA	NA	975.1	NA	NA		M	NA	NA	NA	NA
2019/11/02 02:56:03	AWS2	9.80	236	11.57	235	M	M	M	NA	NA	974.7	NA	NA		M	NA	NA	NA	NA
2019/11/02 02:57:04	AWS2	9.71	237	11.57	235	M	M	M	NA	NA	975.5	NA	NA		M	NA	NA	NA	NA
2019/11/02 02:58:03	AWS2	9.93	236	11.57	235	M	M	M	NA	NA	975.2	NA	NA		M	NA	NA	NA	NA
2019/11/02 02:59:04	AWS2	9.63	238	11.57	235	M	M	M	NA	NA	975.1	NA	NA		M	NA	NA	NA	NA
2019/11/02 03:00:01	AWS2	9.69	237	11.57	235	M	M	M	NA	NA	975.3	NA	NA		M	NA	NA	NA	NA
2019/11/02 03:01:03	AWS2	9.83	236	11.57	235	M	M	M	NA	NA	975.1	NA	NA		M	NA	NA	NA	NA
2019/11/02 03:02:03	AWS2	9.75	236	11.57	235	M	M	M	NA	NA	975.1	NA	NA		M	NA	NA	NA	NA
2019/11/02 03:03:03	AWS2	9.63	233	11.57	235	M	M	M	NA	NA	975.5	NA	NA		M	NA	NA	NA	NA
2019/11/02 03:04:03	AWS2	9.19	233	11.57	235	M	M	M	NA	NA	975.3	NA	NA		M	NA	NA	NA	NA
2019/11/02 03:05:03	AWS2	9.32	234	11.42	233	M	M	M	NA	NA	974.9	NA	NA		M	NA	NA	NA	NA
2019/11/02 03:06:04	AWS2	9.76	233	11.42	233	M	M	M	NA	NA	974.9	NA	NA		M	NA	NA	NA	NA
2019/11/02 03:07:03	AWS2	9.66	232	10.91	237	M	M	M	NA	NA	975.0	NA	NA		M	NA	NA	NA	NA
2019/11/02 03:08:04	AWS2	9.16	235	10.91	237	M	M	M	NA	NA	975.2	NA	NA		M	NA	NA	NA	NA
2019/11/02 03:09:03	AWS2	9.30	236	10.80	235	M	M	M	NA	NA	975.4	NA	NA		M	NA	NA	NA	NA
2019/11/02 03:10:04	AWS2	9.75	235	10.80	235	M	M	M	NA	NA	974.6	NA	NA		M	NA	NA	NA	NA
2019/11/02 03:11:03	AWS2	9.71	232	10.75	233	M	M	M	NA	NA	975.0	NA	NA		M	NA	NA	NA	NA
2019/11/02 03:12:03	AWS2	9.74	230	10.75	233	M	M	M	NA	NA	975.1	NA	NA		M	NA	NA	NA	NA
2019/11/02 03:13:03	AWS2	9.18	232	10.75	233	M	M	M	NA	NA	975.0	NA	NA		M	NA	NA	NA	NA
2019/11/02 03:14:03	AWS2	8.97	235	10.75	233	M	M	M	NA	NA	975.4	NA	NA		M	NA	NA	NA	NA
2019/11/02 03:15:03	AWS2	9.76	236	11.01	237	M	M	M	NA	NA	975.3	NA	NA		M	NA	NA	NA	NA
2019/11/02 03:16:03	AWS2	9.81	236	11.01	237	M	M	M	NA	NA	975.0	NA	NA		M	NA	NA	NA	NA
2019/11/02 03:17:03	AWS2	9.45	236	11.01	237	M	M	M	NA	NA	975.1	NA	NA		M	NA	NA	NA	NA
2019/11/02 03:18:03	AWS2	9.49	236	11.01	237	M	M	M	NA	NA	974.6	NA	NA		M	NA	NA	NA	NA
2019/11/02 03:19:03	AWS2	9.37	234	11.01	237	M	M	M	NA	NA	975.2	NA	NA		M	NA	NA	NA	NA
2019/11/02 03:20:03	AWS2	9.36	234	11.01	235	M	M	M	NA	NA	974.2	NA	NA		M	NA	NA	NA	NA
2019/11/02 03:21:04	AWS2	9.70	234	11.01	236	M	M	M	NA	NA	974.8	NA	NA		M	NA	NA	NA	NA
2019/11/02 03:22:03	AWS2	9.25	233	11.01	236	M	M	M	NA	NA	975.0	NA	NA		M	NA	NA	NA	NA
2019/11/02 03:23:03	AWS2	9.06	235	11.01	236	M	M	M	NA	NA	974.9	NA	NA		M	NA	NA	NA	NA
2019/11/02 03:24:03	AWS2	9.43	235	11.01	236	M	M	M	NA	NA	974.8	NA	NA		M	NA	NA	NA	NA
2019/11/02 03:25:03	AWS2	9.23	237	11.01	236	M	M	M	NA	NA	974.9	NA	NA		M	NA	NA	NA	NA
2019/11/02 03:26:04	AWS2	9.16	240	11.01	236	M	M	M	NA	NA	974.9	NA	NA		M	NA	NA	NA	NA
2019/11/02 03:27:03	AWS2	8.78	241	11.01	236	M	M	M	NA	NA	975.0	NA	NA		M	NA	NA	NA	NA
2019/11/02 03:28:03	AWS2	8.89	240	11.01	236	M	M	M	NA	NA	975.9	NA	NA		M	NA	NA	NA	NA
2019/11/02 03:29:03	AWS2	9.63	238	11.01	236	M	M	M	NA	NA	974.6	NA	NA		M	NA	NA	NA	NA
2019/11/02 03:30:03	AWS2	9.61	236	11.01	236	M	M	M	NA	NA	975.9	NA	NA		M	NA	NA	NA	NA
2019/11/02 03:31:04	AWS2	9.41	236	10.85	237	M	M	M	NA	NA	975.0	NA	NA		M	NA	NA	NA	NA
2019/11/02 03:32:04	AWS2	9.01	236	10.85	237	M	M	M	NA	NA	975.4	NA	NA		M	NA	NA	NA	NA
2019/11/02 03:33:03	AWS2	8.77	236	10.85	237	M	M	M	NA	NA	975.4	NA	NA		M	NA	NA	NA	NA
2019/11/02 03:34:03	AWS2	9.31	236	10.85	237	M	M	M	NA	NA	974.8	NA	NA		M	NA	NA	NA	NA
2019/11/02 03:35:03	AWS2	9.57	237	10.85	237	M	M	M	NA	NA	975.2	NA	NA		M	NA	NA	NA	NA
2019/11/02 03:36:04	AWS2	9.39	238	10.85	237	M	M	M	NA	NA	974.7	NA	NA		M	NA	NA	NA	NA
2019/11/02 03:37:03	AWS2	8.94	238	10.85	237	M	M	M	NA	NA	975.3	NA	NA		M	NA	NA	NA	NA
2019/11/02 03:38:03	AWS2	9.02	238	10.85	237	M	M	M	NA	NA	975.2	NA	NA		M	NA	NA	NA	NA
2019/11/02 03:39:03	AWS2	9.42	239	10.80	235	M	M	M	NA	NA	975.4	NA	NA		M	NA	NA	NA	NA
2019/11/02 03:40:03	AWS2	9.72	239	10.80	234	M	M	M	NA	NA	974.8	NA	NA		M	NA	NA	NA	NA
2019/11/02 03:41:04	AWS2	9.90	238	10.80	234	M	M	M	NA	NA	975.5	NA	NA		M	NA	NA	NA	NA
2019/11/02 03:42:04	AWS2	9.83	237	10.80	234	M	M	M	NA	NA	974.8	NA	NA		M	NA	NA	NA	NA
2019/11/02 03:43:03	AWS2	9.72	235	10.80	234	M	M	M	NA	NA	976.2	NA	NA		M	NA	NA	NA	NA
2019/11/02 03:44:03	AWS2	9.55	236	10.80	234	M	M	M	NA	NA	975.2	NA	NA		M	NA	NA	NA	NA
2019/11/02 03:45:03	AWS2	9.04	238	10.80	234	M	M	M	NA	NA	974.4	NA	NA		M	NA	NA	NA	NA
2019/11/02 03:46:03	AWS2	9.43	239	11.21	240	M	M	M	NA	NA	974.3	NA	NA		M	NA	NA	NA	NA
2019/11/02 03:47:04	AWS2	10.37	239	11.73	244	M	M	M	NA	NA	974.5	NA	NA		M	NA	NA	NA	NA
2019/11/02 03:48:03	AWS2	10.83	240	11.78	240	M	M	M	NA	NA	975.0	NA	NA		M	NA	NA	NA	NA
2019/11/02 03:49:03	AWS2	10.69	238	11.78	240	M	M	M	NA	NA	974.6	NA	NA		M	NA	NA	NA	NA
2019/11/02 03:50:03	AWS2	9.98	238	11.78	240	M	M	M	NA	NA	975.8	NA	NA		M	NA	NA	NA	NA
2019/11/02 03:51:03	AWS2	10.13	238	11.78	240	M	M	M	NA	NA	974.8	NA	NA		M	NA	NA	NA	NA
2019/11/02 03:52:03	AWS2	10.37	239	11.78	240	M	M	M	NA	NA	975.9	NA	NA		M	NA	NA	NA	NA
2019/11/02 03:53:03	AWS2	10.02	240	11.78	240	M	M	M	NA	NA	975.4	NA	NA		M	NA	NA	NA	NA
2019/11/02 03:54:03	AWS2	9.55	241	11.78	240	M	M	M	NA	NA	974.6	NA	NA		M	NA	NA	NA	NA
2019/11/02 03:55:03	AWS2	9.52	242	11.78	240	M	M	M	NA	NA	974.9	NA	NA		M	NA	NA	NA	NA
2019/11/02 03:56:03	AWS2	9.59	241	11.78	240	M	M	M	NA	NA	975.6	NA	NA		M	NA	NA	NA	NA
2019/11/02 03:57:03	AWS2	9.38	240	11.78	240	M	M	M	NA	NA	975.9	NA	NA		M	NA	NA	NA	NA
2019/11/02 03:58:04	AWS2	9.85	239	12.04	246	M	M	M	NA	NA	975.1	NA	NA		M	NA	NA	NA	NA
2019/11/02 03:59:04	AWS2	10.77	239	12.04	238	M	M	M	NA	NA	975.4	NA	NA		M	NA	NA	NA	NA
2019/11/02 04:00:01	AWS2	10.70	238	12.04	238	M	M	M	NA	NA	975.7	NA	NA		M	NA	NA	NA	NA
2019/11/02 04:01:03	AWS2	9.69	240	12.04	238	M	M	M	NA	NA	975.3	NA	NA		M	NA	NA	NA	NA
2019/11/02 04:02:00	AWS2	9.62	239	12.04	238	M	M	M	NA	NA	975.9	NA	NA		M	NA	NA	NA	NA
2019/11/02 04:03:00	AWS2	9.39	238	12.04	238	M	M	M	NA	NA	974.7	NA	NA		M	NA	NA	NA	NA
2019/11/02 04:04:00	AWS2	9.64	240	12.04	238	M	M	M	NA	NA	975.8	NA	NA		M	NA	NA	NA	NA
2019/11/02 04:05:00	AWS2	10.27	241	12.04	238	M	M	M	NA	NA	975.4	NA	NA		M	NA	NA	NA	NA
2019/11/02 04:06:00	AWS2	10.52	240	12.04	238	M	M	M	NA	NA	974.2	NA	NA		M	NA	NA	NA	NA
2019/11/02 04:07:00	AWS2	10.73	238	12.04	238	M	M	M	NA	NA	975.6	NA	NA		M	NA	NA	NA	NA
2019/11/02 04:08:00	AWS2	10.48	238	12.04	238	M	M	M	NA	NA	974.7	NA	NA		M	NA	NA	NA	NA
2019/11/02 04:09:00	AWS2	9.91	237	12.04	238	M	M	M	NA	NA	975.3	NA	NA		M	NA	NA	NA	NA
2019/11/02 04:10:00	AWS2	9.89	236	11.42	236	M	M	M	NA	NA	973.9	NA	NA		M	NA	NA	NA	NA
2019/11/02 04:11:00	AWS2	10.21	235	11.42	236	M	M	M	NA	NA	974.8	NA	NA		M	NA	NA	NA	NA
2019/11/02 04:12:00	AWS2	10.18	234	11.42	236	M	M	M	NA	NA	974.9	NA	NA		M	NA	NA	NA	NA
2019/11/02 04:13:00	AWS2	10.00	234	11.42	236	M	M	M	NA	NA	975.5	NA	NA		M	NA	NA	NA	NA
2019/11/02 04:14:00	AWS2	9.99	235	11.42	236	M	M	M	NA	NA	974.2	NA	NA		M	NA	NA	NA	NA
2019/11/02 04:15:00	AWS2	10.14	236	11.42	236	M	M	M	NA	NA	975.0	NA	NA		M	NA	NA	NA	NA
2019/11/02 04:16:00	AWS2	10.50	235	11.42	231	M	M	M	NA	NA	976.1	NA	NA		M	NA	NA	NA	NA
2019/11/02 04:17:00	AWS2	10.31	236	11.42	231	M	M	M	NA	NA	976.3	NA	NA		M	NA	NA	NA	NA
2019/11/02 04:18:00	AWS2	10.12	238	11.42	231	M	M	M	NA	NA	975.8	NA	NA		M	NA	NA	NA	NA
2019/11/02 04:19:00	AWS2	10.67	236	11.99	233	M	M	M	NA	NA	975.0	NA	NA		M	NA	NA	NA	NA
2019/11/02 04:20:00	AWS2	10.79	235	11.99	233	M	M	M	NA	NA	975.5	NA	NA		M	NA	NA	NA	NA
2019/11/02 04:21:00	AWS2	10.21	239	11.99	233	M	M	M	NA	NA	975.4	NA	NA		M	NA	NA	NA	NA
2019/11/02 04:22:00	AWS2	10.35	239	11.99	233	M	M	M	NA	NA	976.2	NA	NA		M	NA	NA	NA	NA
2019/11/02 04:23:00	AWS2	10.54	237	11.99	233	M	M	M	NA	NA	974.4	NA	NA		M	NA	NA	NA	NA
2019/11/02 04:24:00	AWS2	10.66	238	12.19	239	M	M	M	NA	NA	973.9	NA	NA		M	NA	NA	NA	NA
2019/11/02 04:25:00	AWS2	11.01	239	12.19	239	M	M	M	NA	NA	974.9	NA	NA		M	NA	NA	NA	NA
2019/11/02 04:26:00	AWS2	10.56	240	12.19	239	M	M	M	NA	NA	975.5	NA	NA		M	NA	NA	NA	NA
2019/11/02 04:27:00	AWS2	10.30	241	12.19	239	M	M	M	NA	NA	975.5	NA	NA		M	NA	NA	NA	NA
2019/11/02 04:28:00	AWS2	10.56	241	12.19	239	M	M	M	NA	NA	975.9	NA	NA		M	NA	NA	NA	NA
2019/11/02 04:29:00	AWS2	10.84	240	12.19	239	M	M	M	NA	NA	974.6	NA	NA		M	NA	NA	NA	NA
2019/11/02 04:30:00	AWS2	11.00	242	12.19	239	M	M	M	NA	NA	974.7	NA	NA		M	NA	NA	NA	NA
2019/11/02 04:31:00	AWS2	10.49	240	12.19	239	M	M	M	NA	NA	975.0	NA	NA		M	NA	NA	NA	NA
2019/11/02 04:32:00	AWS2	9.66	238	12.19	239	M	M	M	NA	NA	975.7	NA	NA		M	NA	NA	NA	NA
2019/11/02 04:33:00	AWS2	9.70	238	12.19	239	M	M	M	NA	NA	976.1	NA	NA		M	NA	NA	NA	NA
2019/11/02 04:34:00	AWS2	10.12	235	11.73	245	M	M	M	NA	NA	975.6	NA	NA		M	NA	NA	NA	NA
2019/11/02 04:35:00	AWS2	10.17	234	11.73	245	M	M	M	NA	NA	974.3	NA	NA		M	NA	NA	NA	NA
2019/11/02 04:36:00	AWS2	10.01	234	11.73	245	M	M	M	NA	NA	975.8	NA	NA		M	NA	NA	NA	NA
2019/11/02 04:37:00	AWS2	9.23	235	11.73	245	M	M	M	NA	NA	974.8	NA	NA		M	NA	NA	NA	NA
2019/11/02 04:38:00	AWS2	9.71	237	11.73	245	M	M	M	NA	NA	975.6	NA	NA		M	NA	NA	NA	NA
2019/11/02 04:39:00	AWS2	11.29	236	12.40	234	M	M	M	NA	NA	974.7	NA	NA		M	NA	NA	NA	NA
2019/11/02 04:40:00	AWS2	11.42	238	12.40	234	M	M	M	NA	NA	974.8	NA	NA		M	NA	NA	NA	NA
2019/11/02 04:41:00	AWS2	10.60	241	12.40	234	M	M	M	NA	NA	975.2	NA	NA		M	NA	NA	NA	NA
2019/11/02 04:42:00	AWS2	10.34	240	12.40	234	M	M	M	NA	NA	974.3	NA	NA		M	NA	NA	NA	NA
2019/11/02 04:43:00	AWS2	10.64	239	12.40	234	M	M	M	NA	NA	975.9	NA	NA		M	NA	NA	NA	NA
2019/11/02 04:44:00	AWS2	10.36	239	12.40	234	M	M	M	NA	NA	974.3	NA	NA		M	NA	NA	NA	NA
2019/11/02 04:45:00	AWS2	9.74	237	12.40	234	M	M	M	NA	NA	974.5	NA	NA		M	NA	NA	NA	NA
2019/11/02 04:46:00	AWS2	9.37	234	12.40	234	M	M	M	NA	NA	975.5	NA	NA		M	NA	NA	NA	NA
2019/11/02 04:47:00	AWS2	9.45	234	12.40	234	M	M	M	NA	NA	976.1	NA	NA		M	NA	NA	NA	NA
2019/11/02 04:48:00	AWS2	9.34	233	12.40	234	M	M	M	NA	NA	974.9	NA	NA		M	NA	NA	NA	NA
2019/11/02 04:49:00	AWS2	9.33	235	12.19	237	M	M	M	NA	NA	974.9	NA	NA		M	NA	NA	NA	NA
2019/11/02 04:50:00	AWS2	9.94	238	12.19	237	M	M	M	NA	NA	975.0	NA	NA		M	NA	NA	NA	NA
2019/11/02 04:51:00	AWS2	9.91	239	12.19	237	M	M	M	NA	NA	975.8	NA	NA		M	NA	NA	NA	NA
2019/11/02 04:52:00	AWS2	9.63	240	12.19	237	M	M	M	NA	NA	975.6	NA	NA		M	NA	NA	NA	NA
2019/11/02 04:53:00	AWS2	10.03	240	11.42	241	M	M	M	NA	NA	974.9	NA	NA		M	NA	NA	NA	NA
2019/11/02 04:54:00	AWS2	9.91	240	11.42	241	M	M	M	NA	NA	975.2	NA	NA		M	NA	NA	NA	NA
2019/11/02 04:55:00	AWS2	9.58	242	11.42	241	M	M	M	NA	NA	975.1	NA	NA		M	NA	NA	NA	NA
2019/11/02 04:56:00	AWS2	10.13	242	11.42	241	M	M	M	NA	NA	975.6	NA	NA		M	NA	NA	NA	NA
2019/11/02 04:57:00	AWS2	9.69	242	11.42	241	M	M	M	NA	NA	974.7	NA	NA		M	NA	NA	NA	NA
2019/11/02 04:58:00	AWS2	9.56	242	11.42	241	M	M	M	NA	NA	975.5	NA	NA		M	NA	NA	NA	NA
2019/11/02 04:59:00	AWS2	10.27	241	11.42	238	M	M	M	NA	NA	975.2	NA	NA		M	NA	NA	NA	NA
2019/11/02 05:00:00	AWS2	9.77	240	11.42	238	M	M	M	NA	NA	976.7	NA	NA		M	NA	NA	NA	NA
2019/11/02 05:01:00	AWS2	8.91	237	11.42	238	M	M	M	NA	NA	976.4	NA	NA		M	NA	NA	NA	NA
2019/11/02 05:02:00	AWS2	8.58	237	11.42	238	M	M	M	NA	NA	975.4	NA	NA		M	NA	NA	NA	NA
2019/11/02 05:03:00	AWS2	8.96	238	11.42	238	M	M	M	NA	NA	975.5	NA	NA		M	NA	NA	NA	NA
2019/11/02 05:04:00	AWS2	9.69	241	11.42	238	M	M	M	NA	NA	976.5	NA	NA		M	NA	NA	NA	NA
2019/11/02 05:05:00	AWS2	9.72	242	11.42	238	M	M	M	NA	NA	974.7	NA	NA		M	NA	NA	NA	NA
2019/11/02 05:06:00	AWS2	9.89	242	11.42	238	M	M	M	NA	NA	975.1	NA	NA		M	NA	NA	NA	NA
2019/11/02 05:07:00	AWS2	10.15	239	11.42	238	M	M	M	NA	NA	974.2	NA	NA		M	NA	NA	NA	NA
2019/11/02 05:08:00	AWS2	9.89	234	11.42	238	M	M	M	NA	NA	975.4	NA	NA		M	NA	NA	NA	NA
2019/11/02 05:09:00	AWS2	9.68	233	11.27	241	M	M	M	NA	NA	975.6	NA	NA		M	NA	NA	NA	NA
2019/11/02 05:10:00	AWS2	9.80	235	11.27	241	M	M	M	NA	NA	976.4	NA	NA		M	NA	NA	NA	NA
2019/11/02 05:11:00	AWS2	9.79	237	11.27	241	M	M	M	NA	NA	976.1	NA	NA		M	NA	NA	NA	NA
2019/11/02 05:12:00	AWS2	9.87	240	11.27	244	M	M	M	NA	NA	975.1	NA	NA		M	NA	NA	NA	NA
2019/11/02 05:13:00	AWS2	9.71	242	11.27	244	M	M	M	NA	NA	975.2	NA	NA		M	NA	NA	NA	NA
2019/11/02 05:14:00	AWS2	8.74	242	11.27	244	M	M	M	NA	NA	975.3	NA	NA		M	NA	NA	NA	NA
2019/11/02 05:15:00	AWS2	8.80	239	11.27	244	M	M	M	NA	NA	974.6	NA	NA		M	NA	NA	NA	NA
2019/11/02 05:16:00	AWS2	9.82	238	11.27	244	M	M	M	NA	NA	975.3	NA	NA		M	NA	NA	NA	NA
2019/11/02 05:17:00	AWS2	10.64	241	11.47	244	M	M	M	NA	NA	975.7	NA	NA		M	NA	NA	NA	NA
2019/11/02 05:18:00	AWS2	10.06	242	11.47	244	M	M	M	NA	NA	974.8	NA	NA		M	NA	NA	NA	NA
2019/11/02 05:19:00	AWS2	9.36	240	11.47	244	M	M	M	NA	NA	975.8	NA	NA		M	NA	NA	NA	NA
2019/11/02 05:20:00	AWS2	9.45	239	11.47	244	M	M	M	NA	NA	975.4	NA	NA		M	NA	NA	NA	NA
2019/11/02 05:21:00	AWS2	9.35	238	11.47	244	M	M	M	NA	NA	975.6	NA	NA		M	NA	NA	NA	NA
2019/11/02 05:22:00	AWS2	9.02	238	11.47	244	M	M	M	NA	NA	976.2	NA	NA		M	NA	NA	NA	NA
2019/11/02 05:23:00	AWS2	9.81	240	11.78	242	M	M	M	NA	NA	975.0	NA	NA		M	NA	NA	NA	NA
2019/11/02 05:24:00	AWS2	10.78	240	11.78	242	M	M	M	NA	NA	974.0	NA	NA		M	NA	NA	NA	NA
2019/11/02 05:25:00	AWS2	10.35	239	11.78	242	M	M	M	NA	NA	975.6	NA	NA		M	NA	NA	NA	NA
2019/11/02 05:26:00	AWS2	9.75	240	11.78	242	M	M	M	NA	NA	975.9	NA	NA		M	NA	NA	NA	NA
2019/11/02 05:27:00	AWS2	9.67	241	11.78	242	M	M	M	NA	NA	974.6	NA	NA		M	NA	NA	NA	NA
2019/11/02 05:28:00	AWS2	10.01	242	11.78	242	M	M	M	NA	NA	975.1	NA	NA		M	NA	NA	NA	NA
2019/11/02 05:29:00	AWS2	9.88	239	11.78	242	M	M	M	NA	NA	975.4	NA	NA		M	NA	NA	NA	NA
2019/11/02 05:30:00	AWS2	9.56	237	11.78	242	M	M	M	NA	NA	975.9	NA	NA		M	NA	NA	NA	NA
2019/11/02 05:31:00	AWS2	9.64	237	11.78	242	M	M	M	NA	NA	975.1	NA	NA		M	NA	NA	NA	NA
2019/11/02 05:32:00	AWS2	9.98	238	11.78	242	M	M	M	NA	NA	975.6	NA	NA		M	NA	NA	NA	NA
2019/11/02 05:33:00	AWS2	10.27	238	11.42	244	M	M	M	NA	NA	975.9	NA	NA		M	NA	NA	NA	NA
2019/11/02 05:34:00	AWS2	10.28	239	11.42	244	M	M	M	NA	NA	975.1	NA	NA		M	NA	NA	NA	NA
2019/11/02 05:35:00	AWS2	10.15	238	11.11	241	M	M	M	NA	NA	974.8	NA	NA		M	NA	NA	NA	NA
2019/11/02 05:36:00	AWS2	9.90	234	11.11	241	M	M	M	NA	NA	974.0	NA	NA		M	NA	NA	NA	NA
2019/11/02 05:37:00	AWS2	9.35	235	11.11	241	M	M	M	NA	NA	975.9	NA	NA		M	NA	NA	NA	NA
2019/11/02 05:38:00	AWS2	9.32	238	11.11	241	M	M	M	NA	NA	973.9	NA	NA		M	NA	NA	NA	NA
2019/11/02 05:39:00	AWS2	9.27	238	11.11	241	M	M	M	NA	NA	976.0	NA	NA		M	NA	NA	NA	NA
2019/11/02 05:40:00	AWS2	8.90	236	11.11	241	M	M	M	NA	NA	976.4	NA	NA		M	NA	NA	NA	NA
2019/11/02 05:41:00	AWS2	8.69	238	11.11	241	M	M	M	NA	NA	975.5	NA	NA		M	NA	NA	NA	NA
2019/11/02 05:42:00	AWS2	9.29	240	11.11	241	M	M	M	NA	NA	974.3	NA	NA		M	NA	NA	NA	NA
2019/11/02 05:43:00	AWS2	10.00	238	11.11	241	M	M	M	NA	NA	974.7	NA	NA		M	NA	NA	NA	NA
2019/11/02 05:44:00	AWS2	9.40	237	10.75	238	M	M	M	NA	NA	975.8	NA	NA		M	NA	NA	NA	NA
2019/11/02 05:45:00	AWS2	8.90	238	10.75	238	M	M	M	NA	NA	975.2	NA	NA		M	NA	NA	NA	NA
2019/11/02 05:46:00	AWS2	8.67	242	10.75	238	M	M	M	NA	NA	976.1	NA	NA		M	NA	NA	NA	NA
2019/11/02 05:47:00	AWS2	8.98	242	10.75	238	M	M	M	NA	NA	974.9	NA	NA		M	NA	NA	NA	NA
2019/11/02 05:48:00	AWS2	9.77	237	10.75	238	M	M	M	NA	NA	974.1	NA	NA		M	NA	NA	NA	NA
2019/11/02 05:49:00	AWS2	9.38	236	10.75	238	M	M	M	NA	NA	975.5	NA	NA		M	NA	NA	NA	NA
2019/11/02 05:50:00	AWS2	9.13	237	10.75	238	M	M	M	NA	NA	974.9	NA	NA		M	NA	NA	NA	NA
2019/11/02 05:51:00	AWS2	9.48	238	10.75	238	M	M	M	NA	NA	975.3	NA	NA		M	NA	NA	NA	NA
2019/11/02 05:52:00	AWS2	9.25	237	10.75	238	M	M	M	NA	NA	974.7	NA	NA		M	NA	NA	NA	NA
2019/11/02 05:53:00	AWS2	9.42	236	10.55	240	M	M	M	NA	NA	976.2	NA	NA		M	NA	NA	NA	NA
2019/11/02 05:54:00	AWS2	9.83	235	10.55	240	M	M	M	NA	NA	975.0	NA	NA		M	NA	NA	NA	NA
2019/11/02 05:55:00	AWS2	9.84	231	10.55	240	M	M	M	NA	NA	974.3	NA	NA		M	NA	NA	NA	NA
2019/11/02 05:56:00	AWS2	9.59	228	10.55	240	M	M	M	NA	NA	974.8	NA	NA		M	NA	NA	NA	NA
2019/11/02 05:57:00	AWS2	9.23	230	10.55	240	M	M	M	NA	NA	975.1	NA	NA		M	NA	NA	NA	NA
2019/11/02 05:58:00	AWS2	9.74	232	11.11	233	M	M	M	NA	NA	976.0	NA	NA		M	NA	NA	NA	NA
2019/11/02 05:59:00	AWS2	10.24	230	11.11	233	M	M	M	NA	NA	975.5	NA	NA		M	NA	NA	NA	NA
2019/11/02 06:00:00	AWS2	9.82	228	11.11	233	M	M	M	NA	NA	975.1	NA	NA		M	NA	NA	NA	NA
2019/11/02 06:01:00	AWS2	9.78	230	11.11	233	M	M	M	NA	NA	975.0	NA	NA		M	NA	NA	NA	NA
2019/11/02 06:02:00	AWS2	9.84	233	11.11	233	M	M	M	NA	NA	976.7	NA	NA		M	NA	NA	NA	NA
2019/11/02 06:03:00	AWS2	9.67	232	11.11	233	M	M	M	NA	NA	978.5	NA	NA		M	NA	NA	NA	NA
2019/11/02 06:04:00	AWS2	10.25	231	11.88	233	M	M	M	NA	NA	975.3	NA	NA		M	NA	NA	NA	NA
2019/11/02 06:05:00	AWS2	10.63	231	11.88	233	M	M	M	NA	NA	976.4	NA	NA		M	NA	NA	NA	NA
2019/11/02 06:06:00	AWS2	10.33	230	11.88	233	M	M	M	NA	NA	976.6	NA	NA		M	NA	NA	NA	NA
2019/11/02 06:07:00	AWS2	9.81	230	11.88	233	M	M	M	NA	NA	976.6	NA	NA		M	NA	NA	NA	NA
2019/11/02 06:08:00	AWS2	10.14	230	11.88	233	M	M	M	NA	NA	976.4	NA	NA		M	NA	NA	NA	NA
2019/11/02 06:09:00	AWS2	11.14	228	12.09	220	M	M	M	NA	NA	975.5	NA	NA		M	NA	NA	NA	NA
2019/11/02 06:10:00	AWS2	11.70	227	12.81	222	M	M	M	NA	NA	975.3	NA	NA		M	NA	NA	NA	NA
2019/11/02 06:11:00	AWS2	11.57	226	12.81	222	M	M	M	NA	NA	975.8	NA	NA		M	NA	NA	NA	NA
2019/11/02 06:12:00	AWS2	11.33	225	12.81	222	M	M	M	NA	NA	976.1	NA	NA		M	NA	NA	NA	NA
2019/11/02 06:13:00	AWS2	11.12	225	12.81	222	M	M	M	NA	NA	976.4	NA	NA		M	NA	NA	NA	NA
2019/11/02 06:14:00	AWS2	10.61	228	12.81	222	M	M	M	NA	NA	976.6	NA	NA		M	NA	NA	NA	NA
2019/11/02 06:15:00	AWS2	10.71	228	12.81	222	M	M	M	NA	NA	976.4	NA	NA		M	NA	NA	NA	NA
2019/11/02 06:16:00	AWS2	10.62	228	12.81	222	M	M	M	NA	NA	976.8	NA	NA		M	NA	NA	NA	NA
2019/11/02 06:17:00	AWS2	10.51	227	12.81	222	M	M	M	NA	NA	975.5	NA	NA		M	NA	NA	NA	NA
2019/11/02 06:18:00	AWS2	10.12	225	12.81	222	M	M	M	NA	NA	976.3	NA	NA		M	NA	NA	NA	NA
2019/11/02 06:19:00	AWS2	9.29	226	12.81	222	M	M	M	NA	NA	976.0	NA	NA		M	NA	NA	NA	NA
2019/11/02 06:20:00	AWS2	8.90	228	12.55	219	M	M	M	NA	NA	975.8	NA	NA		M	NA	NA	NA	NA
2019/11/02 06:21:00	AWS2	9.29	228	12.55	219	M	M	M	NA	NA	977.6	NA	NA		M	NA	NA	NA	NA
2019/11/02 06:22:00	AWS2	10.32	229	11.88	225	M	M	M	NA	NA	976.2	NA	NA		M	NA	NA	NA	NA
2019/11/02 06:23:00	AWS2	10.67	229	11.88	225	M	M	M	NA	NA	976.6	NA	NA		M	NA	NA	NA	NA
2019/11/02 06:24:00	AWS2	10.70	230	12.14	230	M	M	M	NA	NA	974.9	NA	NA		M	NA	NA	NA	NA
2019/11/02 06:25:00	AWS2	11.25	230	12.24	226	M	M	M	NA	NA	973.7	NA	NA		M	NA	NA	NA	NA
2019/11/02 06:26:00	AWS2	10.89	228	12.24	226	M	M	M	NA	NA	973.9	NA	NA		M	NA	NA	NA	NA
2019/11/02 06:27:01	AWS2	10.36	228	12.24	226	M	M	M	NA	NA	974.3	NA	NA		M	NA	NA	NA	NA
2019/11/02 06:28:00	AWS2	10.17	227	12.24	226	M	M	M	NA	NA	973.7	NA	NA		M	NA	NA	NA	NA
2019/11/02 06:29:00	AWS2	10.05	228	12.24	226	M	M	M	NA	NA	976.0	NA	NA		M	NA	NA	NA	NA
2019/11/02 06:30:00	AWS2	11.01	230	12.71	233	M	M	M	NA	NA	973.1	NA	NA		M	NA	NA	NA	NA
2019/11/02 06:31:00	AWS2	11.45	231	12.71	233	M	M	M	NA	NA	973.9	NA	NA		M	NA	NA	NA	NA
2019/11/02 06:32:01	AWS2	11.14	229	12.71	233	M	M	M	NA	NA	974.5	NA	NA		M	NA	NA	NA	NA
2019/11/02 06:33:00	AWS2	11.23	228	12.71	233	M	M	M	NA	NA	974.7	NA	NA		M	NA	NA	NA	NA
2019/11/02 06:34:00	AWS2	11.19	227	12.71	233	M	M	M	NA	NA	973.8	NA	NA		M	NA	NA	NA	NA
2019/11/02 06:35:00	AWS2	11.38	229	12.81	229	M	M	M	NA	NA	974.2	NA	NA		M	NA	NA	NA	NA
2019/11/02 06:36:00	AWS2	12.10	229	13.48	223	M	M	M	NA	NA	976.5	NA	NA		M	NA	NA	NA	NA
2019/11/02 06:37:00	AWS2	11.97	226	13.48	223	M	M	M	NA	NA	973.5	NA	NA		M	NA	NA	NA	NA
2019/11/02 06:38:00	AWS2	11.35	224	13.48	223	M	M	M	NA	NA	972.9	NA	NA		M	NA	NA	NA	NA
2019/11/02 06:39:00	AWS2	11.22	223	13.48	223	M	M	M	NA	NA	974.1	NA	NA		M	NA	NA	NA	NA
2019/11/02 06:40:00	AWS2	10.72	223	13.48	223	M	M	M	NA	NA	976.0	NA	NA		M	NA	NA	NA	NA
2019/11/02 06:41:00	AWS2	10.48	226	13.48	223	M	M	M	NA	NA	975.6	NA	NA		M	NA	NA	NA	NA
2019/11/02 06:42:00	AWS2	11.23	228	13.48	223	M	M	M	NA	NA	973.2	NA	NA		M	NA	NA	NA	NA
2019/11/02 06:43:00	AWS2	11.58	225	13.48	223	M	M	M	NA	NA	975.1	NA	NA		M	NA	NA	NA	NA
2019/11/02 06:44:01	AWS2	11.52	224	13.48	223	M	M	M	NA	NA	972.2	NA	NA		M	NA	NA	NA	NA
2019/11/02 06:45:01	AWS2	11.61	226	13.48	223	M	M	M	NA	NA	975.1	NA	NA		M	NA	NA	NA	NA
2019/11/02 06:46:00	AWS2	11.22	228	13.38	228	M	M	M	NA	NA	974.3	NA	NA		M	NA	NA	NA	NA
2019/11/02 06:47:00	AWS2	10.39	226	13.38	228	M	M	M	NA	NA	973.1	NA	NA		M	NA	NA	NA	NA
2019/11/02 06:48:00	AWS2	10.03	224	13.38	228	M	M	M	NA	NA	974.2	NA	NA		M	NA	NA	NA	NA
2019/11/02 06:49:00	AWS2	10.20	227	13.38	228	M	M	M	NA	NA	975.2	NA	NA		M	NA	NA	NA	NA
2019/11/02 06:50:00	AWS2	10.87	230	13.38	228	M	M	M	NA	NA	974.0	NA	NA		M	NA	NA	NA	NA
2019/11/02 06:51:00	AWS2	11.38	229	13.38	228	M	M	M	NA	NA	971.9	NA	NA		M	NA	NA	NA	NA
2019/11/02 06:52:00	AWS2	11.55	229	12.81	227	M	M	M	NA	NA	974.1	NA	NA		M	NA	NA	NA	NA
2019/11/02 06:53:00	AWS2	11.36	229	12.81	222	M	M	M	NA	NA	975.2	NA	NA		M	NA	NA	NA	NA
2019/11/02 06:54:00	AWS2	11.62	227	12.96	223	M	M	M	NA	NA	972.8	NA	NA		M	NA	NA	NA	NA
2019/11/02 06:55:01	AWS2	12.34	224	12.96	223	M	M	M	NA	NA	973.4	NA	NA		M	NA	NA	NA	NA
2019/11/02 06:56:00	AWS2	12.20	221	12.96	223	M	M	M	NA	NA	972.5	NA	NA		M	NA	NA	NA	NA
2019/11/02 06:57:00	AWS2	11.44	224	12.96	223	M	M	M	NA	NA	973.4	NA	NA		M	NA	NA	NA	NA
2019/11/02 06:58:00	AWS2	11.50	230	13.38	233	M	M	M	NA	NA	972.8	NA	NA		M	NA	NA	NA	NA
2019/11/02 06:59:00	AWS2	12.10	230	13.38	233	M	M	M	NA	NA	974.3	NA	NA		M	NA	NA	NA	NA
2019/11/02 07:00:00	AWS2	11.81	227	13.38	233	M	M	M	NA	NA	974.2	NA	NA		M	NA	NA	NA	NA
2019/11/02 07:01:00	AWS2	11.78	225	13.38	233	M	M	M	NA	NA	972.7	NA	NA		M	NA	NA	NA	NA
2019/11/02 07:02:00	AWS2	11.44	225	13.38	233	M	M	M	NA	NA	973.9	NA	NA		M	NA	NA	NA	NA
2019/11/02 07:03:00	AWS2	11.54	225	13.38	233	M	M	M	NA	NA	973.7	NA	NA		M	NA	NA	NA	NA
2019/11/02 07:04:00	AWS2	12.02	225	13.38	233	M	M	M	NA	NA	974.3	NA	NA		M	NA	NA	NA	NA
2019/11/02 07:05:00	AWS2	11.51	226	13.38	233	M	M	M	NA	NA	972.3	NA	NA		M	NA	NA	NA	NA
2019/11/02 07:06:00	AWS2	11.00	226	13.38	233	M	M	M	NA	NA	973.8	NA	NA		M	NA	NA	NA	NA
2019/11/02 07:07:00	AWS2	10.74	228	13.38	233	M	M	M	NA	NA	974.0	NA	NA		M	NA	NA	NA	NA
2019/11/02 07:08:00	AWS2	10.66	229	13.17	226	M	M	M	NA	NA	974.7	NA	NA		M	NA	NA	NA	NA
2019/11/02 07:09:00	AWS2	10.45	226	13.17	226	M	M	M	NA	NA	974.4	NA	NA		M	NA	NA	NA	NA
2019/11/02 07:10:00	AWS2	10.67	224	13.17	226	M	M	M	NA	NA	973.6	NA	NA		M	NA	NA	NA	NA
2019/11/02 07:11:00	AWS2	11.10	222	12.81	222	M	M	M	NA	NA	973.5	NA	NA		M	NA	NA	NA	NA
2019/11/02 07:12:00	AWS2	10.73	224	12.81	222	M	M	M	NA	NA	973.9	NA	NA		M	NA	NA	NA	NA
2019/11/02 07:13:00	AWS2	10.28	225	12.81	222	M	M	M	NA	NA	974.4	NA	NA		M	NA	NA	NA	NA
2019/11/02 07:14:00	AWS2	10.48	223	12.14	229	M	M	M	NA	NA	973.6	NA	NA		M	NA	NA	NA	NA
2019/11/02 07:15:00	AWS2	10.93	222	12.14	229	M	M	M	NA	NA	973.3	NA	NA		M	NA	NA	NA	NA
2019/11/02 07:16:00	AWS2	10.91	224	12.14	229	M	M	M	NA	NA	974.7	NA	NA		M	NA	NA	NA	NA
2019/11/02 07:17:00	AWS2	10.91	225	12.14	229	M	M	M	NA	NA	974.7	NA	NA		M	NA	NA	NA	NA
2019/11/02 07:18:00	AWS2	10.88	226	12.35	229	M	M	M	NA	NA	974.6	NA	NA		M	NA	NA	NA	NA
2019/11/02 07:19:00	AWS2	10.60	224	12.35	229	M	M	M	NA	NA	974.3	NA	NA		M	NA	NA	NA	NA
2019/11/02 07:20:00	AWS2	10.09	225	12.35	229	M	M	M	NA	NA	975.4	NA	NA		M	NA	NA	NA	NA
2019/11/02 07:21:00	AWS2	10.37	229	12.35	229	M	M	M	NA	NA	973.1	NA	NA		M	NA	NA	NA	NA
2019/11/02 07:22:00	AWS2	10.45	227	12.35	229	M	M	M	NA	NA	974.6	NA	NA		M	NA	NA	NA	NA
2019/11/02 07:23:00	AWS2	9.06	226	12.35	229	M	M	M	NA	NA	974.2	NA	NA		M	NA	NA	NA	NA
2019/11/02 07:24:00	AWS2	8.45	229	12.35	229	M	M	M	NA	NA	975.0	NA	NA		M	NA	NA	NA	NA
2019/11/02 07:25:00	AWS2	9.12	229	12.35	229	M	M	M	NA	NA	974.0	NA	NA		M	NA	NA	NA	NA
2019/11/02 07:26:00	AWS2	9.96	224	12.35	229	M	M	M	NA	NA	974.4	NA	NA		M	NA	NA	NA	NA
2019/11/02 07:27:00	AWS2	9.58	222	12.35	229	M	M	M	NA	NA	974.2	NA	NA		M	NA	NA	NA	NA
2019/11/02 07:28:00	AWS2	9.19	227	11.99	225	M	M	M	NA	NA	974.9	NA	NA		M	NA	NA	NA	NA
2019/11/02 07:29:00	AWS2	10.12	228	11.99	225	M	M	M	NA	NA	975.0	NA	NA		M	NA	NA	NA	NA
2019/11/02 07:30:00	AWS2	10.78	225	11.99	225	M	M	M	NA	NA	974.3	NA	NA		M	NA	NA	NA	NA
2019/11/02 07:31:00	AWS2	10.97	227	11.68	222	M	M	M	NA	NA	971.6	NA	NA		M	NA	NA	NA	NA
2019/11/02 07:32:00	AWS2	11.15	226	12.45	225	M	M	M	NA	NA	974.1	NA	NA		M	NA	NA	NA	NA
2019/11/02 07:33:00	AWS2	10.87	224	12.45	225	M	M	M	NA	NA	974.1	NA	NA		M	NA	NA	NA	NA
2019/11/02 07:34:00	AWS2	10.52	225	12.45	225	M	M	M	NA	NA	971.8	NA	NA		M	NA	NA	NA	NA
2019/11/02 07:35:00	AWS2	10.23	225	12.45	225	M	M	M	NA	NA	973.5	NA	NA		M	NA	NA	NA	NA
2019/11/02 07:36:00	AWS2	10.05	223	12.45	225	M	M	M	NA	NA	972.5	NA	NA		M	NA	NA	NA	NA
2019/11/02 07:37:00	AWS2	9.85	223	12.45	225	M	M	M	NA	NA	974.4	NA	NA		M	NA	NA	NA	NA
2019/11/02 07:38:00	AWS2	9.56	230	12.45	225	M	M	M	NA	NA	974.3	NA	NA		M	NA	NA	NA	NA
2019/11/02 07:39:00	AWS2	9.89	232	12.45	225	M	M	M	NA	NA	972.7	NA	NA		M	NA	NA	NA	NA
2019/11/02 07:40:00	AWS2	10.34	229	12.45	225	M	M	M	NA	NA	974.5	NA	NA		M	NA	NA	NA	NA
2019/11/02 07:41:00	AWS2	10.36	228	12.45	225	M	M	M	NA	NA	974.1	NA	NA		M	NA	NA	NA	NA
2019/11/02 07:42:00	AWS2	10.13	231	11.63	223	M	M	M	NA	NA	974.4	NA	NA		M	NA	NA	NA	NA
2019/11/02 07:43:00	AWS2	10.26	233	11.63	223	M	M	M	NA	NA	973.2	NA	NA		M	NA	NA	NA	NA
2019/11/02 07:44:00	AWS2	10.25	231	11.63	223	M	M	M	NA	NA	973.1	NA	NA		M	NA	NA	NA	NA
2019/11/02 07:45:00	AWS2	10.29	229	11.63	223	M	M	M	NA	NA	973.2	NA	NA		M	NA	NA	NA	NA
2019/11/02 07:46:00	AWS2	10.49	231	11.42	230	M	M	M	NA	NA	974.3	NA	NA		M	NA	NA	NA	NA
2019/11/02 07:47:00	AWS2	10.59	235	11.42	230	M	M	M	NA	NA	975.1	NA	NA		M	NA	NA	NA	NA
2019/11/02 07:48:00	AWS2	10.90	233	11.68	233	M	M	M	NA	NA	972.3	NA	NA		M	NA	NA	NA	NA
2019/11/02 07:49:00	AWS2	10.94	230	11.68	233	M	M	M	NA	NA	973.6	NA	NA		M	NA	NA	NA	NA
2019/11/02 07:50:00	AWS2	9.98	232	11.68	233	M	M	M	NA	NA	973.9	NA	NA		M	NA	NA	NA	NA
2019/11/02 07:51:00	AWS2	9.04	233	11.68	233	M	M	M	NA	NA	973.0	NA	NA		M	NA	NA	NA	NA
2019/11/02 07:52:00	AWS2	9.28	232	11.68	233	M	M	M	NA	NA	974.1	NA	NA		M	NA	NA	NA	NA
2019/11/02 07:53:00	AWS2	10.12	232	11.68	233	M	M	M	NA	NA	974.6	NA	NA		M	NA	NA	NA	NA
2019/11/02 07:54:00	AWS2	10.65	231	11.78	233	M	M	M	NA	NA	975.0	NA	NA		M	NA	NA	NA	NA
2019/11/02 07:55:00	AWS2	10.77	232	12.04	230	M	M	M	NA	NA	972.8	NA	NA		M	NA	NA	NA	NA
2019/11/02 07:56:00	AWS2	10.96	231	12.04	231	M	M	M	NA	NA	972.5	NA	NA		M	NA	NA	NA	NA
2019/11/02 07:57:00	AWS2	10.58	229	12.04	231	M	M	M	NA	NA	974.5	NA	NA		M	NA	NA	NA	NA
2019/11/02 07:58:00	AWS2	10.73	229	12.14	228	M	M	M	NA	NA	974.1	NA	NA		M	NA	NA	NA	NA
2019/11/02 07:59:00	AWS2	11.49	233	12.24	234	M	M	M	NA	NA	973.6	NA	NA		M	NA	NA	NA	NA
2019/11/02 08:00:00	AWS2	11.79	233	12.50	233	M	M	M	NA	NA	973.8	NA	NA		M	NA	NA	NA	NA
2019/11/02 08:01:00	AWS2	11.55	228	12.50	233	M	M	M	NA	NA	974.1	NA	NA		M	NA	NA	NA	NA
2019/11/02 08:02:00	AWS2	10.86	226	12.50	233	M	M	M	NA	NA	972.7	NA	NA		M	NA	NA	NA	NA
2019/11/02 08:03:00	AWS2	10.74	226	12.50	233	M	M	M	NA	NA	974.1	NA	NA		M	NA	NA	NA	NA
2019/11/02 08:04:00	AWS2	10.76	225	12.50	233	M	M	M	NA	NA	973.3	NA	NA		M	NA	NA	NA	NA
2019/11/02 08:05:00	AWS2	10.59	224	12.50	233	M	M	M	NA	NA	975.0	NA	NA		M	NA	NA	NA	NA
2019/11/02 08:06:00	AWS2	10.07	225	12.50	233	M	M	M	NA	NA	972.8	NA	NA		M	NA	NA	NA	NA
2019/11/02 08:07:00	AWS2	10.19	226	12.50	233	M	M	M	NA	NA	974.8	NA	NA		M	NA	NA	NA	NA
2019/11/02 08:08:00	AWS2	10.64	225	12.50	233	M	M	M	NA	NA	975.8	NA	NA		M	NA	NA	NA	NA
2019/11/02 08:09:00	AWS2	10.66	223	12.50	233	M	M	M	NA	NA	975.0	NA	NA		M	NA	NA	NA	NA
2019/11/02 08:10:00	AWS2	10.34	225	11.83	221	M	M	M	NA	NA	974.4	NA	NA		M	NA	NA	NA	NA
2019/11/02 08:11:00	AWS2	9.87	228	11.83	221	M	M	M	NA	NA	973.1	NA	NA		M	NA	NA	NA	NA
2019/11/02 08:12:00	AWS2	9.54	227	11.83	221	M	M	M	NA	NA	972.6	NA	NA		M	NA	NA	NA	NA
2019/11/02 08:13:00	AWS2	9.40	227	11.83	221	M	M	M	NA	NA	974.2	NA	NA		M	NA	NA	NA	NA
2019/11/02 08:14:00	AWS2	9.31	226	11.83	221	M	M	M	NA	NA	974.4	NA	NA		M	NA	NA	NA	NA
2019/11/02 08:15:00	AWS2	9.81	224	11.83	221	M	M	M	NA	NA	974.5	NA	NA		M	NA	NA	NA	NA
2019/11/02 08:16:00	AWS2	10.62	222	11.83	221	M	M	M	NA	NA	971.9	NA	NA		M	NA	NA	NA	NA
2019/11/02 08:17:00	AWS2	10.78	222	11.88	227	M	M	M	NA	NA	975.0	NA	NA		M	NA	NA	NA	NA
2019/11/02 08:18:00	AWS2	10.74	222	11.88	227	M	M	M	NA	NA	974.7	NA	NA		M	NA	NA	NA	NA
2019/11/02 08:19:00	AWS2	11.19	224	12.71	225	M	M	M	NA	NA	974.9	NA	NA		M	NA	NA	NA	NA
2019/11/02 08:20:00	AWS2	11.47	226	12.71	225	M	M	M	NA	NA	975.1	NA	NA		M	NA	NA	NA	NA
2019/11/02 08:21:00	AWS2	10.46	227	12.71	225	M	M	M	NA	NA	974.3	NA	NA		M	NA	NA	NA	NA
2019/11/02 08:22:00	AWS2	9.70	224	12.71	225	M	M	M	NA	NA	974.9	NA	NA		M	NA	NA	NA	NA
2019/11/02 08:23:00	AWS2	10.12	225	12.71	225	M	M	M	NA	NA	975.2	NA	NA		M	NA	NA	NA	NA
2019/11/02 08:24:00	AWS2	10.84	229	12.71	225	M	M	M	NA	NA	974.7	NA	NA		M	NA	NA	NA	NA
2019/11/02 08:25:00	AWS2	10.90	230	12.71	225	M	M	M	NA	NA	974.2	NA	NA		M	NA	NA	NA	NA
2019/11/02 08:26:00	AWS2	10.47	229	12.71	225	M	M	M	NA	NA	974.6	NA	NA		M	NA	NA	NA	NA
2019/11/02 08:27:00	AWS2	10.18	229	12.71	225	M	M	M	NA	NA	972.8	NA	NA		M	NA	NA	NA	NA
2019/11/02 08:28:00	AWS2	10.26	229	12.71	225	M	M	M	NA	NA	975.0	NA	NA		M	NA	NA	NA	NA
2019/11/02 08:29:00	AWS2	10.57	229	12.40	234	M	M	M	NA	NA	975.1	NA	NA		M	NA	NA	NA	NA
2019/11/02 08:30:00	AWS2	10.92	230	12.40	234	M	M	M	NA	NA	974.6	NA	NA		M	NA	NA	NA	NA
2019/11/02 08:31:00	AWS2	10.89	229	12.40	234	M	M	M	NA	NA	974.5	NA	NA		M	NA	NA	NA	NA
2019/11/02 08:32:00	AWS2	10.88	229	12.40	234	M	M	M	NA	NA	975.9	NA	NA		M	NA	NA	NA	NA
2019/11/02 08:33:00	AWS2	10.93	229	12.40	234	M	M	M	NA	NA	975.4	NA	NA		M	NA	NA	NA	NA
2019/11/02 08:34:00	AWS2	10.75	232	12.40	234	M	M	M	NA	NA	975.4	NA	NA		M	NA	NA	NA	NA
2019/11/02 08:35:00	AWS2	10.90	234	12.40	234	M	M	M	NA	NA	975.0	NA	NA		M	NA	NA	NA	NA
2019/11/02 08:36:00	AWS2	10.19	234	12.40	234	M	M	M	NA	NA	975.7	NA	NA		M	NA	NA	NA	NA
2019/11/02 08:37:00	AWS2	9.57	231	12.40	234	M	M	M	NA	NA	974.9	NA	NA		M	NA	NA	NA	NA
2019/11/02 08:38:00	AWS2	9.91	230	12.40	234	M	M	M	NA	NA	976.7	NA	NA		M	NA	NA	NA	NA
2019/11/02 08:39:00	AWS2	9.98	228	12.14	236	M	M	M	NA	NA	977.1	NA	NA		M	NA	NA	NA	NA
2019/11/02 08:40:00	AWS2	10.11	224	12.14	236	M	M	M	NA	NA	975.4	NA	NA		M	NA	NA	NA	NA
2019/11/02 08:41:00	AWS2	10.28	223	12.14	236	M	M	M	NA	NA	975.8	NA	NA		M	NA	NA	NA	NA
2019/11/02 08:42:00	AWS2	10.62	224	12.14	236	M	M	M	NA	NA	975.6	NA	NA		M	NA	NA	NA	NA
2019/11/02 08:43:00	AWS2	10.95	225	12.14	236	M	M	M	NA	NA	975.1	NA	NA		M	NA	NA	NA	NA
2019/11/02 08:44:00	AWS2	10.69	226	12.14	236	M	M	M	NA	NA	975.8	NA	NA		M	NA	NA	NA	NA
2019/11/02 08:45:00	AWS2	10.41	227	11.88	229	M	M	M	NA	NA	975.0	NA	NA		M	NA	NA	NA	NA
2019/11/02 08:46:00	AWS2	10.34	230	11.88	229	M	M	M	NA	NA	975.0	NA	NA		M	NA	NA	NA	NA
2019/11/02 08:47:00	AWS2	10.45	231	11.94	228	M	M	M	NA	NA	976.4	NA	NA		M	NA	NA	NA	NA
2019/11/02 08:48:00	AWS2	10.87	229	12.14	230	M	M	M	NA	NA	975.1	NA	NA		M	NA	NA	NA	NA
2019/11/02 08:49:00	AWS2	10.95	230	12.14	230	M	M	M	NA	NA	974.2	NA	NA		M	NA	NA	NA	NA
2019/11/02 08:50:00	AWS2	10.14	233	12.14	230	M	M	M	NA	NA	975.5	NA	NA		M	NA	NA	NA	NA
2019/11/02 08:51:00	AWS2	9.81	234	12.14	230	M	M	M	NA	NA	976.2	NA	NA		M	NA	NA	NA	NA
2019/11/02 08:52:00	AWS2	10.20	231	12.14	230	M	M	M	NA	NA	976.3	NA	NA		M	NA	NA	NA	NA
2019/11/02 08:53:00	AWS2	10.62	228	12.14	230	M	M	M	NA	NA	974.9	NA	NA		M	NA	NA	NA	NA
2019/11/02 08:54:00	AWS2	10.43	228	12.14	230	M	M	M	NA	NA	975.0	NA	NA		M	NA	NA	NA	NA
2019/11/02 08:55:00	AWS2	9.94	231	12.14	230	M	M	M	NA	NA	975.7	NA	NA		M	NA	NA	NA	NA
2019/11/02 08:56:00	AWS2	10.35	234	12.14	230	M	M	M	NA	NA	975.6	NA	NA		M	NA	NA	NA	NA
2019/11/02 08:57:00	AWS2	10.55	234	12.14	230	M	M	M	NA	NA	975.3	NA	NA		M	NA	NA	NA	NA
2019/11/02 08:58:00	AWS2	10.52	232	11.78	225	M	M	M	NA	NA	975.8	NA	NA		M	NA	NA	NA	NA
2019/11/02 08:59:00	AWS2	11.17	231	12.24	226	M	M	M	NA	NA	975.0	NA	NA		M	NA	NA	NA	NA
2019/11/02 09:00:00	AWS2	11.87	229	12.76	226	M	M	M	NA	NA	975.0	NA	NA		M	NA	NA	NA	NA
2019/11/02 09:01:00	AWS2	11.33	228	12.76	226	M	M	M	NA	NA	974.7	NA	NA		M	NA	NA	NA	NA
2019/11/02 09:02:00	AWS2	10.99	229	12.76	226	M	M	M	NA	NA	975.4	NA	NA		M	NA	NA	NA	NA
2019/11/02 09:03:00	AWS2	11.17	229	12.76	226	M	M	M	NA	NA	975.4	NA	NA		M	NA	NA	NA	NA
2019/11/02 09:04:00	AWS2	10.87	229	12.76	226	M	M	M	NA	NA	975.3	NA	NA		M	NA	NA	NA	NA
2019/11/02 09:05:00	AWS2	10.49	230	12.76	226	M	M	M	NA	NA	974.0	NA	NA		M	NA	NA	NA	NA
2019/11/02 09:06:00	AWS2	10.72	231	12.76	226	M	M	M	NA	NA	976.1	NA	NA		M	NA	NA	NA	NA
2019/11/02 09:07:00	AWS2	11.12	231	12.76	226	M	M	M	NA	NA	974.7	NA	NA		M	NA	NA	NA	NA
2019/11/02 09:08:00	AWS2	11.08	232	12.76	226	M	M	M	NA	NA	974.4	NA	NA		M	NA	NA	NA	NA
2019/11/02 09:09:00	AWS2	11.02	232	12.76	226	M	M	M	NA	NA	975.7	NA	NA		M	NA	NA	NA	NA
2019/11/02 09:10:00	AWS2	11.32	233	12.40	233	M	M	M	NA	NA	975.3	NA	NA		M	NA	NA	NA	NA
2019/11/02 09:11:00	AWS2	10.70	232	12.40	233	M	M	M	NA	NA	975.0	NA	NA		M	NA	NA	NA	NA
2019/11/02 09:12:00	AWS2	10.46	227	12.40	233	M	M	M	NA	NA	975.0	NA	NA		M	NA	NA	NA	NA
2019/11/02 09:13:00	AWS2	11.32	223	12.40	233	M	M	M	NA	NA	974.5	NA	NA		M	NA	NA	NA	NA
2019/11/02 09:14:00	AWS2	11.44	220	12.40	233	M	M	M	NA	NA	974.9	NA	NA		M	NA	NA	NA	NA
2019/11/02 09:15:00	AWS2	11.47	218	12.40	233	M	M	M	NA	NA	973.2	NA	NA		M	NA	NA	NA	NA
2019/11/02 09:16:00	AWS2	11.24	217	12.40	233	M	M	M	NA	NA	974.3	NA	NA		M	NA	NA	NA	NA
2019/11/02 09:17:00	AWS2	10.84	218	12.40	233	M	M	M	NA	NA	975.6	NA	NA		M	NA	NA	NA	NA
2019/11/02 09:18:00	AWS2	10.63	219	12.40	233	M	M	M	NA	NA	975.3	NA	NA		M	NA	NA	NA	NA
2019/11/02 09:19:00	AWS2	10.14	220	12.40	233	M	M	M	NA	NA	975.5	NA	NA		M	NA	NA	NA	NA
2019/11/02 09:20:00	AWS2	9.67	221	12.24	218	M	M	M	NA	NA	973.3	NA	NA		M	NA	NA	NA	NA
2019/11/02 09:21:00	AWS2	9.33	222	12.24	218	M	M	M	NA	NA	976.2	NA	NA		M	NA	NA	NA	NA
2019/11/02 09:22:00	AWS2	9.67	224	12.24	218	M	M	M	NA	NA	975.3	NA	NA		M	NA	NA	NA	NA
2019/11/02 09:23:00	AWS2	10.27	223	12.24	218	M	M	M	NA	NA	974.4	NA	NA		M	NA	NA	NA	NA
2019/11/02 09:24:00	AWS2	10.57	224	12.24	218	M	M	M	NA	NA	975.4	NA	NA		M	NA	NA	NA	NA
2019/11/02 09:25:00	AWS2	10.40	223	11.68	219	M	M	M	NA	NA	974.1	NA	NA		M	NA	NA	NA	NA
2019/11/02 09:26:00	AWS2	9.87	220	11.47	225	M	M	M	NA	NA	974.5	NA	NA		M	NA	NA	NA	NA
2019/11/02 09:27:00	AWS2	9.45	221	11.47	225	M	M	M	NA	NA	973.3	NA	NA		M	NA	NA	NA	NA
2019/11/02 09:28:00	AWS2	9.11	223	11.47	225	M	M	M	NA	NA	975.9	NA	NA		M	NA	NA	NA	NA
2019/11/02 09:29:00	AWS2	9.19	221	11.47	225	M	M	M	NA	NA	973.7	NA	NA		M	NA	NA	NA	NA
2019/11/02 09:30:00	AWS2	9.63	221	11.47	225	M	M	M	NA	NA	974.5	NA	NA		M	NA	NA	NA	NA
2019/11/02 09:31:00	AWS2	9.68	222	11.47	225	M	M	M	NA	NA	974.6	NA	NA		M	NA	NA	NA	NA
2019/11/02 09:32:00	AWS2	9.29	222	11.47	225	M	M	M	NA	NA	974.7	NA	NA		M	NA	NA	NA	NA
2019/11/02 09:33:00	AWS2	9.68	221	11.47	225	M	M	M	NA	NA	974.2	NA	NA		M	NA	NA	NA	NA
2019/11/02 09:34:00	AWS2	9.81	221	11.32	227	M	M	M	NA	NA	975.0	NA	NA		M	NA	NA	NA	NA
2019/11/02 09:35:00	AWS2	9.39	221	10.80	220	M	M	M	NA	NA	974.2	NA	NA		M	NA	NA	NA	NA
2019/11/02 09:36:00	AWS2	9.45	222	10.80	220	M	M	M	NA	NA	973.6	NA	NA		M	NA	NA	NA	NA
2019/11/02 09:37:00	AWS2	9.77	222	11.11	219	M	M	M	NA	NA	974.1	NA	NA		M	NA	NA	NA	NA
2019/11/02 09:38:00	AWS2	9.56	224	11.11	219	M	M	M	NA	NA	976.0	NA	NA		M	NA	NA	NA	NA
2019/11/02 09:39:00	AWS2	8.87	225	11.11	219	M	M	M	NA	NA	973.6	NA	NA		M	NA	NA	NA	NA
2019/11/02 09:40:00	AWS2	8.72	222	11.11	219	M	M	M	NA	NA	974.3	NA	NA		M	NA	NA	NA	NA
2019/11/02 09:41:00	AWS2	8.97	223	11.11	219	M	M	M	NA	NA	975.0	NA	NA		M	NA	NA	NA	NA
2019/11/02 09:42:00	AWS2	8.89	223	11.11	219	M	M	M	NA	NA	974.7	NA	NA		M	NA	NA	NA	NA
2019/11/02 09:43:00	AWS2	8.83	221	11.11	219	M	M	M	NA	NA	973.9	NA	NA		M	NA	NA	NA	NA
2019/11/02 09:44:00	AWS2	9.03	224	11.11	219	M	M	M	NA	NA	975.0	NA	NA		M	NA	NA	NA	NA
2019/11/02 09:45:00	AWS2	9.23	225	11.11	219	M	M	M	NA	NA	974.3	NA	NA		M	NA	NA	NA	NA
2019/11/02 09:46:00	AWS2	9.67	225	11.11	219	M	M	M	NA	NA	974.2	NA	NA		M	NA	NA	NA	NA
2019/11/02 09:47:00	AWS2	9.93	225	10.91	220	M	M	M	NA	NA	976.1	NA	NA		M	NA	NA	NA	NA
2019/11/02 09:48:00	AWS2	9.68	226	10.91	220	M	M	M	NA	NA	974.8	NA	NA		M	NA	NA	NA	NA
2019/11/02 09:49:00	AWS2	9.47	227	10.91	220	M	M	M	NA	NA	974.5	NA	NA		M	NA	NA	NA	NA
2019/11/02 09:50:00	AWS2	9.57	226	10.91	220	M	M	M	NA	NA	975.4	NA	NA		M	NA	NA	NA	NA
2019/11/02 09:51:00	AWS2	9.56	226	10.91	220	M	M	M	NA	NA	974.0	NA	NA		M	NA	NA	NA	NA
2019/11/02 09:52:00	AWS2	8.74	228	10.91	220	M	M	M	NA	NA	974.4	NA	NA		M	NA	NA	NA	NA
2019/11/02 09:53:00	AWS2	8.67	227	10.91	220	M	M	M	NA	NA	973.9	NA	NA		M	NA	NA	NA	NA
2019/11/02 09:54:00	AWS2	8.72	229	10.91	220	M	M	M	NA	NA	974.8	NA	NA		M	NA	NA	NA	NA
2019/11/02 09:55:00	AWS2	8.09	229	10.80	225	M	M	M	NA	NA	974.3	NA	NA		M	NA	NA	NA	NA
2019/11/02 09:56:00	AWS2	8.36	227	10.80	225	M	M	M	NA	NA	974.7	NA	NA		M	NA	NA	NA	NA
2019/11/02 09:57:00	AWS2	8.70	226	10.80	225	M	M	M	NA	NA	974.3	NA	NA		M	NA	NA	NA	NA
2019/11/02 09:58:00	AWS2	9.19	229	10.80	225	M	M	M	NA	NA	974.7	NA	NA		M	NA	NA	NA	NA
2019/11/02 09:59:00	AWS2	9.73	232	10.80	225	M	M	M	NA	NA	974.5	NA	NA		M	NA	NA	NA	NA
2019/11/02 10:00:01	AWS2	9.99	233	10.80	225	M	M	M	NA	NA	974.3	NA	NA		M	NA	NA	NA	NA
2019/11/02 10:01:00	AWS2	10.12	232	10.55	234	M	M	M	NA	NA	972.8	NA	NA		M	NA	NA	NA	NA
2019/11/02 10:02:00	AWS2	10.21	232	11.01	231	M	M	M	NA	NA	975.6	NA	NA		M	NA	NA	NA	NA
2019/11/02 10:03:00	AWS2	9.99	234	11.01	231	M	M	M	NA	NA	974.9	NA	NA		M	NA	NA	NA	NA
2019/11/02 10:04:00	AWS2	9.47	234	11.01	231	M	M	M	NA	NA	975.4	NA	NA		M	NA	NA	NA	NA
2019/11/02 10:05:00	AWS2	9.55	231	11.01	231	M	M	M	NA	NA	974.7	NA	NA		M	NA	NA	NA	NA
2019/11/02 10:06:00	AWS2	9.52	230	11.01	231	M	M	M	NA	NA	973.8	NA	NA		M	NA	NA	NA	NA
2019/11/02 10:07:00	AWS2	9.30	231	11.01	231	M	M	M	NA	NA	973.4	NA	NA		M	NA	NA	NA	NA
2019/11/02 10:08:00	AWS2	9.23	229	11.01	231	M	M	M	NA	NA	976.2	NA	NA		M	NA	NA	NA	NA
2019/11/02 10:09:00	AWS2	9.04	231	11.01	231	M	M	M	NA	NA	973.1	NA	NA		M	NA	NA	NA	NA
2019/11/02 10:10:00	AWS2	9.07	234	11.01	231	M	M	M	NA	NA	974.7	NA	NA		M	NA	NA	NA	NA
2019/11/02 10:11:00	AWS2	9.12	230	11.01	231	M	M	M	NA	NA	975.0	NA	NA		M	NA	NA	NA	NA
2019/11/02 10:12:00	AWS2	9.17	228	10.91	237	M	M	M	NA	NA	974.4	NA	NA		M	NA	NA	NA	NA
2019/11/02 10:13:00	AWS2	8.87	232	10.44	231	M	M	M	NA	NA	975.0	NA	NA		M	NA	NA	NA	NA
2019/11/02 10:14:00	AWS2	7.96	234	10.44	231	M	M	M	NA	NA	973.8	NA	NA		M	NA	NA	NA	NA
2019/11/02 10:15:00	AWS2	7.89	234	10.44	231	M	M	M	NA	NA	975.3	NA	NA		M	NA	NA	NA	NA
2019/11/02 10:16:00	AWS2	8.28	236	10.44	231	M	M	M	NA	NA	975.6	NA	NA		M	NA	NA	NA	NA
2019/11/02 10:17:00	AWS2	8.55	238	9.98	233	M	M	M	NA	NA	974.5	NA	NA		M	NA	NA	NA	NA
2019/11/02 10:18:00	AWS2	8.69	240	9.98	233	M	M	M	NA	NA	974.5	NA	NA		M	NA	NA	NA	NA
2019/11/02 10:19:00	AWS2	9.00	236	10.34	232	M	M	M	NA	NA	973.6	NA	NA		M	NA	NA	NA	NA
2019/11/02 10:20:00	AWS2	8.74	234	10.34	232	M	M	M	NA	NA	975.4	NA	NA		M	NA	NA	NA	NA
2019/11/02 10:21:00	AWS2	8.63	236	10.34	232	M	M	M	NA	NA	975.3	NA	NA		M	NA	NA	NA	NA
2019/11/02 10:22:00	AWS2	9.01	237	10.34	232	M	M	M	NA	NA	973.8	NA	NA		M	NA	NA	NA	NA
2019/11/02 10:23:00	AWS2	8.86	238	10.34	232	M	M	M	NA	NA	973.9	NA	NA		M	NA	NA	NA	NA
2019/11/02 10:24:00	AWS2	8.68	238	10.34	232	M	M	M	NA	NA	975.8	NA	NA		M	NA	NA	NA	NA
2019/11/02 10:25:00	AWS2	8.47	237	10.34	232	M	M	M	NA	NA	973.9	NA	NA		M	NA	NA	NA	NA
2019/11/02 10:26:00	AWS2	8.46	236	10.34	232	M	M	M	NA	NA	972.5	NA	NA		M	NA	NA	NA	NA
2019/11/02 10:27:00	AWS2	8.52	239	10.34	232	M	M	M	NA	NA	974.5	NA	NA		M	NA	NA	NA	NA
2019/11/02 10:28:00	AWS2	8.83	238	10.34	232	M	M	M	NA	NA	975.2	NA	NA		M	NA	NA	NA	NA
2019/11/02 10:29:00	AWS2	8.84	234	10.13	236	M	M	M	NA	NA	974.2	NA	NA		M	NA	NA	NA	NA
2019/11/02 10:30:00	AWS2	8.30	233	10.13	236	M	M	M	NA	NA	974.3	NA	NA		M	NA	NA	NA	NA
2019/11/02 10:31:00	AWS2	8.19	235	10.08	238	M	M	M	NA	NA	972.6	NA	NA		M	NA	NA	NA	NA
2019/11/02 10:32:00	AWS2	8.75	235	10.08	238	M	M	M	NA	NA	975.4	NA	NA		M	NA	NA	NA	NA
2019/11/02 10:33:00	AWS2	8.76	236	10.08	238	M	M	M	NA	NA	974.0	NA	NA		M	NA	NA	NA	NA
2019/11/02 10:34:00	AWS2	8.63	237	10.08	238	M	M	M	NA	NA	975.2	NA	NA		M	NA	NA	NA	NA
2019/11/02 10:35:00	AWS2	8.49	237	10.08	238	M	M	M	NA	NA	975.1	NA	NA		M	NA	NA	NA	NA
2019/11/02 10:36:00	AWS2	8.56	237	10.08	238	M	M	M	NA	NA	974.7	NA	NA		M	NA	NA	NA	NA
2019/11/02 10:37:00	AWS2	8.76	236	10.08	238	M	M	M	NA	NA	975.5	NA	NA		M	NA	NA	NA	NA
2019/11/02 10:38:00	AWS2	8.62	233	10.03	240	M	M	M	NA	NA	973.6	NA	NA		M	NA	NA	NA	NA
2019/11/02 10:39:00	AWS2	8.68	233	10.03	240	M	M	M	NA	NA	975.6	NA	NA		M	NA	NA	NA	NA
2019/11/02 10:40:00	AWS2	8.58	235	10.03	240	M	M	M	NA	NA	975.8	NA	NA		M	NA	NA	NA	NA
2019/11/02 10:41:00	AWS2	8.52	237	10.03	240	M	M	M	NA	NA	975.0	NA	NA		M	NA	NA	NA	NA
2019/11/02 10:42:00	AWS2	8.60	238	9.77	236	M	M	M	NA	NA	974.4	NA	NA		M	NA	NA	NA	NA
2019/11/02 10:43:00	AWS2	8.23	238	9.77	236	M	M	M	NA	NA	973.8	NA	NA		M	NA	NA	NA	NA
2019/11/02 10:44:00	AWS2	7.96	237	9.77	236	M	M	M	NA	NA	974.6	NA	NA		M	NA	NA	NA	NA
2019/11/02 10:45:00	AWS2	8.33	237	9.77	236	M	M	M	NA	NA	975.0	NA	NA		M	NA	NA	NA	NA
2019/11/02 10:46:00	AWS2	8.38	236	9.52	235	M	M	M	NA	NA	974.2	NA	NA		M	NA	NA	NA	NA
2019/11/02 10:47:00	AWS2	8.02	234	9.52	235	M	M	M	NA	NA	974.2	NA	NA		M	NA	NA	NA	NA
2019/11/02 10:48:00	AWS2	8.17	236	9.41	235	M	M	M	NA	NA	972.5	NA	NA		M	NA	NA	NA	NA
2019/11/02 10:49:00	AWS2	8.65	237	9.67	237	M	M	M	NA	NA	974.2	NA	NA		M	NA	NA	NA	NA
2019/11/02 10:50:00	AWS2	8.93	236	9.67	237	M	M	M	NA	NA	974.8	NA	NA		M	NA	NA	NA	NA
2019/11/02 10:51:00	AWS2	8.53	238	9.67	237	M	M	M	NA	NA	974.6	NA	NA		M	NA	NA	NA	NA
2019/11/02 10:52:00	AWS2	8.08	240	9.67	237	M	M	M	NA	NA	974.8	NA	NA		M	NA	NA	NA	NA
2019/11/02 10:53:00	AWS2	8.62	240	9.98	238	M	M	M	NA	NA	972.9	NA	NA		M	NA	NA	NA	NA
2019/11/02 10:54:00	AWS2	8.83	239	9.98	238	M	M	M	NA	NA	973.2	NA	NA		M	NA	NA	NA	NA
2019/11/02 10:55:00	AWS2	8.46	241	9.98	238	M	M	M	NA	NA	973.6	NA	NA		M	NA	NA	NA	NA
2019/11/02 10:56:00	AWS2	9.13	241	10.55	241	M	M	M	NA	NA	974.1	NA	NA		M	NA	NA	NA	NA
2019/11/02 10:57:00	AWS2	9.70	240	10.55	241	M	M	M	NA	NA	974.8	NA	NA		M	NA	NA	NA	NA
2019/11/02 10:58:00	AWS2	9.64	242	10.75	236	M	M	M	NA	NA	974.9	NA	NA		M	NA	NA	NA	NA
2019/11/02 10:59:00	AWS2	9.78	239	10.75	236	M	M	M	NA	NA	975.4	NA	NA		M	NA	NA	NA	NA
2019/11/02 11:00:00	AWS2	9.41	239	10.75	236	M	M	M	NA	NA	974.7	NA	NA		M	NA	NA	NA	NA
2019/11/02 11:01:00	AWS2	8.77	240	10.75	236	M	M	M	NA	NA	974.3	NA	NA		M	NA	NA	NA	NA
2019/11/02 11:02:00	AWS2	9.36	241	11.32	245	M	M	M	NA	NA	978.4	NA	NA		M	NA	NA	NA	NA
2019/11/02 11:03:00	AWS2	10.41	241	11.32	245	M	M	M	NA	NA	977.3	NA	NA		M	NA	NA	NA	NA
2019/11/02 11:04:00	AWS2	10.32	241	11.32	245	M	M	M	NA	NA	978.3	NA	NA		M	NA	NA	NA	NA
2019/11/02 11:05:00	AWS2	10.43	241	11.37	244	M	M	M	NA	NA	976.9	NA	NA		M	NA	NA	NA	NA
2019/11/02 11:06:00	AWS2	10.37	238	11.37	244	M	M	M	NA	NA	977.8	NA	NA		M	NA	NA	NA	NA
2019/11/02 11:07:00	AWS2	9.53	238	11.37	244	M	M	M	NA	NA	977.2	NA	NA		M	NA	NA	NA	NA
2019/11/02 11:08:00	AWS2	9.23	239	11.37	244	M	M	M	NA	NA	976.4	NA	NA		M	NA	NA	NA	NA
2019/11/02 11:09:00	AWS2	9.20	239	11.37	244	M	M	M	NA	NA	977.6	NA	NA		M	NA	NA	NA	NA
2019/11/02 11:10:00	AWS2	9.65	239	11.37	244	M	M	M	NA	NA	976.7	NA	NA		M	NA	NA	NA	NA
2019/11/02 11:11:00	AWS2	9.93	236	11.37	244	M	M	M	NA	NA	977.8	NA	NA		M	NA	NA	NA	NA
2019/11/02 11:12:00	AWS2	9.61	235	11.37	244	M	M	M	NA	NA	977.8	NA	NA		M	NA	NA	NA	NA
2019/11/02 11:13:00	AWS2	9.72	236	11.37	244	M	M	M	NA	NA	977.7	NA	NA		M	NA	NA	NA	NA
2019/11/02 11:14:00	AWS2	9.32	237	11.37	244	M	M	M	NA	NA	977.7	NA	NA		M	NA	NA	NA	NA
2019/11/02 11:15:00	AWS2	8.74	239	10.75	235	M	M	M	NA	NA	977.7	NA	NA		M	NA	NA	NA	NA
2019/11/02 11:16:00	AWS2	8.93	239	10.75	235	M	M	M	NA	NA	978.0	NA	NA		M	NA	NA	NA	NA
2019/11/02 11:17:00	AWS2	9.18	238	10.75	235	M	M	M	NA	NA	977.4	NA	NA		M	NA	NA	NA	NA
2019/11/02 11:18:00	AWS2	9.39	240	10.75	235	M	M	M	NA	NA	977.8	NA	NA		M	NA	NA	NA	NA
2019/11/02 11:19:00	AWS2	9.38	240	10.75	235	M	M	M	NA	NA	976.9	NA	NA		M	NA	NA	NA	NA
2019/11/02 11:20:00	AWS2	8.69	241	10.75	235	M	M	M	NA	NA	977.1	NA	NA		M	NA	NA	NA	NA
2019/11/02 11:21:00	AWS2	8.62	240	10.80	238	M	M	M	NA	NA	977.2	NA	NA		M	NA	NA	NA	NA
2019/11/02 11:22:00	AWS2	8.88	240	10.80	238	M	M	M	NA	NA	978.0	NA	NA		M	NA	NA	NA	NA
2019/11/02 11:23:00	AWS2	8.68	242	10.80	238	M	M	M	NA	NA	977.2	NA	NA		M	NA	NA	NA	NA
2019/11/02 11:24:00	AWS2	9.07	242	10.80	238	M	M	M	NA	NA	977.3	NA	NA		M	NA	NA	NA	NA
2019/11/02 11:25:00	AWS2	9.49	239	10.80	238	M	M	M	NA	NA	977.5	NA	NA		M	NA	NA	NA	NA
2019/11/02 11:26:00	AWS2	9.49	240	10.80	238	M	M	M	NA	NA	976.8	NA	NA		M	NA	NA	NA	NA
2019/11/02 11:27:00	AWS2	9.22	241	10.80	238	M	M	M	NA	NA	977.0	NA	NA		M	NA	NA	NA	NA
2019/11/02 11:28:00	AWS2	9.44	239	10.80	238	M	M	M	NA	NA	976.4	NA	NA		M	NA	NA	NA	NA
2019/11/02 11:29:00	AWS2	9.38	240	10.80	238	M	M	M	NA	NA	977.9	NA	NA		M	NA	NA	NA	NA
2019/11/02 11:30:00	AWS2	9.12	240	10.80	238	M	M	M	NA	NA	977.4	NA	NA		M	NA	NA	NA	NA
2019/11/02 11:31:00	AWS2	9.00	238	10.60	239	M	M	M	NA	NA	977.0	NA	NA		M	NA	NA	NA	NA
2019/11/02 11:32:00	AWS2	8.66	237	10.60	239	M	M	M	NA	NA	978.2	NA	NA		M	NA	NA	NA	NA
2019/11/02 11:33:00	AWS2	8.45	237	10.60	239	M	M	M	NA	NA	977.0	NA	NA		M	NA	NA	NA	NA
2019/11/02 11:34:00	AWS2	8.12	237	10.60	239	M	M	M	NA	NA	978.0	NA	NA		M	NA	NA	NA	NA
2019/11/02 11:35:00	AWS2	8.00	239	10.60	239	M	M	M	NA	NA	978.3	NA	NA		M	NA	NA	NA	NA
2019/11/02 11:36:00	AWS2	8.29	239	10.60	239	M	M	M	NA	NA	977.4	NA	NA		M	NA	NA	NA	NA
2019/11/02 11:37:00	AWS2	8.73	235	10.60	239	M	M	M	NA	NA	978.0	NA	NA		M	NA	NA	NA	NA
2019/11/02 11:38:00	AWS2	8.91	236	10.39	235	M	M	M	NA	NA	978.1	NA	NA		M	NA	NA	NA	NA
2019/11/02 11:39:00	AWS2	9.01	238	10.39	235	M	M	M	NA	NA	978.3	NA	NA		M	NA	NA	NA	NA
2019/11/02 11:40:00	AWS2	8.88	236	10.39	235	M	M	M	NA	NA	976.8	NA	NA		M	NA	NA	NA	NA
2019/11/02 11:41:00	AWS2	8.28	234	10.39	235	M	M	M	NA	NA	977.7	NA	NA		M	NA	NA	NA	NA
2019/11/02 11:42:00	AWS2	8.04	235	10.19	238	M	M	M	NA	NA	978.1	NA	NA		M	NA	NA	NA	NA
2019/11/02 11:43:00	AWS2	7.94	234	10.19	238	M	M	M	NA	NA	977.3	NA	NA		M	NA	NA	NA	NA
2019/11/02 11:44:00	AWS2	8.11	234	10.19	238	M	M	M	NA	NA	977.7	NA	NA		M	NA	NA	NA	NA
2019/11/02 11:45:00	AWS2	8.49	237	10.19	238	M	M	M	NA	NA	978.0	NA	NA		M	NA	NA	NA	NA
2019/11/02 11:46:00	AWS2	8.50	238	10.19	238	M	M	M	NA	NA	977.3	NA	NA		M	NA	NA	NA	NA
2019/11/02 11:47:00	AWS2	8.31	237	10.19	238	M	M	M	NA	NA	977.0	NA	NA		M	NA	NA	NA	NA
2019/11/02 11:48:00	AWS2	7.82	236	10.19	238	M	M	M	NA	NA	977.8	NA	NA		M	NA	NA	NA	NA
2019/11/02 11:49:00	AWS2	7.65	237	9.67	233	M	M	M	NA	NA	977.1	NA	NA		M	NA	NA	NA	NA
2019/11/02 11:50:00	AWS2	8.41	238	9.98	237	M	M	M	NA	NA	976.9	NA	NA		M	NA	NA	NA	NA
2019/11/02 11:51:00	AWS2	8.32	239	9.98	237	M	M	M	NA	NA	977.9	NA	NA		M	NA	NA	NA	NA
2019/11/02 11:52:00	AWS2	8.37	239	9.98	237	M	M	M	NA	NA	978.7	NA	NA		M	NA	NA	NA	NA
2019/11/02 11:53:00	AWS2	9.12	241	9.98	237	M	M	M	NA	NA	976.8	NA	NA		M	NA	NA	NA	NA
2019/11/02 11:54:00	AWS2	8.91	243	9.98	237	M	M	M	NA	NA	976.9	NA	NA		M	NA	NA	NA	NA
2019/11/02 11:55:00	AWS2	8.92	241	9.98	237	M	M	M	NA	NA	978.0	NA	NA		M	NA	NA	NA	NA
2019/11/02 11:56:00	AWS2	8.75	242	9.98	237	M	M	M	NA	NA	977.4	NA	NA		M	NA	NA	NA	NA
2019/11/02 11:57:00	AWS2	8.77	241	10.24	233	M	M	M	NA	NA	977.3	NA	NA		M	NA	NA	NA	NA
2019/11/02 11:58:00	AWS2	8.89	239	10.24	233	M	M	M	NA	NA	977.3	NA	NA		M	NA	NA	NA	NA
2019/11/02 11:59:00	AWS2	8.15	242	10.24	233	M	M	M	NA	NA	976.6	NA	NA		M	NA	NA	NA	NA
2019/11/02 12:00:00	AWS2	7.47	242	10.24	233	M	M	M	NA	NA	977.2	NA	NA		M	NA	NA	NA	NA
2019/11/02 12:01:00	AWS2	7.67	243	10.24	233	M	M	M	NA	NA	977.3	NA	NA		M	NA	NA	NA	NA
2019/11/02 12:02:00	AWS2	7.58	243	10.24	233	M	M	M	NA	NA	977.1	NA	NA		M	NA	NA	NA	NA
2019/11/02 12:03:00	AWS2	7.59	243	10.24	233	M	M	M	NA	NA	977.6	NA	NA		M	NA	NA	NA	NA
2019/11/02 12:04:00	AWS2	8.24	242	10.24	233	M	M	M	NA	NA	977.2	NA	NA		M	NA	NA	NA	NA
2019/11/02 12:05:00	AWS2	8.39	242	10.24	233	M	M	M	NA	NA	977.0	NA	NA		M	NA	NA	NA	NA
2019/11/02 12:06:00	AWS2	8.26	244	10.24	233	M	M	M	NA	NA	976.6	NA	NA		M	NA	NA	NA	NA
2019/11/02 12:07:00	AWS2	8.09	247	9.98	237	M	M	M	NA	NA	975.8	NA	NA		M	NA	NA	NA	NA
2019/11/02 12:08:00	AWS2	8.20	250	9.98	237	M	M	M	NA	NA	978.1	NA	NA		M	NA	NA	NA	NA
2019/11/02 12:09:00	AWS2	8.65	246	9.98	237	M	M	M	NA	NA	976.8	NA	NA		M	NA	NA	NA	NA
2019/11/02 12:10:00	AWS2	8.70	243	9.98	237	M	M	M	NA	NA	978.1	NA	NA		M	NA	NA	NA	NA
2019/11/02 12:11:00	AWS2	8.80	243	10.08	244	M	M	M	NA	NA	977.1	NA	NA		M	NA	NA	NA	NA
2019/11/02 12:12:00	AWS2	8.45	245	10.08	244	M	M	M	NA	NA	976.5	NA	NA		M	NA	NA	NA	NA
2019/11/02 12:13:00	AWS2	8.09	248	10.08	244	M	M	M	NA	NA	977.4	NA	NA		M	NA	NA	NA	NA
2019/11/02 12:14:00	AWS2	8.60	247	10.08	244	M	M	M	NA	NA	977.6	NA	NA		M	NA	NA	NA	NA
2019/11/02 12:15:00	AWS2	8.48	247	10.08	244	M	M	M	NA	NA	977.4	NA	NA		M	NA	NA	NA	NA
2019/11/02 12:16:00	AWS2	8.30	247	10.08	244	M	M	M	NA	NA	976.6	NA	NA		M	NA	NA	NA	NA
2019/11/02 12:17:00	AWS2	8.68	245	10.08	244	M	M	M	NA	NA	977.3	NA	NA		M	NA	NA	NA	NA
2019/11/02 12:18:00	AWS2	9.02	244	10.44	244	M	M	M	NA	NA	977.4	NA	NA		M	NA	NA	NA	NA
2019/11/02 12:19:00	AWS2	9.43	242	10.55	240	M	M	M	NA	NA	976.9	NA	NA		M	NA	NA	NA	NA
2019/11/02 12:20:00	AWS2	9.90	240	11.06	240	M	M	M	NA	NA	977.9	NA	NA		M	NA	NA	NA	NA
2019/11/02 12:21:00	AWS2	9.58	241	11.06	240	M	M	M	NA	NA	976.7	NA	NA		M	NA	NA	NA	NA
2019/11/02 12:22:00	AWS2	9.07	245	11.06	240	M	M	M	NA	NA	978.0	NA	NA		M	NA	NA	NA	NA
2019/11/02 12:23:00	AWS2	8.80	246	11.06	240	M	M	M	NA	NA	976.3	NA	NA		M	NA	NA	NA	NA
2019/11/02 12:24:00	AWS2	8.78	243	11.06	240	M	M	M	NA	NA	976.8	NA	NA		M	NA	NA	NA	NA
2019/11/02 12:25:00	AWS2	8.67	242	11.06	240	M	M	M	NA	NA	976.5	NA	NA		M	NA	NA	NA	NA
2019/11/02 12:26:00	AWS2	8.62	243	11.06	240	M	M	M	NA	NA	977.0	NA	NA		M	NA	NA	NA	NA
2019/11/02 12:27:00	AWS2	9.29	243	11.06	240	M	M	M	NA	NA	976.8	NA	NA		M	NA	NA	NA	NA
2019/11/02 12:28:00	AWS2	8.67	245	11.06	240	M	M	M	NA	NA	976.5	NA	NA		M	NA	NA	NA	NA
2019/11/02 12:29:00	AWS2	7.85	245	11.06	240	M	M	M	NA	NA	976.5	NA	NA		M	NA	NA	NA	NA
2019/11/02 12:30:00	AWS2	8.65	243	10.49	243	M	M	M	NA	NA	977.1	NA	NA		M	NA	NA	NA	NA
2019/11/02 12:31:00	AWS2	9.36	243	10.80	245	M	M	M	NA	NA	975.0	NA	NA		M	NA	NA	NA	NA
2019/11/02 12:32:00	AWS2	9.12	242	10.80	245	M	M	M	NA	NA	976.7	NA	NA		M	NA	NA	NA	NA
2019/11/02 12:33:00	AWS2	9.00	241	10.80	245	M	M	M	NA	NA	976.1	NA	NA		M	NA	NA	NA	NA
2019/11/02 12:34:00	AWS2	9.24	244	10.80	245	M	M	M	NA	NA	976.2	NA	NA		M	NA	NA	NA	NA
2019/11/02 12:35:00	AWS2	9.20	246	10.80	245	M	M	M	NA	NA	977.3	NA	NA		M	NA	NA	NA	NA
2019/11/02 12:36:00	AWS2	8.95	246	10.80	245	M	M	M	NA	NA	975.9	NA	NA		M	NA	NA	NA	NA
2019/11/02 12:37:00	AWS2	8.91	247	10.80	245	M	M	M	NA	NA	976.0	NA	NA		M	NA	NA	NA	NA
2019/11/02 12:38:00	AWS2	8.74	246	10.80	245	M	M	M	NA	NA	975.9	NA	NA		M	NA	NA	NA	NA
2019/11/02 12:39:00	AWS2	8.28	246	10.80	245	M	M	M	NA	NA	976.7	NA	NA		M	NA	NA	NA	NA
2019/11/02 12:40:00	AWS2	8.11	247	10.80	245	M	M	M	NA	NA	977.5	NA	NA		M	NA	NA	NA	NA
2019/11/02 12:41:00	AWS2	8.00	248	10.34	236	M	M	M	NA	NA	976.9	NA	NA		M	NA	NA	NA	NA
2019/11/02 12:42:00	AWS2	8.21	248	10.34	236	M	M	M	NA	NA	976.3	NA	NA		M	NA	NA	NA	NA
2019/11/02 12:43:00	AWS2	8.08	247	10.19	241	M	M	M	NA	NA	976.5	NA	NA		M	NA	NA	NA	NA
2019/11/02 12:44:00	AWS2	8.33	243	10.19	241	M	M	M	NA	NA	976.2	NA	NA		M	NA	NA	NA	NA
2019/11/02 12:45:00	AWS2	9.00	236	9.88	250	M	M	M	NA	NA	975.8	NA	NA		M	NA	NA	NA	NA
2019/11/02 12:46:00	AWS2	9.01	236	9.88	250	M	M	M	NA	NA	977.0	NA	NA		M	NA	NA	NA	NA
2019/11/02 12:47:00	AWS2	8.72	240	9.72	239	M	M	M	NA	NA	977.6	NA	NA		M	NA	NA	NA	NA
2019/11/02 12:48:00	AWS2	8.72	242	9.72	239	M	M	M	NA	NA	975.7	NA	NA		M	NA	NA	NA	NA
2019/11/02 12:49:00	AWS2	9.00	243	10.08	247	M	M	M	NA	NA	976.2	NA	NA		M	NA	NA	NA	NA
2019/11/02 12:50:00	AWS2	8.67	243	10.08	247	M	M	M	NA	NA	975.8	NA	NA		M	NA	NA	NA	NA
2019/11/02 12:51:00	AWS2	8.04	243	10.08	247	M	M	M	NA	NA	976.5	NA	NA		M	NA	NA	NA	NA
2019/11/02 12:52:00	AWS2	8.32	242	10.08	247	M	M	M	NA	NA	976.4	NA	NA		M	NA	NA	NA	NA
2019/11/02 12:53:00	AWS2	8.56	239	10.08	247	M	M	M	NA	NA	977.2	NA	NA		M	NA	NA	NA	NA
2019/11/02 12:54:00	AWS2	7.88	238	10.08	247	M	M	M	NA	NA	975.2	NA	NA		M	NA	NA	NA	NA
2019/11/02 12:55:00	AWS2	8.32	239	10.08	247	M	M	M	NA	NA	976.5	NA	NA		M	NA	NA	NA	NA
2019/11/02 12:56:00	AWS2	9.31	239	10.08	247	M	M	M	NA	NA	976.3	NA	NA		M	NA	NA	NA	NA
2019/11/02 12:57:00	AWS2	9.51	241	10.08	247	M	M	M	NA	NA	977.4	NA	NA		M	NA	NA	NA	NA
2019/11/02 12:58:00	AWS2	9.01	242	10.08	247	M	M	M	NA	NA	976.1	NA	NA		M	NA	NA	NA	NA
2019/11/02 12:59:00	AWS2	8.94	240	9.98	239	M	M	M	NA	NA	975.8	NA	NA		M	NA	NA	NA	NA
2019/11/02 13:00:00	AWS2	8.99	238	9.98	239	M	M	M	NA	NA	976.8	NA	NA		M	NA	NA	NA	NA
2019/11/02 13:01:00	AWS2	8.68	239	9.98	239	M	M	M	NA	NA	976.3	NA	NA		M	NA	NA	NA	NA
2019/11/02 13:02:00	AWS2	8.93	239	9.98	239	M	M	M	NA	NA	976.6	NA	NA		M	NA	NA	NA	NA
2019/11/02 13:03:00	AWS2	9.02	238	9.98	239	M	M	M	NA	NA	976.5	NA	NA		M	NA	NA	NA	NA
2019/11/02 13:04:00	AWS2	9.03	238	10.08	241	M	M	M	NA	NA	975.5	NA	NA		M	NA	NA	NA	NA
2019/11/02 13:05:00	AWS2	9.27	238	10.08	237	M	M	M	NA	NA	976.0	NA	NA		M	NA	NA	NA	NA
2019/11/02 13:06:00	AWS2	8.95	238	10.08	237	M	M	M	NA	NA	975.5	NA	NA		M	NA	NA	NA	NA
2019/11/02 13:07:00	AWS2	8.38	239	10.08	237	M	M	M	NA	NA	976.1	NA	NA		M	NA	NA	NA	NA
2019/11/02 13:08:00	AWS2	8.39	240	10.08	237	M	M	M	NA	NA	976.5	NA	NA		M	NA	NA	NA	NA
2019/11/02 13:09:00	AWS2	8.97	240	10.34	242	M	M	M	NA	NA	976.1	NA	NA		M	NA	NA	NA	NA
2019/11/02 13:10:00	AWS2	9.52	238	10.34	242	M	M	M	NA	NA	976.3	NA	NA		M	NA	NA	NA	NA
2019/11/02 13:11:00	AWS2	9.16	239	10.34	242	M	M	M	NA	NA	976.2	NA	NA		M	NA	NA	NA	NA
2019/11/02 13:12:00	AWS2	8.97	241	10.34	242	M	M	M	NA	NA	977.1	NA	NA		M	NA	NA	NA	NA
2019/11/02 13:13:00	AWS2	8.84	241	10.34	242	M	M	M	NA	NA	976.2	NA	NA		M	NA	NA	NA	NA
2019/11/02 13:14:00	AWS2	8.72	238	10.34	242	M	M	M	NA	NA	976.5	NA	NA		M	NA	NA	NA	NA
2019/11/02 13:15:00	AWS2	8.85	237	10.34	242	M	M	M	NA	NA	976.6	NA	NA		M	NA	NA	NA	NA
2019/11/02 13:16:00	AWS2	8.54	236	10.34	242	M	M	M	NA	NA	975.3	NA	NA		M	NA	NA	NA	NA
2019/11/02 13:17:00	AWS2	8.56	235	10.34	242	M	M	M	NA	NA	975.2	NA	NA		M	NA	NA	NA	NA
2019/11/02 13:18:00	AWS2	8.50	234	10.34	242	M	M	M	NA	NA	975.6	NA	NA		M	NA	NA	NA	NA
2019/11/02 13:19:00	AWS2	8.70	237	10.13	239	M	M	M	NA	NA	976.1	NA	NA		M	NA	NA	NA	NA
2019/11/02 13:20:00	AWS2	9.00	238	10.03	247	M	M	M	NA	NA	976.1	NA	NA		M	NA	NA	NA	NA
2019/11/02 13:21:00	AWS2	9.21	237	10.08	239	M	M	M	NA	NA	975.7	NA	NA		M	NA	NA	NA	NA
2019/11/02 13:22:00	AWS2	9.34	237	10.08	239	M	M	M	NA	NA	977.0	NA	NA		M	NA	NA	NA	NA
2019/11/02 13:23:00	AWS2	8.85	237	10.08	239	M	M	M	NA	NA	976.8	NA	NA		M	NA	NA	NA	NA
2019/11/02 13:24:00	AWS2	8.12	238	10.08	239	M	M	M	NA	NA	976.6	NA	NA		M	NA	NA	NA	NA
2019/11/02 13:25:00	AWS2	8.35	238	10.08	239	M	M	M	NA	NA	974.8	NA	NA		M	NA	NA	NA	NA
2019/11/02 13:26:00	AWS2	9.24	239	10.13	237	M	M	M	NA	NA	976.2	NA	NA		M	NA	NA	NA	NA
2019/11/02 13:27:00	AWS2	9.28	241	10.13	237	M	M	M	NA	NA	975.8	NA	NA		M	NA	NA	NA	NA
2019/11/02 13:28:00	AWS2	9.17	240	10.13	237	M	M	M	NA	NA	974.7	NA	NA		M	NA	NA	NA	NA
2019/11/02 13:29:00	AWS2	9.32	240	10.13	237	M	M	M	NA	NA	975.2	NA	NA		M	NA	NA	NA	NA
2019/11/02 13:30:00	AWS2	9.11	240	10.13	237	M	M	M	NA	NA	975.7	NA	NA		M	NA	NA	NA	NA
2019/11/02 13:31:00	AWS2	8.74	240	10.13	237	M	M	M	NA	NA	975.7	NA	NA		M	NA	NA	NA	NA
2019/11/02 13:32:00	AWS2	8.13	241	10.13	237	M	M	M	NA	NA	976.1	NA	NA		M	NA	NA	NA	NA
2019/11/02 13:33:00	AWS2	7.65	244	10.13	237	M	M	M	NA	NA	977.0	NA	NA		M	NA	NA	NA	NA
2019/11/02 13:34:00	AWS2	8.30	243	10.13	237	M	M	M	NA	NA	978.1	NA	NA		M	NA	NA	NA	NA
2019/11/02 13:35:00	AWS2	8.52	241	10.13	237	M	M	M	NA	NA	977.4	NA	NA		M	NA	NA	NA	NA
2019/11/02 13:36:00	AWS2	8.04	241	10.08	237	M	M	M	NA	NA	977.0	NA	NA		M	NA	NA	NA	NA
2019/11/02 13:37:00	AWS2	7.49	244	10.08	237	M	M	M	NA	NA	976.6	NA	NA		M	NA	NA	NA	NA
2019/11/02 13:38:00	AWS2	8.03	245	10.08	237	M	M	M	NA	NA	976.6	NA	NA		M	NA	NA	NA	NA
2019/11/02 13:39:00	AWS2	8.97	242	10.08	237	M	M	M	NA	NA	976.7	NA	NA		M	NA	NA	NA	NA
2019/11/02 13:40:00	AWS2	8.48	244	10.03	243	M	M	M	NA	NA	976.8	NA	NA		M	NA	NA	NA	NA
2019/11/02 13:41:00	AWS2	8.03	244	10.03	243	M	M	M	NA	NA	977.2	NA	NA		M	NA	NA	NA	NA
2019/11/02 13:42:00	AWS2	8.16	242	10.03	243	M	M	M	NA	NA	977.9	NA	NA		M	NA	NA	NA	NA
2019/11/02 13:43:00	AWS2	7.77	244	10.03	243	M	M	M	NA	NA	977.4	NA	NA		M	NA	NA	NA	NA
2019/11/02 13:44:00	AWS2	7.43	248	10.03	243	M	M	M	NA	NA	978.4	NA	NA		M	NA	NA	NA	NA
2019/11/02 13:45:00	AWS2	7.50	250	10.03	243	M	M	M	NA	NA	977.5	NA	NA		M	NA	NA	NA	NA
2019/11/02 13:46:00	AWS2	7.69	249	10.03	243	M	M	M	NA	NA	977.1	NA	NA		M	NA	NA	NA	NA
2019/11/02 13:47:00	AWS2	8.08	247	10.03	243	M	M	M	NA	NA	976.8	NA	NA		M	NA	NA	NA	NA
2019/11/02 13:48:00	AWS2	8.22	245	10.03	243	M	M	M	NA	NA	977.0	NA	NA		M	NA	NA	NA	NA
2019/11/02 13:49:00	AWS2	8.24	244	9.72	239	M	M	M	NA	NA	977.3	NA	NA		M	NA	NA	NA	NA
2019/11/02 13:50:00	AWS2	8.13	246	9.72	239	M	M	M	NA	NA	977.1	NA	NA		M	NA	NA	NA	NA
2019/11/02 13:51:00	AWS2	7.86	249	9.31	241	M	M	M	NA	NA	977.3	NA	NA		M	NA	NA	NA	NA
2019/11/02 13:52:00	AWS2	7.46	251	9.31	241	M	M	M	NA	NA	977.1	NA	NA		M	NA	NA	NA	NA
2019/11/02 13:53:00	AWS2	7.10	254	9.31	241	M	M	M	NA	NA	976.3	NA	NA		M	NA	NA	NA	NA
2019/11/02 13:54:00	AWS2	7.57	251	9.31	241	M	M	M	NA	NA	976.7	NA	NA		M	NA	NA	NA	NA
2019/11/02 13:55:00	AWS2	7.62	247	9.31	241	M	M	M	NA	NA	976.7	NA	NA		M	NA	NA	NA	NA
2019/11/02 13:56:00	AWS2	7.59	246	9.31	241	M	M	M	NA	NA	977.5	NA	NA		M	NA	NA	NA	NA
2019/11/02 13:57:00	AWS2	8.28	247	9.36	242	M	M	M	NA	NA	977.0	NA	NA		M	NA	NA	NA	NA
2019/11/02 13:58:00	AWS2	8.11	246	9.36	242	M	M	M	NA	NA	976.7	NA	NA		M	NA	NA	NA	NA
2019/11/02 13:59:00	AWS2	7.71	247	9.36	242	M	M	M	NA	NA	977.2	NA	NA		M	NA	NA	NA	NA
2019/11/02 14:00:00	AWS2	8.08	250	9.36	242	M	M	M	NA	NA	977.7	NA	NA		M	NA	NA	NA	NA
2019/11/02 14:01:00	AWS2	8.79	249	9.67	250	M	M	M	NA	NA	977.4	NA	NA		M	NA	NA	NA	NA
2019/11/02 14:02:00	AWS2	8.57	249	9.67	250	M	M	M	NA	NA	977.2	NA	NA		M	NA	NA	NA	NA
2019/11/02 14:03:00	AWS2	7.99	252	9.67	250	M	M	M	NA	NA	976.9	NA	NA		M	NA	NA	NA	NA
2019/11/02 14:04:00	AWS2	7.09	253	9.67	250	M	M	M	NA	NA	977.5	NA	NA		M	NA	NA	NA	NA
2019/11/02 14:05:00	AWS2	7.06	249	9.67	250	M	M	M	NA	NA	977.6	NA	NA		M	NA	NA	NA	NA
2019/11/02 14:06:00	AWS2	7.76	246	9.67	250	M	M	M	NA	NA	977.1	NA	NA		M	NA	NA	NA	NA
2019/11/02 14:07:00	AWS2	8.05	244	9.67	250	M	M	M	NA	NA	976.9	NA	NA		M	NA	NA	NA	NA
2019/11/02 14:08:00	AWS2	8.77	242	9.83	241	M	M	M	NA	NA	977.2	NA	NA		M	NA	NA	NA	NA
2019/11/02 14:09:00	AWS2	8.70	241	9.83	241	M	M	M	NA	NA	977.1	NA	NA		M	NA	NA	NA	NA
2019/11/02 14:10:00	AWS2	7.93	245	9.83	241	M	M	M	NA	NA	976.7	NA	NA		M	NA	NA	NA	NA
2019/11/02 14:11:00	AWS2	7.89	249	9.83	241	M	M	M	NA	NA	976.6	NA	NA		M	NA	NA	NA	NA
2019/11/02 14:12:00	AWS2	7.77	246	9.83	241	M	M	M	NA	NA	977.1	NA	NA		M	NA	NA	NA	NA
2019/11/02 14:13:00	AWS2	7.26	245	9.83	241	M	M	M	NA	NA	977.5	NA	NA		M	NA	NA	NA	NA
2019/11/02 14:14:00	AWS2	7.16	249	9.83	241	M	M	M	NA	NA	977.9	NA	NA		M	NA	NA	NA	NA
2019/11/02 14:15:00	AWS2	7.00	249	9.83	241	M	M	M	NA	NA	977.3	NA	NA		M	NA	NA	NA	NA
2019/11/02 14:16:00	AWS2	6.57	250	9.83	241	M	M	M	NA	NA	977.7	NA	NA		M	NA	NA	NA	NA
2019/11/02 14:17:00	AWS2	6.56	252	9.83	241	M	M	M	NA	NA	977.1	NA	NA		M	NA	NA	NA	NA
2019/11/02 14:18:00	AWS2	7.18	250	8.85	248	M	M	M	NA	NA	976.7	NA	NA		M	NA	NA	NA	NA
2019/11/02 14:19:00	AWS2	7.04	247	8.85	248	M	M	M	NA	NA	978.3	NA	NA		M	NA	NA	NA	NA
2019/11/02 14:20:00	AWS2	6.50	252	8.85	248	M	M	M	NA	NA	976.9	NA	NA		M	NA	NA	NA	NA
2019/11/02 14:21:00	AWS2	6.82	254	8.64	248	M	M	M	NA	NA	976.8	NA	NA		M	NA	NA	NA	NA
2019/11/02 14:22:00	AWS2	6.96	251	8.64	248	M	M	M	NA	NA	976.8	NA	NA		M	NA	NA	NA	NA
2019/11/02 14:23:00	AWS2	6.72	251	8.64	248	M	M	M	NA	NA	976.7	NA	NA		M	NA	NA	NA	NA
2019/11/02 14:24:00	AWS2	6.90	248	8.64	248	M	M	M	NA	NA	976.3	NA	NA		M	NA	NA	NA	NA
2019/11/02 14:25:00	AWS2	6.99	246	8.64	248	M	M	M	NA	NA	976.6	NA	NA		M	NA	NA	NA	NA
2019/11/02 14:26:00	AWS2	7.26	245	8.64	248	M	M	M	NA	NA	977.5	NA	NA		M	NA	NA	NA	NA
2019/11/02 14:27:00	AWS2	7.69	245	8.64	248	M	M	M	NA	NA	976.6	NA	NA		M	NA	NA	NA	NA
2019/11/02 14:28:00	AWS2	7.43	246	8.44	243	M	M	M	NA	NA	976.3	NA	NA		M	NA	NA	NA	NA
2019/11/02 14:29:00	AWS2	7.32	246	8.44	243	M	M	M	NA	NA	977.0	NA	NA		M	NA	NA	NA	NA
2019/11/02 14:30:01	AWS2	7.29	248	8.44	243	M	M	M	NA	NA	977.0	NA	NA		M	NA	NA	NA	NA
2019/11/02 14:31:00	AWS2	7.22	252	8.64	250	M	M	M	NA	NA	977.3	NA	NA		M	NA	NA	NA	NA
2019/11/02 14:32:00	AWS2	7.02	251	8.64	250	M	M	M	NA	NA	977.5	NA	NA		M	NA	NA	NA	NA
2019/11/02 14:33:00	AWS2	6.78	251	8.64	250	M	M	M	NA	NA	977.6	NA	NA		M	NA	NA	NA	NA
2019/11/02 14:34:00	AWS2	6.87	253	8.64	250	M	M	M	NA	NA	977.3	NA	NA		M	NA	NA	NA	NA
2019/11/02 14:35:00	AWS2	6.81	249	8.64	250	M	M	M	NA	NA	977.2	NA	NA		M	NA	NA	NA	NA
2019/11/02 14:36:00	AWS2	6.69	250	8.64	250	M	M	M	NA	NA	977.0	NA	NA		M	NA	NA	NA	NA
2019/11/02 14:37:00	AWS2	6.80	252	8.64	250	M	M	M	NA	NA	978.1	NA	NA		M	NA	NA	NA	NA
2019/11/02 14:38:00	AWS2	7.05	250	8.64	250	M	M	M	NA	NA	977.0	NA	NA		M	NA	NA	NA	NA
2019/11/02 14:39:00	AWS2	6.94	250	8.64	250	M	M	M	NA	NA	977.0	NA	NA		M	NA	NA	NA	NA
2019/11/02 14:40:00	AWS2	6.99	252	8.64	250	M	M	M	NA	NA	976.1	NA	NA		M	NA	NA	NA	NA
2019/11/02 14:41:00	AWS2	7.21	252	8.13	250	M	M	M	NA	NA	976.3	NA	NA		M	NA	NA	NA	NA
2019/11/02 14:42:00	AWS2	7.14	253	8.13	250	M	M	M	NA	NA	977.2	NA	NA		M	NA	NA	NA	NA
2019/11/02 14:43:00	AWS2	6.79	252	8.13	250	M	M	M	NA	NA	977.5	NA	NA		M	NA	NA	NA	NA
2019/11/02 14:44:00	AWS2	6.99	250	8.39	250	M	M	M	NA	NA	977.5	NA	NA		M	NA	NA	NA	NA
2019/11/02 14:45:00	AWS2	7.05	250	8.39	250	M	M	M	NA	NA	977.0	NA	NA		M	NA	NA	NA	NA
2019/11/02 14:46:00	AWS2	6.66	247	8.39	250	M	M	M	NA	NA	976.6	NA	NA		M	NA	NA	NA	NA
2019/11/02 14:47:00	AWS2	6.86	247	8.39	250	M	M	M	NA	NA	977.4	NA	NA		M	NA	NA	NA	NA
2019/11/02 14:48:00	AWS2	7.18	249	8.39	250	M	M	M	NA	NA	977.5	NA	NA		M	NA	NA	NA	NA
2019/11/02 14:49:00	AWS2	6.75	248	8.39	250	M	M	M	NA	NA	977.0	NA	NA		M	NA	NA	NA	NA
2019/11/02 14:50:00	AWS2	6.48	246	8.39	250	M	M	M	NA	NA	977.1	NA	NA		M	NA	NA	NA	NA
2019/11/02 14:51:00	AWS2	6.74	245	8.39	250	M	M	M	NA	NA	977.6	NA	NA		M	NA	NA	NA	NA
2019/11/02 14:52:00	AWS2	7.04	248	8.39	250	M	M	M	NA	NA	977.5	NA	NA		M	NA	NA	NA	NA
2019/11/02 14:53:00	AWS2	6.85	250	8.39	250	M	M	M	NA	NA	976.3	NA	NA		M	NA	NA	NA	NA
2019/11/02 14:54:00	AWS2	6.65	249	8.23	239	M	M	M	NA	NA	976.7	NA	NA		M	NA	NA	NA	NA
2019/11/02 14:55:00	AWS2	7.07	251	8.23	239	M	M	M	NA	NA	976.4	NA	NA		M	NA	NA	NA	NA
2019/11/02 14:56:00	AWS2	7.00	257	8.23	239	M	M	M	NA	NA	976.9	NA	NA		M	NA	NA	NA	NA
2019/11/02 14:57:00	AWS2	6.84	256	8.23	239	M	M	M	NA	NA	977.2	NA	NA		M	NA	NA	NA	NA
2019/11/02 14:58:00	AWS2	6.94	248	8.23	239	M	M	M	NA	NA	977.2	NA	NA		M	NA	NA	NA	NA
2019/11/02 14:59:00	AWS2	7.25	243	8.39	238	M	M	M	NA	NA	976.4	NA	NA		M	NA	NA	NA	NA
2019/11/02 15:00:00	AWS2	7.40	243	8.39	238	M	M	M	NA	NA	976.7	NA	NA		M	NA	NA	NA	NA
2019/11/02 15:01:00	AWS2	7.40	243	8.39	238	M	M	M	NA	NA	977.2	NA	NA		M	NA	NA	NA	NA
2019/11/02 15:02:00	AWS2	7.41	246	8.39	238	M	M	M	NA	NA	976.4	NA	NA		M	NA	NA	NA	NA
2019/11/02 15:03:00	AWS2	7.07	250	8.39	238	M	M	M	NA	NA	977.7	NA	NA		M	NA	NA	NA	NA
2019/11/02 15:04:00	AWS2	6.71	251	8.39	238	M	M	M	NA	NA	976.9	NA	NA		M	NA	NA	NA	NA
2019/11/02 15:05:00	AWS2	6.19	253	8.39	238	M	M	M	NA	NA	976.4	NA	NA		M	NA	NA	NA	NA
2019/11/02 15:06:00	AWS2	6.13	251	8.39	238	M	M	M	NA	NA	977.4	NA	NA		M	NA	NA	NA	NA
2019/11/02 15:07:00	AWS2	6.63	248	8.39	238	M	M	M	NA	NA	977.4	NA	NA		M	NA	NA	NA	NA
2019/11/02 15:08:00	AWS2	6.70	249	8.39	238	M	M	M	NA	NA	977.4	NA	NA		M	NA	NA	NA	NA
2019/11/02 15:09:00	AWS2	6.65	246	8.13	250	M	M	M	NA	NA	977.0	NA	NA		M	NA	NA	NA	NA
2019/11/02 15:10:00	AWS2	7.14	242	8.13	250	M	M	M	NA	NA	976.2	NA	NA		M	NA	NA	NA	NA
2019/11/02 15:11:00	AWS2	7.36	246	8.13	250	M	M	M	NA	NA	975.8	NA	NA		M	NA	NA	NA	NA
2019/11/02 15:12:00	AWS2	7.15	250	7.97	240	M	M	M	NA	NA	976.9	NA	NA		M	NA	NA	NA	NA
2019/11/02 15:13:00	AWS2	7.05	249	8.23	248	M	M	M	NA	NA	977.2	NA	NA		M	NA	NA	NA	NA
2019/11/02 15:14:00	AWS2	6.83	251	8.23	248	M	M	M	NA	NA	976.7	NA	NA		M	NA	NA	NA	NA
2019/11/02 15:15:00	AWS2	6.58	252	8.23	248	M	M	M	NA	NA	977.1	NA	NA		M	NA	NA	NA	NA
2019/11/02 15:16:00	AWS2	6.30	251	8.23	248	M	M	M	NA	NA	977.3	NA	NA		M	NA	NA	NA	NA
2019/11/02 15:17:00	AWS2	6.66	250	8.23	248	M	M	M	NA	NA	977.1	NA	NA		M	NA	NA	NA	NA
2019/11/02 15:18:00	AWS2	7.07	249	8.23	248	M	M	M	NA	NA	976.5	NA	NA		M	NA	NA	NA	NA
2019/11/02 15:19:00	AWS2	6.67	248	8.23	248	M	M	M	NA	NA	975.9	NA	NA		M	NA	NA	NA	NA
2019/11/02 15:20:00	AWS2	6.47	246	8.23	248	M	M	M	NA	NA	977.3	NA	NA		M	NA	NA	NA	NA
2019/11/02 15:21:00	AWS2	6.73	245	8.23	248	M	M	M	NA	NA	977.2	NA	NA		M	NA	NA	NA	NA
2019/11/02 15:22:00	AWS2	7.15	243	8.23	248	M	M	M	NA	NA	976.9	NA	NA		M	NA	NA	NA	NA
2019/11/02 15:23:00	AWS2	7.52	243	8.18	244	M	M	M	NA	NA	976.3	NA	NA		M	NA	NA	NA	NA
2019/11/02 15:24:00	AWS2	7.40	246	8.18	244	M	M	M	NA	NA	975.4	NA	NA		M	NA	NA	NA	NA
2019/11/02 15:25:00	AWS2	6.57	250	8.18	244	M	M	M	NA	NA	976.3	NA	NA		M	NA	NA	NA	NA
2019/11/02 15:26:00	AWS2	6.08	250	8.18	244	M	M	M	NA	NA	976.9	NA	NA		M	NA	NA	NA	NA
2019/11/02 15:27:00	AWS2	6.55	246	8.18	244	M	M	M	NA	NA	975.1	NA	NA		M	NA	NA	NA	NA
2019/11/02 15:28:00	AWS2	6.79	249	8.18	244	M	M	M	NA	NA	976.2	NA	NA		M	NA	NA	NA	NA
2019/11/02 15:29:00	AWS2	6.68	251	8.18	244	M	M	M	NA	NA	975.9	NA	NA		M	NA	NA	NA	NA
2019/11/02 15:30:00	AWS2	6.87	249	8.18	244	M	M	M	NA	NA	976.3	NA	NA		M	NA	NA	NA	NA
2019/11/02 15:31:00	AWS2	6.74	249	8.18	244	M	M	M	NA	NA	976.4	NA	NA		M	NA	NA	NA	NA
2019/11/02 15:32:00	AWS2	6.25	250	8.18	244	M	M	M	NA	NA	976.0	NA	NA		M	NA	NA	NA	NA
2019/11/02 15:33:00	AWS2	6.29	249	7.82	244	M	M	M	NA	NA	975.8	NA	NA		M	NA	NA	NA	NA
2019/11/02 15:34:00	AWS2	6.15	245	7.82	244	M	M	M	NA	NA	976.1	NA	NA		M	NA	NA	NA	NA
2019/11/02 15:35:00	AWS2	6.38	242	7.82	241	M	M	M	NA	NA	976.1	NA	NA		M	NA	NA	NA	NA
2019/11/02 15:36:00	AWS2	7.10	242	7.92	242	M	M	M	NA	NA	976.6	NA	NA		M	NA	NA	NA	NA
2019/11/02 15:37:00	AWS2	6.99	245	7.92	242	M	M	M	NA	NA	975.8	NA	NA		M	NA	NA	NA	NA
2019/11/02 15:38:00	AWS2	6.70	248	7.92	242	M	M	M	NA	NA	976.7	NA	NA		M	NA	NA	NA	NA
2019/11/02 15:39:00	AWS2	6.66	246	7.92	242	M	M	M	NA	NA	976.0	NA	NA		M	NA	NA	NA	NA
2019/11/02 15:40:00	AWS2	6.82	242	7.92	242	M	M	M	NA	NA	975.9	NA	NA		M	NA	NA	NA	NA
2019/11/02 15:41:00	AWS2	6.73	240	7.92	242	M	M	M	NA	NA	977.7	NA	NA		M	NA	NA	NA	NA
2019/11/02 15:42:00	AWS2	6.29	242	7.92	242	M	M	M	NA	NA	976.9	NA	NA		M	NA	NA	NA	NA
2019/11/02 15:43:00	AWS2	6.36	243	7.92	242	M	M	M	NA	NA	976.9	NA	NA		M	NA	NA	NA	NA
2019/11/02 15:44:00	AWS2	6.80	241	7.92	242	M	M	M	NA	NA	976.2	NA	NA		M	NA	NA	NA	NA
2019/11/02 15:45:00	AWS2	7.15	242	7.92	242	M	M	M	NA	NA	976.4	NA	NA		M	NA	NA	NA	NA
2019/11/02 15:46:00	AWS2	7.09	244	7.61	243	M	M	M	NA	NA	977.2	NA	NA		M	NA	NA	NA	NA
2019/11/02 15:47:00	AWS2	6.64	245	7.61	243	M	M	M	NA	NA	976.1	NA	NA		M	NA	NA	NA	NA
2019/11/02 15:48:00	AWS2	6.73	243	7.61	238	M	M	M	NA	NA	975.2	NA	NA		M	NA	NA	NA	NA
2019/11/02 15:49:00	AWS2	7.04	242	8.08	241	M	M	M	NA	NA	976.1	NA	NA		M	NA	NA	NA	NA
2019/11/02 15:50:00	AWS2	6.87	242	8.08	241	M	M	M	NA	NA	975.3	NA	NA		M	NA	NA	NA	NA
2019/11/02 15:51:00	AWS2	6.36	245	8.08	241	M	M	M	NA	NA	975.6	NA	NA		M	NA	NA	NA	NA
2019/11/02 15:52:00	AWS2	5.95	248	8.08	241	M	M	M	NA	NA	976.7	NA	NA		M	NA	NA	NA	NA
2019/11/02 15:53:00	AWS2	6.14	246	8.08	241	M	M	M	NA	NA	976.7	NA	NA		M	NA	NA	NA	NA
2019/11/02 15:54:00	AWS2	6.49	243	8.08	241	M	M	M	NA	NA	977.3	NA	NA		M	NA	NA	NA	NA
2019/11/02 15:55:00	AWS2	6.76	240	8.08	241	M	M	M	NA	NA	976.6	NA	NA		M	NA	NA	NA	NA
2019/11/02 15:56:00	AWS2	6.84	238	8.08	241	M	M	M	NA	NA	976.5	NA	NA		M	NA	NA	NA	NA
2019/11/02 15:57:00	AWS2	6.63	236	8.08	241	M	M	M	NA	NA	976.1	NA	NA		M	NA	NA	NA	NA
2019/11/02 15:58:00	AWS2	6.66	237	8.08	241	M	M	M	NA	NA	976.5	NA	NA		M	NA	NA	NA	NA
2019/11/02 15:59:00	AWS2	6.64	238	7.51	241	M	M	M	NA	NA	975.4	NA	NA		M	NA	NA	NA	NA
2019/11/02 16:00:00	AWS2	6.57	240	7.51	241	M	M	M	NA	NA	976.9	NA	NA		M	NA	NA	NA	NA
2019/11/02 16:01:00	AWS2	6.63	242	7.51	241	M	M	M	NA	NA	976.9	NA	NA		M	NA	NA	NA	NA
2019/11/02 16:02:00	AWS2	6.72	242	7.51	241	M	M	M	NA	NA	976.4	NA	NA		M	NA	NA	NA	NA
2019/11/02 16:03:00	AWS2	6.14	243	7.51	241	M	M	M	NA	NA	976.8	NA	NA		M	NA	NA	NA	NA
2019/11/02 16:04:00	AWS2	5.96	244	7.51	241	M	M	M	NA	NA	976.8	NA	NA		M	NA	NA	NA	NA
2019/11/02 16:05:00	AWS2	6.25	245	7.31	242	M	M	M	NA	NA	976.7	NA	NA		M	NA	NA	NA	NA
2019/11/02 16:06:00	AWS2	5.99	247	7.31	242	M	M	M	NA	NA	976.8	NA	NA		M	NA	NA	NA	NA
2019/11/02 16:07:00	AWS2	5.92	249	7.31	242	M	M	M	NA	NA	977.2	NA	NA		M	NA	NA	NA	NA
2019/11/02 16:08:00	AWS2	5.98	248	7.31	242	M	M	M	NA	NA	977.2	NA	NA		M	NA	NA	NA	NA
2019/11/02 16:09:00	AWS2	6.35	248	7.51	249	M	M	M	NA	NA	977.3	NA	NA		M	NA	NA	NA	NA
2019/11/02 16:10:00	AWS2	6.36	249	7.51	249	M	M	M	NA	NA	977.3	NA	NA		M	NA	NA	NA	NA
2019/11/02 16:11:00	AWS2	5.97	247	7.51	249	M	M	M	NA	NA	977.3	NA	NA		M	NA	NA	NA	NA
2019/11/02 16:12:00	AWS2	5.70	246	7.51	249	M	M	M	NA	NA	977.0	NA	NA		M	NA	NA	NA	NA
2019/11/02 16:13:00	AWS2	5.96	244	7.51	249	M	M	M	NA	NA	977.1	NA	NA		M	NA	NA	NA	NA
2019/11/02 16:14:00	AWS2	6.49	243	7.51	249	M	M	M	NA	NA	977.2	NA	NA		M	NA	NA	NA	NA
2019/11/02 16:15:00	AWS2	6.15	247	7.51	249	M	M	M	NA	NA	976.9	NA	NA		M	NA	NA	NA	NA
2019/11/02 16:16:00	AWS2	5.66	252	7.51	249	M	M	M	NA	NA	977.5	NA	NA		M	NA	NA	NA	NA
2019/11/02 16:17:00	AWS2	5.78	254	7.51	249	M	M	M	NA	NA	976.8	NA	NA		M	NA	NA	NA	NA
2019/11/02 16:18:00	AWS2	5.71	250	7.51	249	M	M	M	NA	NA	976.8	NA	NA		M	NA	NA	NA	NA
2019/11/02 16:19:00	AWS2	5.51	246	7.15	243	M	M	M	NA	NA	976.5	NA	NA		M	NA	NA	NA	NA
2019/11/02 16:20:00	AWS2	5.68	244	7.15	243	M	M	M	NA	NA	977.0	NA	NA		M	NA	NA	NA	NA
2019/11/02 16:21:00	AWS2	5.56	242	7.15	243	M	M	M	NA	NA	977.4	NA	NA		M	NA	NA	NA	NA
2019/11/02 16:22:00	AWS2	5.79	241	7.15	243	M	M	M	NA	NA	977.0	NA	NA		M	NA	NA	NA	NA
2019/11/02 16:23:00	AWS2	5.88	241	7.10	245	M	M	M	NA	NA	976.7	NA	NA		M	NA	NA	NA	NA
2019/11/02 16:24:00	AWS2	5.48	244	6.58	240	M	M	M	NA	NA	977.0	NA	NA		M	NA	NA	NA	NA
2019/11/02 16:25:00	AWS2	5.56	247	6.58	240	M	M	M	NA	NA	977.4	NA	NA		M	NA	NA	NA	NA
2019/11/02 16:26:00	AWS2	5.79	247	6.58	240	M	M	M	NA	NA	977.8	NA	NA		M	NA	NA	NA	NA
2019/11/02 16:27:00	AWS2	5.78	246	6.58	240	M	M	M	NA	NA	977.4	NA	NA		M	NA	NA	NA	NA
2019/11/02 16:28:00	AWS2	5.75	244	6.69	244	M	M	M	NA	NA	977.0	NA	NA		M	NA	NA	NA	NA
2019/11/02 16:29:00	AWS2	6.07	242	6.69	238	M	M	M	NA	NA	977.0	NA	NA		M	NA	NA	NA	NA
2019/11/02 16:30:00	AWS2	6.16	242	6.69	238	M	M	M	NA	NA	976.7	NA	NA		M	NA	NA	NA	NA
2019/11/02 16:31:00	AWS2	5.89	243	6.69	238	M	M	M	NA	NA	976.8	NA	NA		M	NA	NA	NA	NA
2019/11/02 16:32:00	AWS2	5.51	243	6.69	238	M	M	M	NA	NA	977.8	NA	NA		M	NA	NA	NA	NA
2019/11/02 16:33:00	AWS2	5.53	243	6.69	238	M	M	M	NA	NA	977.1	NA	NA		M	NA	NA	NA	NA
2019/11/02 16:34:00	AWS2	5.85	241	6.69	238	M	M	M	NA	NA	976.9	NA	NA		M	NA	NA	NA	NA
2019/11/02 16:35:00	AWS2	6.25	240	7.00	238	M	M	M	NA	NA	977.0	NA	NA		M	NA	NA	NA	NA
2019/11/02 16:36:00	AWS2	6.49	238	7.05	238	M	M	M	NA	NA	977.3	NA	NA		M	NA	NA	NA	NA
2019/11/02 16:37:00	AWS2	6.25	238	7.05	238	M	M	M	NA	NA	976.8	NA	NA		M	NA	NA	NA	NA
2019/11/02 16:38:00	AWS2	6.27	237	7.05	238	M	M	M	NA	NA	976.9	NA	NA		M	NA	NA	NA	NA
2019/11/02 16:39:00	AWS2	6.20	237	7.05	238	M	M	M	NA	NA	977.2	NA	NA		M	NA	NA	NA	NA
2019/11/02 16:40:00	AWS2	6.17	236	7.05	238	M	M	M	NA	NA	977.2	NA	NA		M	NA	NA	NA	NA
2019/11/02 16:41:00	AWS2	6.27	238	7.05	238	M	M	M	NA	NA	977.2	NA	NA		M	NA	NA	NA	NA
2019/11/02 16:42:00	AWS2	6.26	241	7.05	238	M	M	M	NA	NA	976.7	NA	NA		M	NA	NA	NA	NA
2019/11/02 16:43:00	AWS2	6.10	242	7.05	238	M	M	M	NA	NA	977.0	NA	NA		M	NA	NA	NA	NA
2019/11/02 16:44:00	AWS2	5.78	243	7.05	238	M	M	M	NA	NA	976.9	NA	NA		M	NA	NA	NA	NA
2019/11/02 16:45:00	AWS2	5.83	244	7.05	238	M	M	M	NA	NA	977.1	NA	NA		M	NA	NA	NA	NA
2019/11/02 16:46:00	AWS2	6.19	244	7.15	240	M	M	M	NA	NA	976.7	NA	NA		M	NA	NA	NA	NA
2019/11/02 16:47:00	AWS2	6.19	240	7.15	240	M	M	M	NA	NA	977.0	NA	NA		M	NA	NA	NA	NA
2019/11/02 16:48:00	AWS2	6.09	240	7.15	240	M	M	M	NA	NA	976.9	NA	NA		M	NA	NA	NA	NA
2019/11/02 16:49:00	AWS2	6.11	243	7.15	240	M	M	M	NA	NA	977.2	NA	NA		M	NA	NA	NA	NA
2019/11/02 16:50:00	AWS2	5.81	243	7.15	240	M	M	M	NA	NA	977.2	NA	NA		M	NA	NA	NA	NA
2019/11/02 16:51:00	AWS2	5.73	241	7.15	240	M	M	M	NA	NA	976.4	NA	NA		M	NA	NA	NA	NA
2019/11/02 16:52:00	AWS2	5.55	244	7.15	240	M	M	M	NA	NA	976.8	NA	NA		M	NA	NA	NA	NA
2019/11/02 16:53:00	AWS2	5.54	248	7.15	240	M	M	M	NA	NA	977.1	NA	NA		M	NA	NA	NA	NA
2019/11/02 16:54:00	AWS2	5.55	248	7.15	240	M	M	M	NA	NA	977.1	NA	NA		M	NA	NA	NA	NA
2019/11/02 16:55:00	AWS2	5.48	246	7.15	240	M	M	M	NA	NA	976.6	NA	NA		M	NA	NA	NA	NA
2019/11/02 16:56:00	AWS2	5.55	246	6.84	242	M	M	M	NA	NA	977.1	NA	NA		M	NA	NA	NA	NA
2019/11/02 16:57:00	AWS2	5.59	244	6.84	242	M	M	M	NA	NA	976.8	NA	NA		M	NA	NA	NA	NA
2019/11/02 16:58:00	AWS2	6.00	241	6.74	238	M	M	M	NA	NA	976.6	NA	NA		M	NA	NA	NA	NA
2019/11/02 16:59:00	AWS2	5.81	241	6.74	238	M	M	M	NA	NA	976.2	NA	NA		M	NA	NA	NA	NA
2019/11/02 17:00:00	AWS2	5.65	242	6.74	238	M	M	M	NA	NA	976.6	NA	NA		M	NA	NA	NA	NA
2019/11/02 17:01:00	AWS2	6.02	240	6.74	240	M	M	M	NA	NA	976.6	NA	NA		M	NA	NA	NA	NA
2019/11/02 17:02:00	AWS2	6.20	240	6.74	240	M	M	M	NA	NA	976.5	NA	NA		M	NA	NA	NA	NA
2019/11/02 17:03:00	AWS2	6.19	241	6.74	240	M	M	M	NA	NA	976.0	NA	NA		M	NA	NA	NA	NA
2019/11/02 17:04:00	AWS2	5.75	243	6.74	240	M	M	M	NA	NA	977.2	NA	NA		M	NA	NA	NA	NA
2019/11/02 17:05:00	AWS2	5.66	241	6.74	240	M	M	M	NA	NA	976.8	NA	NA		M	NA	NA	NA	NA
2019/11/02 17:06:00	AWS2	5.96	240	6.74	240	M	M	M	NA	NA	976.6	NA	NA		M	NA	NA	NA	NA
2019/11/02 17:07:00	AWS2	5.84	241	6.74	240	M	M	M	NA	NA	976.9	NA	NA		M	NA	NA	NA	NA
2019/11/02 17:08:00	AWS2	5.38	243	6.74	240	M	M	M	NA	NA	976.7	NA	NA		M	NA	NA	NA	NA
2019/11/02 17:09:00	AWS2	5.14	241	6.74	240	M	M	M	NA	NA	977.1	NA	NA		M	NA	NA	NA	NA
2019/11/02 17:10:00	AWS2	5.29	238	6.74	240	M	M	M	NA	NA	977.1	NA	NA		M	NA	NA	NA	NA
2019/11/02 17:11:00	AWS2	5.43	238	6.58	240	M	M	M	NA	NA	977.0	NA	NA		M	NA	NA	NA	NA
2019/11/02 17:12:00	AWS2	5.68	237	6.58	240	M	M	M	NA	NA	976.8	NA	NA		M	NA	NA	NA	NA
2019/11/02 17:13:00	AWS2	5.67	238	6.58	240	M	M	M	NA	NA	977.0	NA	NA		M	NA	NA	NA	NA
2019/11/02 17:14:00	AWS2	5.43	242	6.58	240	M	M	M	NA	NA	977.1	NA	NA		M	NA	NA	NA	NA
2019/11/02 17:15:00	AWS2	5.45	245	6.58	240	M	M	M	NA	NA	977.3	NA	NA		M	NA	NA	NA	NA
2019/11/02 17:16:00	AWS2	5.86	244	6.53	244	M	M	M	NA	NA	976.9	NA	NA		M	NA	NA	NA	NA
2019/11/02 17:17:00	AWS2	6.21	241	6.69	240	M	M	M	NA	NA	976.9	NA	NA		M	NA	NA	NA	NA
2019/11/02 17:18:00	AWS2	6.10	240	6.69	240	M	M	M	NA	NA	976.8	NA	NA		M	NA	NA	NA	NA
2019/11/02 17:19:00	AWS2	5.73	242	6.69	240	M	M	M	NA	NA	976.6	NA	NA		M	NA	NA	NA	NA
2019/11/02 17:20:00	AWS2	5.43	245	6.69	240	M	M	M	NA	NA	977.2	NA	NA		M	NA	NA	NA	NA
2019/11/02 17:21:00	AWS2	5.41	248	6.69	240	M	M	M	NA	NA	977.1	NA	NA		M	NA	NA	NA	NA
2019/11/02 17:22:00	AWS2	5.13	250	6.69	240	M	M	M	NA	NA	976.8	NA	NA		M	NA	NA	NA	NA
2019/11/02 17:23:00	AWS2	5.34	248	6.69	240	M	M	M	NA	NA	975.9	NA	NA		M	NA	NA	NA	NA
2019/11/02 17:24:00	AWS2	6.05	241	6.74	238	M	M	M	NA	NA	977.1	NA	NA		M	NA	NA	NA	NA
2019/11/02 17:25:00	AWS2	6.09	239	6.74	238	M	M	M	NA	NA	976.8	NA	NA		M	NA	NA	NA	NA
2019/11/02 17:26:00	AWS2	5.68	242	6.74	238	M	M	M	NA	NA	976.1	NA	NA		M	NA	NA	NA	NA
2019/11/02 17:27:00	AWS2	5.37	245	6.74	238	M	M	M	NA	NA	976.5	NA	NA		M	NA	NA	NA	NA
2019/11/02 17:28:00	AWS2	5.77	244	6.74	238	M	M	M	NA	NA	976.4	NA	NA		M	NA	NA	NA	NA
2019/11/02 17:29:00	AWS2	5.95	240	6.74	238	M	M	M	NA	NA	976.7	NA	NA		M	NA	NA	NA	NA
2019/11/02 17:30:00	AWS2	5.75	238	6.74	238	M	M	M	NA	NA	976.6	NA	NA		M	NA	NA	NA	NA
2019/11/02 17:31:00	AWS2	5.54	237	6.74	238	M	M	M	NA	NA	976.6	NA	NA		M	NA	NA	NA	NA
2019/11/02 17:32:00	AWS2	5.28	237	6.74	238	M	M	M	NA	NA	976.8	NA	NA		M	NA	NA	NA	NA
2019/11/02 17:33:00	AWS2	5.62	238	6.74	238	M	M	M	NA	NA	976.9	NA	NA		M	NA	NA	NA	NA
2019/11/02 17:34:00	AWS2	5.94	239	6.58	242	M	M	M	NA	NA	976.7	NA	NA		M	NA	NA	NA	NA
2019/11/02 17:35:00	AWS2	5.84	239	6.58	242	M	M	M	NA	NA	976.7	NA	NA		M	NA	NA	NA	NA
2019/11/02 17:36:00	AWS2	5.55	239	6.58	242	M	M	M	NA	NA	976.0	NA	NA		M	NA	NA	NA	NA
2019/11/02 17:37:00	AWS2	5.57	239	6.58	242	M	M	M	NA	NA	976.4	NA	NA		M	NA	NA	NA	NA
2019/11/02 17:38:00	AWS2	5.86	236	6.28	239	M	M	M	NA	NA	976.7	NA	NA		M	NA	NA	NA	NA
2019/11/02 17:39:00	AWS2	5.84	234	6.28	239	M	M	M	NA	NA	976.7	NA	NA		M	NA	NA	NA	NA
2019/11/02 17:40:00	AWS2	5.63	235	6.28	239	M	M	M	NA	NA	976.8	NA	NA		M	NA	NA	NA	NA
2019/11/02 17:41:00	AWS2	5.61	234	6.28	239	M	M	M	NA	NA	976.6	NA	NA		M	NA	NA	NA	NA
2019/11/02 17:42:00	AWS2	5.62	231	6.28	239	M	M	M	NA	NA	976.4	NA	NA		M	NA	NA	NA	NA
2019/11/02 17:43:00	AWS2	5.29	231	6.28	239	M	M	M	NA	NA	976.6	NA	NA		M	NA	NA	NA	NA
2019/11/02 17:44:00	AWS2	5.08	235	6.28	239	M	M	M	NA	NA	976.7	NA	NA		M	NA	NA	NA	NA
2019/11/02 17:45:00	AWS2	5.12	235	6.28	239	M	M	M	NA	NA	976.6	NA	NA		M	NA	NA	NA	NA
2019/11/02 17:46:00	AWS2	5.00	232	6.28	239	M	M	M	NA	NA	976.9	NA	NA		M	NA	NA	NA	NA
2019/11/02 17:47:00	AWS2	5.07	233	6.28	239	M	M	M	NA	NA	976.3	NA	NA		M	NA	NA	NA	NA
2019/11/02 17:48:00	AWS2	5.32	234	6.17	227	M	M	M	NA	NA	976.6	NA	NA		M	NA	NA	NA	NA
2019/11/02 17:49:00	AWS2	5.59	235	6.28	240	M	M	M	NA	NA	976.2	NA	NA		M	NA	NA	NA	NA
2019/11/02 17:50:00	AWS2	5.81	235	6.28	240	M	M	M	NA	NA	976.2	NA	NA		M	NA	NA	NA	NA
2019/11/02 17:51:00	AWS2	5.61	235	6.28	240	M	M	M	NA	NA	976.2	NA	NA		M	NA	NA	NA	NA
2019/11/02 17:52:00	AWS2	5.38	236	6.28	240	M	M	M	NA	NA	976.4	NA	NA		M	NA	NA	NA	NA
2019/11/02 17:53:00	AWS2	5.30	234	6.28	240	M	M	M	NA	NA	976.0	NA	NA		M	NA	NA	NA	NA
2019/11/02 17:54:00	AWS2	5.27	233	6.28	240	M	M	M	NA	NA	975.9	NA	NA		M	NA	NA	NA	NA
2019/11/02 17:55:00	AWS2	5.25	235	6.28	240	M	M	M	NA	NA	976.6	NA	NA		M	NA	NA	NA	NA
2019/11/02 17:56:00	AWS2	5.32	237	6.28	240	M	M	M	NA	NA	976.2	NA	NA		M	NA	NA	NA	NA
2019/11/02 17:57:00	AWS2	5.46	238	6.28	240	M	M	M	NA	NA	975.9	NA	NA		M	NA	NA	NA	NA
2019/11/02 17:58:00	AWS2	5.43	237	6.28	240	M	M	M	NA	NA	976.4	NA	NA		M	NA	NA	NA	NA
2019/11/02 17:59:00	AWS2	5.47	234	6.28	240	M	M	M	NA	NA	976.1	NA	NA		M	NA	NA	NA	NA
2019/11/02 18:00:00	AWS2	5.53	233	6.28	240	M	M	M	NA	NA	976.2	NA	NA		M	NA	NA	NA	NA
2019/11/02 18:01:00	AWS2	5.49	235	6.28	240	M	M	M	NA	NA	976.0	NA	NA		M	NA	NA	NA	NA
2019/11/02 18:02:00	AWS2	5.39	237	6.28	240	M	M	M	NA	NA	976.1	NA	NA		M	NA	NA	NA	NA
2019/11/02 18:03:00	AWS2	5.24	240	6.28	240	M	M	M	NA	NA	976.4	NA	NA		M	NA	NA	NA	NA
2019/11/02 18:04:00	AWS2	5.49	241	6.28	240	M	M	M	NA	NA	976.2	NA	NA		M	NA	NA	NA	NA
2019/11/02 18:05:00	AWS2	5.52	240	6.12	243	M	M	M	NA	NA	976.1	NA	NA		M	NA	NA	NA	NA
2019/11/02 18:06:00	AWS2	5.00	240	6.12	243	M	M	M	NA	NA	975.6	NA	NA		M	NA	NA	NA	NA
2019/11/02 18:07:00	AWS2	4.70	244	6.12	243	M	M	M	NA	NA	976.1	NA	NA		M	NA	NA	NA	NA
2019/11/02 18:08:00	AWS2	5.22	243	6.12	243	M	M	M	NA	NA	975.6	NA	NA		M	NA	NA	NA	NA
2019/11/02 18:09:00	AWS2	5.62	239	6.12	243	M	M	M	NA	NA	975.7	NA	NA		M	NA	NA	NA	NA
2019/11/02 18:10:00	AWS2	5.51	239	6.12	243	M	M	M	NA	NA	975.9	NA	NA		M	NA	NA	NA	NA
2019/11/02 18:11:00	AWS2	5.58	239	6.12	243	M	M	M	NA	NA	975.7	NA	NA		M	NA	NA	NA	NA
2019/11/02 18:12:00	AWS2	5.22	239	6.12	243	M	M	M	NA	NA	975.1	NA	NA		M	NA	NA	NA	NA
2019/11/02 18:13:00	AWS2	5.25	237	6.12	243	M	M	M	NA	NA	975.5	NA	NA		M	NA	NA	NA	NA
2019/11/02 18:14:00	AWS2	5.49	234	6.12	243	M	M	M	NA	NA	975.5	NA	NA		M	NA	NA	NA	NA
2019/11/02 18:15:00	AWS2	5.24	233	6.12	243	M	M	M	NA	NA	975.9	NA	NA		M	NA	NA	NA	NA
2019/11/02 18:16:00	AWS2	5.25	238	6.12	243	M	M	M	NA	NA	975.8	NA	NA		M	NA	NA	NA	NA
2019/11/02 18:17:00	AWS2	5.53	242	6.12	243	M	M	M	NA	NA	975.5	NA	NA		M	NA	NA	NA	NA
2019/11/02 18:18:00	AWS2	5.48	240	5.97	240	M	M	M	NA	NA	975.3	NA	NA		M	NA	NA	NA	NA
2019/11/02 18:19:00	AWS2	5.12	239	5.97	240	M	M	M	NA	NA	975.3	NA	NA		M	NA	NA	NA	NA
2019/11/02 18:20:00	AWS2	5.08	239	5.97	240	M	M	M	NA	NA	976.3	NA	NA		M	NA	NA	NA	NA
2019/11/02 18:21:00	AWS2	5.18	238	5.97	240	M	M	M	NA	NA	975.4	NA	NA		M	NA	NA	NA	NA
2019/11/02 18:22:00	AWS2	5.16	235	5.97	240	M	M	M	NA	NA	975.4	NA	NA		M	NA	NA	NA	NA
2019/11/02 18:23:00	AWS2	4.93	235	5.97	240	M	M	M	NA	NA	975.1	NA	NA		M	NA	NA	NA	NA
2019/11/02 18:24:00	AWS2	4.75	234	5.97	240	M	M	M	NA	NA	975.6	NA	NA		M	NA	NA	NA	NA
2019/11/02 18:25:00	AWS2	5.02	229	5.97	240	M	M	M	NA	NA	976.1	NA	NA		M	NA	NA	NA	NA
2019/11/02 18:26:00	AWS2	4.95	225	5.97	240	M	M	M	NA	NA	975.3	NA	NA		M	NA	NA	NA	NA
2019/11/02 18:27:00	AWS2	4.52	224	5.71	236	M	M	M	NA	NA	975.3	NA	NA		M	NA	NA	NA	NA
2019/11/02 18:28:00	AWS2	4.71	227	5.71	236	M	M	M	NA	NA	975.7	NA	NA		M	NA	NA	NA	NA
2019/11/02 18:29:00	AWS2	5.04	230	5.71	236	M	M	M	NA	NA	975.3	NA	NA		M	NA	NA	NA	NA
2019/11/02 18:30:00	AWS2	4.93	230	5.71	236	M	M	M	NA	NA	975.6	NA	NA		M	NA	NA	NA	NA
2019/11/02 18:31:00	AWS2	4.89	232	5.71	236	M	M	M	NA	NA	975.5	NA	NA		M	NA	NA	NA	NA
2019/11/02 18:32:00	AWS2	4.96	234	5.56	224	M	M	M	NA	NA	975.3	NA	NA		M	NA	NA	NA	NA
2019/11/02 18:33:00	AWS2	5.01	235	5.56	224	M	M	M	NA	NA	975.6	NA	NA		M	NA	NA	NA	NA
2019/11/02 18:34:00	AWS2	4.94	234	5.56	224	M	M	M	NA	NA	975.4	NA	NA		M	NA	NA	NA	NA
2019/11/02 18:35:00	AWS2	4.96	232	5.40	231	M	M	M	NA	NA	975.9	NA	NA		M	NA	NA	NA	NA
2019/11/02 18:36:00	AWS2	4.87	229	5.40	231	M	M	M	NA	NA	975.8	NA	NA		M	NA	NA	NA	NA
2019/11/02 18:37:00	AWS2	4.85	229	5.40	231	M	M	M	NA	NA	976.1	NA	NA		M	NA	NA	NA	NA
2019/11/02 18:38:00	AWS2	4.88	233	5.40	231	M	M	M	NA	NA	975.7	NA	NA		M	NA	NA	NA	NA
2019/11/02 18:39:00	AWS2	4.67	234	5.40	231	M	M	M	NA	NA	975.6	NA	NA		M	NA	NA	NA	NA
2019/11/02 18:40:00	AWS2	4.53	232	5.40	231	M	M	M	NA	NA	975.7	NA	NA		M	NA	NA	NA	NA
2019/11/02 18:41:00	AWS2	4.34	229	5.40	231	M	M	M	NA	NA	976.0	NA	NA		M	NA	NA	NA	NA
2019/11/02 18:42:00	AWS2	4.29	230	5.40	231	M	M	M	NA	NA	975.9	NA	NA		M	NA	NA	NA	NA
2019/11/02 18:43:00	AWS2	4.45	231	5.40	231	M	M	M	NA	NA	975.7	NA	NA		M	NA	NA	NA	NA
2019/11/02 18:44:00	AWS2	4.59	231	5.40	231	M	M	M	NA	NA	975.8	NA	NA		M	NA	NA	NA	NA
2019/11/02 18:45:00	AWS2	4.24	231	5.30	235	M	M	M	NA	NA	975.9	NA	NA		M	NA	NA	NA	NA
2019/11/02 18:46:00	AWS2	4.24	235	5.30	235	M	M	M	NA	NA	975.6	NA	NA		M	NA	NA	NA	NA
2019/11/02 18:47:00	AWS2	4.62	239	5.20	236	M	M	M	NA	NA	975.8	NA	NA		M	NA	NA	NA	NA
2019/11/02 18:48:00	AWS2	4.69	240	5.04	232	M	M	M	NA	NA	976.2	NA	NA		M	NA	NA	NA	NA
2019/11/02 18:49:00	AWS2	4.72	241	5.04	232	M	M	M	NA	NA	975.6	NA	NA		M	NA	NA	NA	NA
2019/11/02 18:50:00	AWS2	4.49	239	5.04	232	M	M	M	NA	NA	975.8	NA	NA		M	NA	NA	NA	NA
2019/11/02 18:51:00	AWS2	4.48	238	5.04	232	M	M	M	NA	NA	975.7	NA	NA		M	NA	NA	NA	NA
2019/11/02 18:52:00	AWS2	4.67	237	5.04	232	M	M	M	NA	NA	975.1	NA	NA		M	NA	NA	NA	NA
2019/11/02 18:53:00	AWS2	4.59	234	5.04	232	M	M	M	NA	NA	975.7	NA	NA		M	NA	NA	NA	NA
2019/11/02 18:54:00	AWS2	4.44	232	4.99	237	M	M	M	NA	NA	975.9	NA	NA		M	NA	NA	NA	NA
2019/11/02 18:55:00	AWS2	4.40	231	4.99	237	M	M	M	NA	NA	975.3	NA	NA		M	NA	NA	NA	NA
2019/11/02 18:56:00	AWS2	4.30	232	4.99	237	M	M	M	NA	NA	975.9	NA	NA		M	NA	NA	NA	NA
2019/11/02 18:57:00	AWS2	4.29	233	4.99	237	M	M	M	NA	NA	975.3	NA	NA		M	NA	NA	NA	NA
2019/11/02 18:58:00	AWS2	4.13	234	4.99	237	M	M	M	NA	NA	975.1	NA	NA		M	NA	NA	NA	NA
2019/11/02 18:59:00	AWS2	4.05	231	4.99	237	M	M	M	NA	NA	975.5	NA	NA		M	NA	NA	NA	NA
2019/11/02 19:00:01	AWS2	4.08	226	4.99	237	M	M	M	NA	NA	975.7	NA	NA		M	NA	NA	NA	NA
2019/11/02 19:01:00	AWS2	3.84	229	4.99	237	M	M	M	NA	NA	975.1	NA	NA		M	NA	NA	NA	NA
2019/11/02 19:02:00	AWS2	3.83	234	4.78	234	M	M	M	NA	NA	975.0	NA	NA		M	NA	NA	NA	NA
2019/11/02 19:03:00	AWS2	4.04	237	4.78	234	M	M	M	NA	NA	975.4	NA	NA		M	NA	NA	NA	NA
2019/11/02 19:04:00	AWS2	4.16	238	4.68	228	M	M	M	NA	NA	974.9	NA	NA		M	NA	NA	NA	NA
2019/11/02 19:05:01	AWS2	3.94	237	4.63	235	M	M	M	NA	NA	975.1	NA	NA		M	NA	NA	NA	NA
2019/11/02 19:06:00	AWS2	3.93	235	4.63	235	M	M	M	NA	NA	975.0	NA	NA		M	NA	NA	NA	NA
2019/11/02 19:07:00	AWS2	4.11	232	4.58	239	M	M	M	NA	NA	975.5	NA	NA		M	NA	NA	NA	NA
2019/11/02 19:08:00	AWS2	3.76	229	4.58	239	M	M	M	NA	NA	975.4	NA	NA		M	NA	NA	NA	NA
2019/11/02 19:09:00	AWS2	3.55	228	4.58	239	M	M	M	NA	NA	975.6	NA	NA		M	NA	NA	NA	NA
2019/11/02 19:10:00	AWS2	3.60	228	4.58	239	M	M	M	NA	NA	975.1	NA	NA		M	NA	NA	NA	NA
2019/11/02 19:11:00	AWS2	3.51	229	4.58	239	M	M	M	NA	NA	975.3	NA	NA		M	NA	NA	NA	NA
2019/11/02 19:12:00	AWS2	3.66	229	4.58	239	M	M	M	NA	NA	975.1	NA	NA		M	NA	NA	NA	NA
2019/11/02 19:13:00	AWS2	3.70	233	4.48	231	M	M	M	NA	NA	975.3	NA	NA		M	NA	NA	NA	NA
2019/11/02 19:14:00	AWS2	3.79	237	4.53	242	M	M	M	NA	NA	975.4	NA	NA		M	NA	NA	NA	NA
2019/11/02 19:15:00	AWS2	3.64	235	4.53	242	M	M	M	NA	NA	974.9	NA	NA		M	NA	NA	NA	NA
2019/11/02 19:16:00	AWS2	3.16	231	4.53	242	M	M	M	NA	NA	975.1	NA	NA		M	NA	NA	NA	NA
2019/11/02 19:17:00	AWS2	3.24	232	4.53	242	M	M	M	NA	NA	974.9	NA	NA		M	NA	NA	NA	NA
2019/11/02 19:18:00	AWS2	3.42	234	4.53	242	M	M	M	NA	NA	974.9	NA	NA		M	NA	NA	NA	NA
2019/11/02 19:19:00	AWS2	3.31	235	4.53	242	M	M	M	NA	NA	975.0	NA	NA		M	NA	NA	NA	NA
2019/11/02 19:20:00	AWS2	3.36	234	4.53	242	M	M	M	NA	NA	974.8	NA	NA		M	NA	NA	NA	NA
2019/11/02 19:21:00	AWS2	3.38	229	4.53	242	M	M	M	NA	NA	974.9	NA	NA		M	NA	NA	NA	NA
2019/11/02 19:22:00	AWS2	3.46	229	4.53	242	M	M	M	NA	NA	974.6	NA	NA		M	NA	NA	NA	NA
2019/11/02 19:23:00	AWS2	3.49	232	4.53	242	M	M	M	NA	NA	975.2	NA	NA		M	NA	NA	NA	NA
2019/11/02 19:24:00	AWS2	3.02	233	3.86	235	M	M	M	NA	NA	975.0	NA	NA		M	NA	NA	NA	NA
2019/11/02 19:25:00	AWS2	2.83	233	3.81	229	M	M	M	NA	NA	974.7	NA	NA		M	NA	NA	NA	NA
2019/11/02 19:26:00	AWS2	2.92	236	3.81	229	M	M	M	NA	NA	974.7	NA	NA		M	NA	NA	NA	NA
2019/11/02 19:27:00	AWS2	2.88	240	3.81	229	M	M	M	NA	NA	975.3	NA	NA		M	NA	NA	NA	NA
2019/11/02 19:28:00	AWS2	3.05	243	3.81	229	M	M	M	NA	NA	974.7	NA	NA		M	NA	NA	NA	NA
2019/11/02 19:29:00	AWS2	3.24	245	3.81	229	M	M	M	NA	NA	974.8	NA	NA		M	NA	NA	NA	NA
2019/11/02 19:30:00	AWS2	3.26	243	3.81	229	M	M	M	NA	NA	975.1	NA	NA		M	NA	NA	NA	NA
2019/11/02 19:31:00	AWS2	3.13	243	3.81	229	M	M	M	NA	NA	974.8	NA	NA		M	NA	NA	NA	NA
2019/11/02 19:32:00	AWS2	2.78	249	3.76	247	M	M	M	NA	NA	975.0	NA	NA		M	NA	NA	NA	NA
2019/11/02 19:33:00	AWS2	2.56	255	3.76	247	M	M	M	NA	NA	974.8	NA	NA		M	NA	NA	NA	NA
2019/11/02 19:34:00	AWS2	2.66	248	3.76	247	M	M	M	NA	NA	974.6	NA	NA		M	NA	NA	NA	NA
2019/11/02 19:35:00	AWS2	2.91	231	3.76	247	M	M	M	NA	NA	974.5	NA	NA		M	NA	NA	NA	NA
2019/11/02 19:36:00	AWS2	2.83	220	3.76	247	M	M	M	NA	NA	974.7	NA	NA		M	NA	NA	NA	NA
2019/11/02 19:37:00	AWS2	2.46	224	3.76	247	M	M	M	NA	NA	974.6	NA	NA		M	NA	NA	NA	NA
2019/11/02 19:38:00	AWS2	2.00	237	3.70	238	M	M	M	NA	NA	974.5	NA	NA		M	NA	NA	NA	NA
2019/11/02 19:39:00	AWS2	1.64	249	3.70	238	M	M	M	NA	NA	974.8	NA	NA		M	NA	NA	NA	NA
2019/11/02 19:40:00	AWS2	1.86	253	3.34	245	M	M	M	NA	NA	974.6	NA	NA		M	NA	NA	NA	NA
2019/11/02 19:41:00	AWS2	2.04	253	3.34	245	M	M	M	NA	NA	974.0	NA	NA		M	NA	NA	NA	NA
2019/11/02 19:42:00	AWS2	1.73	252	3.34	245	M	M	M	NA	NA	974.8	NA	NA		M	NA	NA	NA	NA
2019/11/02 19:43:00	AWS2	1.71	252	3.34	245	M	M	M	NA	NA	974.2	NA	NA		M	NA	NA	NA	NA
2019/11/02 19:44:00	AWS2	1.83	253	3.24	221	M	M	M	NA	NA	974.6	NA	NA		M	NA	NA	NA	NA
2019/11/02 19:45:00	AWS2	1.73	249	2.98	211	M	M	M	NA	NA	974.0	NA	NA		M	NA	NA	NA	NA
2019/11/02 19:46:00	AWS2	1.95	237	2.62	238	M	M	M	NA	NA	974.3	NA	NA		M	NA	NA	NA	NA
2019/11/02 19:47:00	AWS2	2.02	228	2.42	227	M	M	M	NA	NA	974.1	NA	NA		M	NA	NA	NA	NA
2019/11/02 19:48:00	AWS2	1.77	232	2.42	227	M	M	M	NA	NA	974.7	NA	NA		M	NA	NA	NA	NA
2019/11/02 19:49:00	AWS2	1.83	234	2.42	227	M	M	M	NA	NA	974.8	NA	NA		M	NA	NA	NA	NA
2019/11/02 19:50:00	AWS2	2.21	236	2.68	236	M	M	M	NA	NA	974.3	NA	NA		M	NA	NA	NA	NA
2019/11/02 19:51:00	AWS2	2.46	239	2.78	233	M	M	M	NA	NA	974.3	NA	NA		M	NA	NA	NA	NA
2019/11/02 19:52:00	AWS2	2.38	236	2.78	233	M	M	M	NA	NA	974.2	NA	NA		M	NA	NA	NA	NA
2019/11/02 19:53:00	AWS2	2.21	234	2.78	233	M	M	M	NA	NA	973.7	NA	NA		M	NA	NA	NA	NA
2019/11/02 19:54:00	AWS2	1.66	236	2.78	233	M	M	M	NA	NA	974.1	NA	NA		M	NA	NA	NA	NA
2019/11/02 19:55:00	AWS2	1.36	234	2.78	233	M	M	M	NA	NA	974.1	NA	NA		M	NA	NA	NA	NA
2019/11/02 19:56:00	AWS2	1.05	222	2.78	233	M	M	M	NA	NA	974.8	NA	NA		M	NA	NA	NA	NA
2019/11/02 19:57:00	AWS2	0.95	227	2.78	233	M	M	M	NA	NA	973.6	NA	NA		M	NA	NA	NA	NA
2019/11/02 19:58:00	AWS2	1.57	235	2.78	233	M	M	M	NA	NA	973.9	NA	NA		M	NA	NA	NA	NA
2019/11/02 19:59:00	AWS2	1.89	239	2.78	233	M	M	M	NA	NA	974.2	NA	NA		M	NA	NA	NA	NA
2019/11/02 20:00:00	AWS2	1.72	242	2.78	233	M	M	M	NA	NA	973.8	NA	NA		M	NA	NA	NA	NA
2019/11/02 20:01:00	AWS2	1.30	239	2.52	229	M	M	M	NA	NA	973.8	NA	NA		M	NA	NA	NA	NA
2019/11/02 20:02:00	AWS2	0.81	236	2.52	229	M	M	M	NA	NA	974.1	NA	NA		M	NA	NA	NA	NA
2019/11/02 20:03:00	AWS2	0.36	233	2.26	238	M	M	M	NA	NA	974.1	NA	NA		M	NA	NA	NA	NA
2019/11/02 20:04:00	AWS2	0.13	238	2.26	238	M	M	M	NA	NA	974.0	NA	NA		M	NA	NA	NA	NA
2019/11/02 20:05:00	AWS2	0.00	249	2.26	238	M	M	M	NA	NA	973.4	NA	NA		M	NA	NA	NA	NA
2019/11/02 20:06:00	AWS2	0.14	254	2.26	238	M	M	M	NA	NA	973.9	NA	NA		M	NA	NA	NA	NA
2019/11/02 20:07:00	AWS2	0.95	253	2.26	238	M	M	M	NA	NA	973.6	NA	NA		M	NA	NA	NA	NA
2019/11/02 20:08:00	AWS2	1.78	249	2.26	238	M	M	M	NA	NA	974.2	NA	NA		M	NA	NA	NA	NA
2019/11/02 20:09:00	AWS2	1.83	252	2.16	246	M	M	M	NA	NA	973.9	NA	NA		M	NA	NA	NA	NA
2019/11/02 20:10:00	AWS2	1.56	249	2.16	246	M	M	M	NA	NA	973.6	NA	NA		M	NA	NA	NA	NA
2019/11/02 20:11:00	AWS2	1.51	244	2.16	246	M	M	M	NA	NA	973.9	NA	NA		M	NA	NA	NA	NA
2019/11/02 20:12:00	AWS2	1.53	243	2.16	246	M	M	M	NA	NA	973.6	NA	NA		M	NA	NA	NA	NA
2019/11/02 20:13:00	AWS2	1.58	247	2.16	246	M	M	M	NA	NA	973.6	NA	NA		M	NA	NA	NA	NA
2019/11/02 20:14:00	AWS2	1.63	250	2.16	246	M	M	M	NA	NA	974.2	NA	NA		M	NA	NA	NA	NA
2019/11/02 20:15:00	AWS2	1.45	249	2.16	246	M	M	M	NA	NA	973.6	NA	NA		M	NA	NA	NA	NA
2019/11/02 20:16:00	AWS2	1.37	249	2.16	246	M	M	M	NA	NA	974.5	NA	NA		M	NA	NA	NA	NA
2019/11/02 20:17:00	AWS2	1.41	250	2.11	256	M	M	M	NA	NA	973.6	NA	NA		M	NA	NA	NA	NA
2019/11/02 20:18:00	AWS2	1.41	245	1.95	253	M	M	M	NA	NA	974.1	NA	NA		M	NA	NA	NA	NA
2019/11/02 20:19:00	AWS2	1.29	243	1.95	253	M	M	M	NA	NA	973.2	NA	NA		M	NA	NA	NA	NA
2019/11/02 20:20:00	AWS2	1.16	250	1.95	253	M	M	M	NA	NA	974.1	NA	NA		M	NA	NA	NA	NA
2019/11/02 20:21:00	AWS2	1.34	250	1.95	253	M	M	M	NA	NA	973.3	NA	NA		M	NA	NA	NA	NA
2019/11/02 20:22:00	AWS2	1.53	244	1.95	253	M	M	M	NA	NA	973.8	NA	NA		M	NA	NA	NA	NA
2019/11/02 20:23:00	AWS2	1.45	245	1.85	249	M	M	M	NA	NA	973.7	NA	NA		M	NA	NA	NA	NA
2019/11/02 20:24:00	AWS2	1.30	250	1.75	241	M	M	M	NA	NA	974.2	NA	NA		M	NA	NA	NA	NA
2019/11/02 20:25:00	AWS2	1.28	252	1.75	241	M	M	M	NA	NA	973.3	NA	NA		M	NA	NA	NA	NA
2019/11/02 20:26:00	AWS2	1.56	252	2.11	247	M	M	M	NA	NA	973.9	NA	NA		M	NA	NA	NA	NA
2019/11/02 20:27:00	AWS2	1.74	250	2.11	247	M	M	M	NA	NA	973.3	NA	NA		M	NA	NA	NA	NA
2019/11/02 20:28:00	AWS2	1.64	244	2.11	247	M	M	M	NA	NA	973.7	NA	NA		M	NA	NA	NA	NA
2019/11/02 20:29:00	AWS2	1.63	243	2.11	247	M	M	M	NA	NA	973.4	NA	NA		M	NA	NA	NA	NA
2019/11/02 20:30:00	AWS2	1.58	248	2.11	247	M	M	M	NA	NA	974.0	NA	NA		M	NA	NA	NA	NA
2019/11/02 20:31:00	AWS2	1.22	254	2.11	247	M	M	M	NA	NA	973.5	NA	NA		M	NA	NA	NA	NA
2019/11/02 20:32:00	AWS2	1.02	254	2.11	247	M	M	M	NA	NA	973.4	NA	NA		M	NA	NA	NA	NA
2019/11/02 20:33:00	AWS2	0.97	246	2.11	247	M	M	M	NA	NA	972.7	NA	NA		M	NA	NA	NA	NA
2019/11/02 20:34:00	AWS2	1.01	239	2.11	247	M	M	M	NA	NA	972.6	NA	NA		M	NA	NA	NA	NA
2019/11/02 20:35:00	AWS2	0.83	238	2.11	247	M	M	M	NA	NA	973.0	NA	NA		M	NA	NA	NA	NA
2019/11/02 20:36:00	AWS2	0.77	237	1.85	255	M	M	M	NA	NA	973.4	NA	NA		M	NA	NA	NA	NA
2019/11/02 20:37:00	AWS2	0.64	236	1.75	242	M	M	M	NA	NA	973.4	NA	NA		M	NA	NA	NA	NA
2019/11/02 20:38:00	AWS2	0.09	231	1.75	242	M	M	M	NA	NA	973.6	NA	NA		M	NA	NA	NA	NA
2019/11/02 20:39:00	AWS2	0.00	225	1.70	257	M	M	M	NA	NA	973.5	NA	NA		M	NA	NA	NA	NA
2019/11/02 20:40:00	AWS2	0.00	227	1.54	249	M	M	M	NA	NA	973.6	NA	NA		M	NA	NA	NA	NA
2019/11/02 20:41:00	AWS2	0.00	228	1.54	249	M	M	M	NA	NA	972.9	NA	NA		M	NA	NA	NA	NA
2019/11/02 20:42:00	AWS2	0.00	231	1.49	235	M	M	M	NA	NA	973.6	NA	NA		M	NA	NA	NA	NA
2019/11/02 20:43:00	AWS2	0.00	229	1.49	235	M	M	M	NA	NA	973.5	NA	NA		M	NA	NA	NA	NA
2019/11/02 20:44:00	AWS2	0.00	210	1.18	231	M	M	M	NA	NA	973.0	NA	NA		M	NA	NA	NA	NA
2019/11/02 20:45:00	AWS2	0.00	193	1.18	231	M	M	M	NA	NA	973.9	NA	NA		M	NA	NA	NA	NA
2019/11/02 20:46:00	AWS2	0.00	191	1.08	236	M	M	M	NA	NA	972.9	NA	NA		M	NA	NA	NA	NA
2019/11/02 20:47:00	AWS2	0.00	199	M	M	M	M	M	NA	NA	972.7	NA	NA		M	NA	NA	NA	NA
2019/11/02 20:48:00	AWS2	0.00	208	M	M	M	M	M	NA	NA	972.5	NA	NA		M	NA	NA	NA	NA
2019/11/02 20:49:00	AWS2	0.00	210	M	M	M	M	M	NA	NA	972.6	NA	NA		M	NA	NA	NA	NA
2019/11/02 20:50:00	AWS2	0.00	210	M	M	M	M	M	NA	NA	972.2	NA	NA		M	NA	NA	NA	NA
2019/11/02 20:51:00	AWS2	0.00	210	M	M	M	M	M	NA	NA	972.8	NA	NA		M	NA	NA	NA	NA
2019/11/02 20:52:00	AWS2	0.00	210	M	M	M	M	M	NA	NA	972.9	NA	NA		M	NA	NA	NA	NA
2019/11/02 20:53:00	AWS2	0.00	209	M	M	M	M	M	NA	NA	972.3	NA	NA		M	NA	NA	NA	NA
2019/11/02 20:54:00	AWS2	0.00	201	M	M	M	M	M	NA	NA	972.8	NA	NA		M	NA	NA	NA	NA
2019/11/02 20:55:00	AWS2	0.00	196	M	M	M	M	M	NA	NA	972.9	NA	NA		M	NA	NA	NA	NA
2019/11/02 20:56:00	AWS2	0.00	193	M	M	M	M	M	NA	NA	972.9	NA	NA		M	NA	NA	NA	NA
2019/11/02 20:57:00	AWS2	0.00	189	M	M	M	M	M	NA	NA	972.7	NA	NA		M	NA	NA	NA	NA
2019/11/02 20:58:00	AWS2	0.00	189	M	M	M	M	M	NA	NA	973.1	NA	NA		M	NA	NA	NA	NA
2019/11/02 20:59:00	AWS2	0.00	189	M	M	M	M	M	NA	NA	972.8	NA	NA		M	NA	NA	NA	NA
2019/11/02 21:00:00	AWS2	0.00	189	M	M	M	M	M	NA	NA	972.8	NA	NA		M	NA	NA	NA	NA
2019/11/02 21:01:00	AWS2	0.00	189	M	M	M	M	M	NA	NA	973.0	NA	NA		M	NA	NA	NA	NA
2019/11/02 21:02:00	AWS2	0.00	211	M	M	M	M	M	NA	NA	973.2	NA	NA		M	NA	NA	NA	NA
2019/11/02 21:03:00	AWS2	0.00	250	M	M	M	M	M	NA	NA	972.8	NA	NA		M	NA	NA	NA	NA
2019/11/02 21:04:00	AWS2	0.00	263	M	M	M	M	M	NA	NA	973.5	NA	NA		M	NA	NA	NA	NA
2019/11/02 21:05:00	AWS2	0.00	263	M	M	M	M	M	NA	NA	973.6	NA	NA		M	NA	NA	NA	NA
2019/11/02 21:06:00	AWS2	0.00	261	M	M	M	M	M	NA	NA	973.5	NA	NA		M	NA	NA	NA	NA
2019/11/02 21:07:00	AWS2	0.00	260	M	M	M	M	M	NA	NA	973.2	NA	NA		M	NA	NA	NA	NA
2019/11/02 21:08:00	AWS2	0.00	261	M	M	M	M	M	NA	NA	972.9	NA	NA		M	NA	NA	NA	NA
2019/11/02 21:09:00	AWS2	0.00	260	M	M	M	M	M	NA	NA	973.0	NA	NA		M	NA	NA	NA	NA
2019/11/02 21:10:00	AWS2	0.00	254	M	M	M	M	M	NA	NA	972.9	NA	NA		M	NA	NA	NA	NA
2019/11/02 21:11:00	AWS2	0.00	249	M	M	M	M	M	NA	NA	972.8	NA	NA		M	NA	NA	NA	NA
2019/11/02 21:12:00	AWS2	0.00	249	M	M	M	M	M	NA	NA	973.1	NA	NA		M	NA	NA	NA	NA
2019/11/02 21:13:00	AWS2	0.00	248	M	M	M	M	M	NA	NA	972.4	NA	NA		M	NA	NA	NA	NA
2019/11/02 21:14:00	AWS2	0.00	248	M	M	M	M	M	NA	NA	972.6	NA	NA		M	NA	NA	NA	NA
2019/11/02 21:15:00	AWS2	0.00	248	M	M	M	M	M	NA	NA	972.7	NA	NA		M	NA	NA	NA	NA
2019/11/02 21:16:00	AWS2	0.00	235	M	M	M	M	M	NA	NA	972.4	NA	NA		M	NA	NA	NA	NA
2019/11/02 21:17:00	AWS2	0.00	215	M	M	M	M	M	NA	NA	973.2	NA	NA		M	NA	NA	NA	NA
2019/11/02 21:18:00	AWS2	0.00	208	M	M	M	M	M	NA	NA	972.8	NA	NA		M	NA	NA	NA	NA
2019/11/02 21:19:00	AWS2	0.00	208	M	M	M	M	M	NA	NA	972.8	NA	NA		M	NA	NA	NA	NA
2019/11/02 21:20:00	AWS2	0.00	208	M	M	M	M	M	NA	NA	972.7	NA	NA		M	NA	NA	NA	NA
2019/11/02 21:21:00	AWS2	0.00	208	M	M	M	M	M	NA	NA	973.0	NA	NA		M	NA	NA	NA	NA
2019/11/02 21:22:00	AWS2	0.00	206	M	M	M	M	M	NA	NA	972.6	NA	NA		M	NA	NA	NA	NA
2019/11/02 21:23:00	AWS2	0.00	197	M	M	M	M	M	NA	NA	972.7	NA	NA		M	NA	NA	NA	NA
2019/11/02 21:24:00	AWS2	0.00	188	M	M	M	M	M	NA	NA	972.7	NA	NA		M	NA	NA	NA	NA
2019/11/02 21:25:00	AWS2	0.00	185	M	M	M	M	M	NA	NA	973.0	NA	NA		M	NA	NA	NA	NA
2019/11/02 21:26:00	AWS2	0.39	185	1.29	187	M	M	M	NA	NA	972.6	NA	NA		M	NA	NA	NA	NA
2019/11/02 21:27:00	AWS2	0.97	185	1.29	188	M	M	M	NA	NA	972.7	NA	NA		M	NA	NA	NA	NA
2019/11/02 21:28:00	AWS2	1.30	187	1.54	186	M	M	M	NA	NA	973.0	NA	NA		M	NA	NA	NA	NA
2019/11/02 21:29:00	AWS2	1.50	196	1.75	204	M	M	M	NA	NA	972.8	NA	NA		M	NA	NA	NA	NA
2019/11/02 21:30:00	AWS2	1.57	207	2.01	212	M	M	M	NA	NA	972.5	NA	NA		M	NA	NA	NA	NA
2019/11/02 21:31:00	AWS2	1.73	207	2.06	195	M	M	M	NA	NA	973.2	NA	NA		M	NA	NA	NA	NA
2019/11/02 21:32:00	AWS2	1.75	196	2.06	195	M	M	M	NA	NA	972.6	NA	NA		M	NA	NA	NA	NA
2019/11/02 21:33:00	AWS2	1.63	189	2.06	195	M	M	M	NA	NA	972.7	NA	NA		M	NA	NA	NA	NA
2019/11/02 21:34:00	AWS2	1.57	183	2.06	195	M	M	M	NA	NA	972.9	NA	NA		M	NA	NA	NA	NA
2019/11/02 21:35:00	AWS2	1.44	177	2.06	195	M	M	M	NA	NA	972.5	NA	NA		M	NA	NA	NA	NA
2019/11/02 21:36:00	AWS2	1.31	177	2.06	195	M	M	M	NA	NA	972.8	NA	NA		M	NA	NA	NA	NA
2019/11/02 21:37:00	AWS2	1.23	178	2.06	195	M	M	M	NA	NA	972.4	NA	NA		M	NA	NA	NA	NA
2019/11/02 21:38:00	AWS2	1.24	171	2.06	195	M	M	M	NA	NA	973.0	NA	NA		M	NA	NA	NA	NA
2019/11/02 21:39:00	AWS2	1.31	166	2.06	195	M	M	M	NA	NA	972.1	NA	NA		M	NA	NA	NA	NA
2019/11/02 21:40:00	AWS2	1.34	163	2.06	195	M	M	M	NA	NA	972.7	NA	NA		M	NA	NA	NA	NA
2019/11/02 21:41:00	AWS2	1.02	160	1.95	194	M	M	M	NA	NA	972.7	NA	NA		M	NA	NA	NA	NA
2019/11/02 21:42:00	AWS2	0.80	158	1.75	188	M	M	M	NA	NA	972.2	NA	NA		M	NA	NA	NA	NA
2019/11/02 21:43:00	AWS2	1.05	157	1.65	178	M	M	M	NA	NA	972.8	NA	NA		M	NA	NA	NA	NA
2019/11/02 21:44:00	AWS2	1.03	153	1.59	162	M	M	M	NA	NA	972.7	NA	NA		M	NA	NA	NA	NA
2019/11/02 21:45:00	AWS2	0.90	144	1.59	162	M	M	M	NA	NA	973.1	NA	NA		M	NA	NA	NA	NA
2019/11/02 21:46:00	AWS2	1.11	140	1.59	162	M	M	M	NA	NA	973.1	NA	NA		M	NA	NA	NA	NA
2019/11/02 21:47:00	AWS2	1.27	145	1.59	162	M	M	M	NA	NA	972.8	NA	NA		M	NA	NA	NA	NA
2019/11/02 21:48:00	AWS2	1.10	151	1.49	158	M	M	M	NA	NA	972.8	NA	NA		M	NA	NA	NA	NA
2019/11/02 21:49:00	AWS2	0.67	149	1.49	158	M	M	M	NA	NA	973.0	NA	NA		M	NA	NA	NA	NA
2019/11/02 21:50:01	AWS2	0.32	144	1.39	153	M	M	M	NA	NA	973.0	NA	NA		M	NA	NA	NA	NA
2019/11/02 21:51:00	AWS2	0.53	138	1.39	129	M	M	M	NA	NA	973.0	NA	NA		M	NA	NA	NA	NA
2019/11/02 21:52:00	AWS2	0.51	136	1.39	129	M	M	M	NA	NA	972.8	NA	NA		M	NA	NA	NA	NA
2019/11/02 21:53:00	AWS2	0.27	136	1.39	129	M	M	M	NA	NA	972.6	NA	NA		M	NA	NA	NA	NA
2019/11/02 21:54:00	AWS2	0.80	130	1.39	124	M	M	M	NA	NA	972.3	NA	NA		M	NA	NA	NA	NA
2019/11/02 21:55:00	AWS2	1.39	129	1.75	137	M	M	M	NA	NA	972.5	NA	NA		M	NA	NA	NA	NA
2019/11/02 21:56:00	AWS2	1.56	136	1.75	137	M	M	M	NA	NA	972.7	NA	NA		M	NA	NA	NA	NA
2019/11/02 21:57:00	AWS2	1.52	141	1.75	137	M	M	M	NA	NA	972.6	NA	NA		M	NA	NA	NA	NA
2019/11/02 21:58:00	AWS2	1.43	139	1.75	137	M	M	M	NA	NA	972.6	NA	NA		M	NA	NA	NA	NA
2019/11/02 21:59:00	AWS2	1.49	130	1.75	121	M	M	M	NA	NA	972.3	NA	NA		M	NA	NA	NA	NA
2019/11/02 22:00:00	AWS2	1.48	126	1.75	121	M	M	M	NA	NA	972.6	NA	NA		M	NA	NA	NA	NA
2019/11/02 22:01:00	AWS2	1.34	126	1.75	121	M	M	M	NA	NA	972.4	NA	NA		M	NA	NA	NA	NA
2019/11/02 22:02:00	AWS2	1.16	125	1.75	121	M	M	M	NA	NA	972.2	NA	NA		M	NA	NA	NA	NA
2019/11/02 22:03:00	AWS2	1.11	127	1.75	121	M	M	M	NA	NA	972.5	NA	NA		M	NA	NA	NA	NA
2019/11/02 22:04:00	AWS2	1.02	126	1.75	121	M	M	M	NA	NA	972.4	NA	NA		M	NA	NA	NA	NA
2019/11/02 22:05:00	AWS2	0.69	120	1.75	121	M	M	M	NA	NA	972.3	NA	NA		M	NA	NA	NA	NA
2019/11/02 22:06:00	AWS2	0.41	118	1.75	121	M	M	M	NA	NA	972.5	NA	NA		M	NA	NA	NA	NA
2019/11/02 22:07:00	AWS2	0.14	117	1.75	121	M	M	M	NA	NA	972.6	NA	NA		M	NA	NA	NA	NA
2019/11/02 22:08:00	AWS2	0.00	115	1.75	121	M	M	M	NA	NA	972.4	NA	NA		M	NA	NA	NA	NA
2019/11/02 22:09:00	AWS2	0.00	99	1.54	118	M	M	M	NA	NA	972.5	NA	NA		M	NA	NA	NA	NA
2019/11/02 22:10:00	AWS2	0.57	75	1.49	64	M	M	M	NA	NA	972.1	NA	NA		M	NA	NA	NA	NA
2019/11/02 22:11:00	AWS2	1.40	64	1.80	60	M	M	M	NA	NA	972.1	NA	NA		M	NA	NA	NA	NA
2019/11/02 22:12:00	AWS2	1.61	61	1.80	60	M	M	M	NA	NA	972.4	NA	NA		M	NA	NA	NA	NA
2019/11/02 22:13:00	AWS2	1.54	61	1.80	60	M	M	M	NA	NA	972.4	NA	NA		M	NA	NA	NA	NA
2019/11/02 22:14:00	AWS2	1.54	63	1.80	60	M	M	M	NA	NA	971.9	NA	NA		M	NA	NA	NA	NA
2019/11/02 22:15:01	AWS2	1.54	62	1.80	60	M	M	M	NA	NA	972.4	NA	NA		M	NA	NA	NA	NA
2019/11/02 22:16:00	AWS2	1.49	54	1.80	60	M	M	M	NA	NA	972.7	NA	NA		M	NA	NA	NA	NA
2019/11/02 22:17:00	AWS2	1.53	53	1.90	64	M	M	M	NA	NA	972.1	NA	NA		M	NA	NA	NA	NA
2019/11/02 22:18:00	AWS2	1.52	58	1.90	64	M	M	M	NA	NA	971.9	NA	NA		M	NA	NA	NA	NA
2019/11/02 22:19:00	AWS2	1.28	60	1.90	64	M	M	M	NA	NA	972.2	NA	NA		M	NA	NA	NA	NA
2019/11/02 22:20:00	AWS2	1.25	61	1.90	64	M	M	M	NA	NA	972.3	NA	NA		M	NA	NA	NA	NA
2019/11/02 22:21:00	AWS2	1.44	62	1.90	64	M	M	M	NA	NA	972.1	NA	NA		M	NA	NA	NA	NA
2019/11/02 22:22:00	AWS2	1.50	60	1.90	64	M	M	M	NA	NA	972.2	NA	NA		M	NA	NA	NA	NA
2019/11/02 22:23:00	AWS2	1.57	56	1.95	61	M	M	M	NA	NA	972.2	NA	NA		M	NA	NA	NA	NA
2019/11/02 22:24:00	AWS2	1.54	52	1.95	61	M	M	M	NA	NA	971.9	NA	NA		M	NA	NA	NA	NA
2019/11/02 22:25:00	AWS2	1.57	49	2.06	45	M	M	M	NA	NA	971.8	NA	NA		M	NA	NA	NA	NA
2019/11/02 22:26:00	AWS2	1.66	52	2.06	45	M	M	M	NA	NA	972.6	NA	NA		M	NA	NA	NA	NA
2019/11/02 22:27:00	AWS2	1.57	53	2.06	45	M	M	M	NA	NA	972.5	NA	NA		M	NA	NA	NA	NA
2019/11/02 22:28:00	AWS2	1.57	42	2.06	45	M	M	M	NA	NA	972.2	NA	NA		M	NA	NA	NA	NA
2019/11/02 22:29:00	AWS2	1.45	36	2.06	45	M	M	M	NA	NA	972.2	NA	NA		M	NA	NA	NA	NA
2019/11/02 22:30:00	AWS2	1.18	36	2.06	45	M	M	M	NA	NA	972.6	NA	NA		M	NA	NA	NA	NA
2019/11/02 22:31:00	AWS2	1.20	37	2.06	45	M	M	M	NA	NA	972.2	NA	NA		M	NA	NA	NA	NA
2019/11/02 22:32:00	AWS2	1.33	43	2.06	45	M	M	M	NA	NA	972.4	NA	NA		M	NA	NA	NA	NA
2019/11/02 22:33:00	AWS2	1.49	40	2.06	45	M	M	M	NA	NA	972.3	NA	NA		M	NA	NA	NA	NA
2019/11/02 22:34:00	AWS2	1.57	33	2.06	45	M	M	M	NA	NA	972.8	NA	NA		M	NA	NA	NA	NA
2019/11/02 22:35:00	AWS2	1.62	34	1.90	35	M	M	M	NA	NA	972.6	NA	NA		M	NA	NA	NA	NA
2019/11/02 22:36:00	AWS2	1.67	33	1.90	35	M	M	M	NA	NA	972.5	NA	NA		M	NA	NA	NA	NA
2019/11/02 22:37:00	AWS2	1.81	30	2.11	35	M	M	M	NA	NA	971.6	NA	NA		M	NA	NA	NA	NA
2019/11/02 22:38:00	AWS2	1.95	27	2.11	35	M	M	M	NA	NA	972.1	NA	NA		M	NA	NA	NA	NA
2019/11/02 22:39:00	AWS2	1.88	23	2.11	35	M	M	M	NA	NA	972.2	NA	NA		M	NA	NA	NA	NA
2019/11/02 22:40:00	AWS2	1.85	19	2.11	35	M	M	M	NA	NA	972.1	NA	NA		M	NA	NA	NA	NA
2019/11/02 22:41:00	AWS2	1.83	18	2.11	35	M	M	M	NA	NA	972.1	NA	NA		M	NA	NA	NA	NA
2019/11/02 22:42:00	AWS2	1.82	19	2.11	35	M	M	M	NA	NA	972.2	NA	NA		M	NA	NA	NA	NA
2019/11/02 22:43:00	AWS2	1.85	20	2.11	35	M	M	M	NA	NA	972.1	NA	NA		M	NA	NA	NA	NA
2019/11/02 22:44:00	AWS2	1.85	27	2.11	35	M	M	M	NA	NA	972.2	NA	NA		M	NA	NA	NA	NA
2019/11/02 22:45:00	AWS2	1.62	34	2.11	35	M	M	M	NA	NA	972.2	NA	NA		M	NA	NA	NA	NA
2019/11/02 22:46:00	AWS2	1.41	44	2.11	35	M	M	M	NA	NA	971.8	NA	NA		M	NA	NA	NA	NA
2019/11/02 22:47:00	AWS2	1.49	55	2.06	26	M	M	M	NA	NA	971.7	NA	NA		M	NA	NA	NA	NA
2019/11/02 22:48:00	AWS2	1.52	58	2.06	26	M	M	M	NA	NA	972.1	NA	NA		M	NA	NA	NA	NA
2019/11/02 22:49:00	AWS2	1.35	58	2.06	26	M	M	M	NA	NA	972.0	NA	NA		M	NA	NA	NA	NA
2019/11/02 22:50:00	AWS2	1.33	57	2.06	26	M	M	M	NA	NA	971.9	NA	NA		M	NA	NA	NA	NA
2019/11/02 22:51:00	AWS2	1.43	53	2.06	26	M	M	M	NA	NA	971.9	NA	NA		M	NA	NA	NA	NA
2019/11/02 22:52:00	AWS2	1.49	49	2.06	26	M	M	M	NA	NA	972.0	NA	NA		M	NA	NA	NA	NA
2019/11/02 22:53:00	AWS2	1.66	50	2.06	26	M	M	M	NA	NA	972.0	NA	NA		M	NA	NA	NA	NA
2019/11/02 22:54:00	AWS2	1.74	52	1.90	48	M	M	M	NA	NA	971.5	NA	NA		M	NA	NA	NA	NA
2019/11/02 22:55:00	AWS2	1.64	52	1.90	48	M	M	M	NA	NA	971.4	NA	NA		M	NA	NA	NA	NA
2019/11/02 22:56:00	AWS2	1.55	57	1.90	48	M	M	M	NA	NA	971.8	NA	NA		M	NA	NA	NA	NA
2019/11/02 22:57:00	AWS2	1.43	62	1.90	48	M	M	M	NA	NA	972.2	NA	NA		M	NA	NA	NA	NA
2019/11/02 22:58:00	AWS2	1.24	68	1.90	48	M	M	M	NA	NA	971.6	NA	NA		M	NA	NA	NA	NA
2019/11/02 22:59:00	AWS2	0.76	75	1.90	48	M	M	M	NA	NA	971.5	NA	NA		M	NA	NA	NA	NA
2019/11/02 23:00:00	AWS2	0.27	82	1.90	48	M	M	M	NA	NA	971.4	NA	NA		M	NA	NA	NA	NA
2019/11/02 23:01:00	AWS2	0.75	91	1.90	48	M	M	M	NA	NA	971.2	NA	NA		M	NA	NA	NA	NA
2019/11/02 23:02:00	AWS2	1.36	98	1.90	48	M	M	M	NA	NA	971.9	NA	NA		M	NA	NA	NA	NA
2019/11/02 23:03:00	AWS2	1.38	104	1.85	60	M	M	M	NA	NA	970.9	NA	NA		M	NA	NA	NA	NA
2019/11/02 23:04:00	AWS2	1.42	113	1.95	126	M	M	M	NA	NA	972.0	NA	NA		M	NA	NA	NA	NA
2019/11/02 23:05:00	AWS2	1.52	112	1.95	126	M	M	M	NA	NA	971.0	NA	NA		M	NA	NA	NA	NA
2019/11/02 23:06:00	AWS2	1.44	106	1.95	126	M	M	M	NA	NA	971.1	NA	NA		M	NA	NA	NA	NA
2019/11/02 23:07:00	AWS2	1.45	100	1.95	126	M	M	M	NA	NA	971.2	NA	NA		M	NA	NA	NA	NA
2019/11/02 23:08:00	AWS2	1.68	98	1.95	103	M	M	M	NA	NA	970.9	NA	NA		M	NA	NA	NA	NA
2019/11/02 23:09:00	AWS2	1.83	110	2.11	111	M	M	M	NA	NA	970.4	NA	NA		M	NA	NA	NA	NA
2019/11/02 23:10:00	AWS2	1.90	124	2.31	134	M	M	M	NA	NA	970.8	NA	NA		M	NA	NA	NA	NA
2019/11/02 23:11:00	AWS2	2.15	133	2.47	134	M	M	M	NA	NA	970.2	NA	NA		M	NA	NA	NA	NA
2019/11/02 23:12:00	AWS2	2.44	135	2.62	136	M	M	M	NA	NA	970.8	NA	NA		M	NA	NA	NA	NA
2019/11/02 23:13:00	AWS2	2.55	134	2.68	132	M	M	M	NA	NA	970.1	NA	NA		M	NA	NA	NA	NA
2019/11/02 23:14:00	AWS2	2.51	132	2.68	132	M	M	M	NA	NA	970.1	NA	NA		M	NA	NA	NA	NA
2019/11/02 23:15:00	AWS2	2.41	130	2.68	132	M	M	M	NA	NA	970.3	NA	NA		M	NA	NA	NA	NA
2019/11/02 23:16:00	AWS2	2.40	130	2.68	132	M	M	M	NA	NA	971.1	NA	NA		M	NA	NA	NA	NA
2019/11/02 23:17:00	AWS2	2.28	133	2.68	132	M	M	M	NA	NA	971.2	NA	NA		M	NA	NA	NA	NA
2019/11/02 23:18:00	AWS2	2.24	134	2.68	132	M	M	M	NA	NA	971.3	NA	NA		M	NA	NA	NA	NA
2019/11/02 23:19:00	AWS2	2.27	129	2.68	132	M	M	M	NA	NA	970.6	NA	NA		M	NA	NA	NA	NA
2019/11/02 23:20:00	AWS2	2.35	122	2.68	132	M	M	M	NA	NA	970.5	NA	NA		M	NA	NA	NA	NA
2019/11/02 23:21:00	AWS2	2.41	121	2.68	132	M	M	M	NA	NA	969.3	NA	NA		M	NA	NA	NA	NA
2019/11/02 23:22:00	AWS2	2.50	125	2.78	124	M	M	M	NA	NA	970.9	NA	NA		M	NA	NA	NA	NA
2019/11/02 23:23:00	AWS2	2.59	126	2.78	122	M	M	M	NA	NA	970.9	NA	NA		M	NA	NA	NA	NA
2019/11/02 23:24:00	AWS2	2.66	124	2.88	121	M	M	M	NA	NA	970.6	NA	NA		M	NA	NA	NA	NA
2019/11/02 23:25:00	AWS2	2.68	124	2.88	121	M	M	M	NA	NA	970.8	NA	NA		M	NA	NA	NA	NA
2019/11/02 23:26:00	AWS2	2.60	125	2.88	121	M	M	M	NA	NA	970.9	NA	NA		M	NA	NA	NA	NA
2019/11/02 23:27:00	AWS2	2.58	126	2.88	121	M	M	M	NA	NA	969.9	NA	NA		M	NA	NA	NA	NA
2019/11/02 23:28:00	AWS2	2.57	126	2.88	121	M	M	M	NA	NA	970.0	NA	NA		M	NA	NA	NA	NA
2019/11/02 23:29:00	AWS2	2.56	124	2.88	121	M	M	M	NA	NA	969.3	NA	NA		M	NA	NA	NA	NA
2019/11/02 23:30:00	AWS2	2.57	126	2.88	121	M	M	M	NA	NA	970.1	NA	NA		M	NA	NA	NA	NA
2019/11/02 23:31:00	AWS2	2.59	126	2.88	121	M	M	M	NA	NA	971.1	NA	NA		M	NA	NA	NA	NA
2019/11/02 23:32:00	AWS2	2.51	123	2.88	121	M	M	M	NA	NA	969.6	NA	NA		M	NA	NA	NA	NA
2019/11/02 23:33:00	AWS2	2.63	121	3.09	121	M	M	M	NA	NA	970.0	NA	NA		M	NA	NA	NA	NA
2019/11/02 23:34:00	AWS2	2.75	118	3.09	121	M	M	M	NA	NA	970.6	NA	NA		M	NA	NA	NA	NA
2019/11/02 23:35:00	AWS2	2.77	116	3.09	121	M	M	M	NA	NA	970.7	NA	NA		M	NA	NA	NA	NA
2019/11/02 23:36:00	AWS2	2.69	114	3.09	121	M	M	M	NA	NA	971.1	NA	NA		M	NA	NA	NA	NA
2019/11/02 23:37:00	AWS2	2.66	114	3.24	118	M	M	M	NA	NA	970.8	NA	NA		M	NA	NA	NA	NA
2019/11/02 23:38:00	AWS2	3.02	113	3.76	109	M	M	M	NA	NA	969.9	NA	NA		M	NA	NA	NA	NA
2019/11/02 23:39:00	AWS2	2.84	109	3.76	109	M	M	M	NA	NA	971.5	NA	NA		M	NA	NA	NA	NA
2019/11/02 23:40:00	AWS2	2.59	99	3.76	109	M	M	M	NA	NA	970.6	NA	NA		M	NA	NA	NA	NA
2019/11/02 23:41:00	AWS2	2.77	94	3.76	109	M	M	M	NA	NA	970.4	NA	NA		M	NA	NA	NA	NA
2019/11/02 23:42:00	AWS2	2.70	92	3.76	109	M	M	M	NA	NA	970.6	NA	NA		M	NA	NA	NA	NA
2019/11/02 23:43:00	AWS2	2.57	91	3.76	109	M	M	M	NA	NA	970.5	NA	NA		M	NA	NA	NA	NA
2019/11/02 23:44:00	AWS2	2.67	93	3.76	109	M	M	M	NA	NA	970.2	NA	NA		M	NA	NA	NA	NA
2019/11/02 23:45:00	AWS2	2.75	92	3.76	109	M	M	M	NA	NA	971.1	NA	NA		M	NA	NA	NA	NA
2019/11/02 23:46:00	AWS2	2.94	90	3.76	109	M	M	M	NA	NA	970.3	NA	NA		M	NA	NA	NA	NA
2019/11/02 23:47:00	AWS2	3.20	88	3.76	109	M	M	M	NA	NA	970.8	NA	NA		M	NA	NA	NA	NA
2019/11/02 23:48:00	AWS2	3.07	85	3.55	88	M	M	M	NA	NA	971.0	NA	NA		M	NA	NA	NA	NA
2019/11/02 23:49:00	AWS2	3.08	89	3.55	88	M	M	M	NA	NA	970.1	NA	NA		M	NA	NA	NA	NA
2019/11/02 23:50:00	AWS2	3.24	92	3.55	88	M	M	M	NA	NA	970.5	NA	NA		M	NA	NA	NA	NA
2019/11/02 23:51:00	AWS2	3.06	91	3.55	88	M	M	M	NA	NA	971.0	NA	NA		M	NA	NA	NA	NA
2019/11/02 23:52:00	AWS2	3.08	90	3.76	94	M	M	M	NA	NA	970.2	NA	NA		M	NA	NA	NA	NA
2019/11/02 23:53:00	AWS2	3.27	94	3.76	98	M	M	M	NA	NA	970.4	NA	NA		M	NA	NA	NA	NA
2019/11/02 23:54:00	AWS2	3.28	95	3.76	98	M	M	M	NA	NA	970.6	NA	NA		M	NA	NA	NA	NA
2019/11/02 23:55:00	AWS2	3.32	87	3.76	98	M	M	M	NA	NA	970.5	NA	NA		M	NA	NA	NA	NA
2019/11/02 23:56:00	AWS2	3.37	78	4.06	67	M	M	M	NA	NA	970.4	NA	NA		M	NA	NA	NA	NA
2019/11/02 23:57:00	AWS2	3.52	75	4.06	91	M	M	M	NA	NA	970.9	NA	NA		M	NA	NA	NA	NA
2019/11/02 23:58:00	AWS2	3.69	86	4.06	91	M	M	M	NA	NA	970.2	NA	NA		M	NA	NA	NA	NA
2019/11/02 23:59:00	AWS2	3.41	95	4.06	91	M	M	M	NA	NA	970.5	NA	NA		M	NA	NA	NA	NA